Darstellungsparameter: Aktuell verwendete Einstellungen:
Skalierung der Graphiken ... ?
xyx+y,   Skalierungsfaktor:      Skalierung: Modus: x, Faktor: 1
Darstellungszeitraum ... ?
Vom - - bis: - -   Zeitraum: 30.01.2015 - 19.02.2015
Min/Max/Avg-Anzeige ... ?
Zeige MMA aktuell
Zeige MMA Monat
Zeige MMA alles
Zeige --A aktuell
Zeige --A Monat
Zeige --A alles
Keine MMA-Anzeige
MMA:
Average (ber die Originaldaten)
MMA-Basis: 30.01.2015 - 19.02.2015
Quicknavigation für Darstellung... ?
Tage:      1T, 2T, 3T, 5T -1T -2T -3T -5T +1T +2T +3T +5T
Wochen: 1W, 2W, 3W -1W -2W -3W +1W +2W +3W
Monate: 1M, 3M, 6M -1M -3M -6M +1M +3M +6M
Jahre:    1J, 3J, 5J, 10J -1J -3J -5J -10J +1J +3J +5J +10J
Nutze für die Darstellung ... ?
Originaldaten oder Mittelwerte auf ...
Stundenbasis Tagesbasis Wochenbasis
Monatsbasis Jahresbasis      Datenbasis: Original-Daten
Darstellen als:
Statistik (Auto) Statistik J:M      Darstellung:
Zur Graphik,    zurück zur Übersicht aller Sensoren.
 
Tabellarische Datenbersicht: ?
 
Sensor: Nr:Datum:Temp:Abs-Feuchte:Windchill:Wind:
Aussen-T/F 1 30-01-2015 00:00:00 2.6 C 5.56 g/m*3 2.6 C 0 km/h
2 30-01-2015 00:05:00 2.6 C 5.56 g/m*3 2.6 C 1.6 km/h
3 30-01-2015 00:10:00 2.6 C 5.56 g/m*3 2.6 C 0 km/h
4 30-01-2015 00:15:00 2.5 C 5.52 g/m*3 2.5 C 0 km/h
5 30-01-2015 00:20:00 2.4 C 5.48 g/m*3 2.4 C 1.6 km/h
6 30-01-2015 00:25:00 2.4 C 5.48 g/m*3 2.4 C 1.6 km/h
7 30-01-2015 00:30:00 2.4 C 5.48 g/m*3 2.4 C 0 km/h
8 30-01-2015 00:35:00 2.4 C 5.54 g/m*3 2.4 C 0 km/h
9 30-01-2015 00:40:00 2.4 C 5.54 g/m*3 2.4 C 0 km/h
10 30-01-2015 00:45:00 2.4 C 5.48 g/m*3 2.4 C 0 km/h
11 30-01-2015 00:50:00 2.4 C 5.48 g/m*3 2.4 C 0 km/h
12 30-01-2015 00:55:00 2.3 C 5.44 g/m*3 2.3 C 0 km/h
13 30-01-2015 01:00:00 2.3 C 5.44 g/m*3 2.3 C 0 km/h
14 30-01-2015 01:05:00 2.3 C 5.44 g/m*3 2.3 C 1.6 km/h
15 30-01-2015 01:10:00 2.3 C 5.5 g/m*3 2.3 C 3.2 km/h
16 30-01-2015 01:15:00 2.3 C 5.5 g/m*3 2.3 C 3.2 km/h
17 30-01-2015 01:20:00 2.3 C 5.5 g/m*3 2.3 C 1.6 km/h
18 30-01-2015 01:25:00 2.3 C 5.5 g/m*3 2.3 C 1.6 km/h
19 30-01-2015 01:30:00 2.3 C 5.44 g/m*3 2.3 C 3.2 km/h
20 30-01-2015 01:35:00 2.3 C 5.44 g/m*3 2.3 C 4.8 km/h
21 30-01-2015 01:40:00 2.3 C 5.44 g/m*3 2.3 C 0 km/h
22 30-01-2015 01:45:00 2.2 C 5.41 g/m*3 2.2 C 0 km/h
23 30-01-2015 01:50:00 2 C 5.33 g/m*3 2 C 0 km/h
24 30-01-2015 01:55:00 2 C 5.33 g/m*3 2 C 0 km/h
25 30-01-2015 02:00:00 2 C 5.33 g/m*3 2 C 0 km/h
Sensor: Nr:Datum:Temp:Abs-Feuchte:Windchill:Wind:
Aussen-T/F 26 30-01-2015 02:05:00 2.1 C 5.37 g/m*3 2.1 C 0 km/h
27 30-01-2015 02:10:00 2.1 C 5.43 g/m*3 2.1 C 4.8 km/h
28 30-01-2015 02:15:00 2.2 C 5.46 g/m*3 2.2 C 1.6 km/h
29 30-01-2015 02:20:00 2.2 C 5.46 g/m*3 2.2 C 0 km/h
30 30-01-2015 02:25:00 2.2 C 5.46 g/m*3 2.2 C 0 km/h
31 30-01-2015 02:30:00 2.3 C 5.5 g/m*3 2.3 C 0 km/h
32 30-01-2015 02:35:00 2.3 C 5.5 g/m*3 -0.07 C 8.1 km/h
33 30-01-2015 02:40:00 2.2 C 5.46 g/m*3 -0.18 C 8.1 km/h
34 30-01-2015 02:45:00 2.1 C 5.37 g/m*3 -1.11 C 11.3 km/h
35 30-01-2015 02:50:00 1.9 C 5.3 g/m*3 1.9 C 4.8 km/h
36 30-01-2015 02:55:00 1.8 C 5.26 g/m*3 -1.09 C 9.7 km/h
37 30-01-2015 03:00:00 1.7 C 5.23 g/m*3 1.7 C 1.6 km/h
38 30-01-2015 03:05:00 1.6 C 5.19 g/m*3 -0.33 C 6.4 km/h
39 30-01-2015 03:10:00 1.5 C 5.16 g/m*3 1.5 C 1.6 km/h
40 30-01-2015 03:15:00 1.5 C 5.16 g/m*3 1.5 C 1.6 km/h
41 30-01-2015 03:20:00 1.5 C 5.16 g/m*3 1.5 C 1.6 km/h
42 30-01-2015 03:25:00 1.5 C 5.16 g/m*3 1.5 C 4.8 km/h
43 30-01-2015 03:30:00 1.6 C 5.19 g/m*3 1.6 C 3.2 km/h
44 30-01-2015 03:35:00 1.6 C 5.19 g/m*3 1.6 C 4.8 km/h
45 30-01-2015 03:40:00 1.6 C 5.19 g/m*3 1.6 C 3.2 km/h
46 30-01-2015 03:45:00 1.6 C 5.19 g/m*3 -2.05 C 12.9 km/h
47 30-01-2015 03:50:00 1.7 C 5.17 g/m*3 -1.93 C 12.9 km/h
48 30-01-2015 03:55:00 1.7 C 5.12 g/m*3 1.7 C 4.8 km/h
49 30-01-2015 04:00:00 1.8 C 5.15 g/m*3 1.8 C 4.8 km/h
50 30-01-2015 04:05:00 1.8 C 5.1 g/m*3 -1.8 C 12.9 km/h
Sensor: Nr:Datum:Temp:Abs-Feuchte:Windchill:Wind:
Aussen-T/F 51 30-01-2015 04:10:00 1.8 C 5.04 g/m*3 1.8 C 3.2 km/h
52 30-01-2015 04:15:00 1.8 C 4.99 g/m*3 1.8 C 1.6 km/h
53 30-01-2015 04:20:00 1.8 C 5.04 g/m*3 1.8 C 1.6 km/h
54 30-01-2015 04:25:00 1.8 C 5.1 g/m*3 1.8 C 4.8 km/h
55 30-01-2015 04:30:00 1.7 C 4.95 g/m*3 -2.23 C 14.5 km/h
56 30-01-2015 04:35:00 1.7 C 4.95 g/m*3 1.7 C 3.2 km/h
57 30-01-2015 04:40:00 1.6 C 4.92 g/m*3 -0.89 C 8.1 km/h
58 30-01-2015 04:45:00 1.6 C 4.87 g/m*3 -1.33 C 9.7 km/h
59 30-01-2015 04:50:00 1.6 C 4.87 g/m*3 -0.89 C 8.1 km/h
60 30-01-2015 04:55:00 1.6 C 4.87 g/m*3 -0.33 C 6.4 km/h
61 30-01-2015 05:00:00 1.6 C 4.81 g/m*3 -0.33 C 6.4 km/h
62 30-01-2015 05:05:00 1.6 C 4.81 g/m*3 -0.33 C 6.4 km/h
63 30-01-2015 05:10:00 1.6 C 4.87 g/m*3 1.6 C 4.8 km/h
64 30-01-2015 05:15:00 1.6 C 4.87 g/m*3 1.6 C 4.8 km/h
65 30-01-2015 05:20:00 1.6 C 4.81 g/m*3 -1.71 C 11.3 km/h
66 30-01-2015 05:25:00 1.6 C 4.81 g/m*3 -0.33 C 6.4 km/h
67 30-01-2015 05:30:00 1.6 C 4.76 g/m*3 -0.33 C 6.4 km/h
68 30-01-2015 05:35:00 1.6 C 4.76 g/m*3 -0.89 C 8.1 km/h
69 30-01-2015 05:40:00 1.6 C 4.76 g/m*3 1.6 C 4.8 km/h
70 30-01-2015 05:45:00 1.6 C 4.7 g/m*3 -0.89 C 8.1 km/h
71 30-01-2015 05:50:00 1.6 C 4.7 g/m*3 -2.05 C 12.9 km/h
72 30-01-2015 05:55:00 1.6 C 4.65 g/m*3 -2.35 C 14.5 km/h
73 30-01-2015 06:00:00 1.6 C 4.7 g/m*3 -1.71 C 11.3 km/h
74 30-01-2015 06:05:00 1.6 C 4.7 g/m*3 -0.33 C 6.4 km/h
75 30-01-2015 06:10:00 1.6 C 4.65 g/m*3 -1.33 C 9.7 km/h
Sensor: Nr:Datum:Temp:Abs-Feuchte:Windchill:Wind:
Aussen-T/F 76 30-01-2015 06:15:00 1.7 C 4.63 g/m*3 -1.59 C 11.3 km/h
77 30-01-2015 06:20:00 1.7 C 4.68 g/m*3 -0.22 C 6.4 km/h
78 30-01-2015 06:25:00 1.7 C 4.68 g/m*3 -1.21 C 9.7 km/h
79 30-01-2015 06:30:00 1.7 C 4.63 g/m*3 -0.77 C 8.1 km/h
80 30-01-2015 06:35:00 1.7 C 4.63 g/m*3 -2.51 C 16.1 km/h
81 30-01-2015 06:40:00 1.7 C 4.63 g/m*3 -1.21 C 9.7 km/h
82 30-01-2015 06:45:00 1.7 C 4.63 g/m*3 -0.77 C 8.1 km/h
83 30-01-2015 06:50:00 1.6 C 4.6 g/m*3 -2.35 C 14.5 km/h
84 30-01-2015 06:55:00 1.7 C 4.63 g/m*3 -1.93 C 12.9 km/h
85 30-01-2015 07:00:00 1.7 C 4.63 g/m*3 -0.77 C 8.1 km/h
86 30-01-2015 07:05:00 1.7 C 4.57 g/m*3 -2.23 C 14.5 km/h
87 30-01-2015 07:10:00 1.8 C 4.6 g/m*3 -1.47 C 11.3 km/h
88 30-01-2015 07:15:00 1.8 C 4.55 g/m*3 -1.47 C 11.3 km/h
89 30-01-2015 07:20:00 1.8 C 4.6 g/m*3 -1.8 C 12.9 km/h
90 30-01-2015 07:25:00 1.8 C 4.66 g/m*3 -1.09 C 9.7 km/h
91 30-01-2015 07:30:00 1.7 C 4.68 g/m*3 -1.21 C 9.7 km/h
92 30-01-2015 07:35:00 1.6 C 4.7 g/m*3 -0.89 C 8.1 km/h
93 30-01-2015 07:40:00 1.5 C 4.73 g/m*3 -1.45 C 9.7 km/h
94 30-01-2015 07:45:00 1.4 C 4.75 g/m*3 -1.57 C 9.7 km/h
95 30-01-2015 07:50:00 1.4 C 4.75 g/m*3 -1.12 C 8.1 km/h
96 30-01-2015 07:55:00 1.3 C 4.72 g/m*3 -2.41 C 12.9 km/h
97 30-01-2015 08:00:00 1.3 C 4.77 g/m*3 -1.69 C 9.7 km/h
98 30-01-2015 08:05:00 1.3 C 4.77 g/m*3 -1.24 C 8.1 km/h
99 30-01-2015 08:10:00 1.2 C 4.79 g/m*3 -2.19 C 11.3 km/h
100 30-01-2015 08:15:00 1.2 C 4.79 g/m*3 -2.19 C 11.3 km/h
Sensor: Nr:Datum:Temp:Abs-Feuchte:Windchill:Wind:
Aussen-T/F 101 30-01-2015 08:20:00 1.2 C 4.79 g/m*3 -1.36 C 8.1 km/h
102 30-01-2015 08:25:00 1.2 C 4.79 g/m*3 -2.19 C 11.3 km/h
103 30-01-2015 08:30:00 1.2 C 4.79 g/m*3 -0.8 C 6.4 km/h
104 30-01-2015 08:35:00 1.2 C 4.79 g/m*3 1.2 C 4.8 km/h
105 30-01-2015 08:40:00 1.3 C 4.77 g/m*3 -1.69 C 9.7 km/h
106 30-01-2015 08:45:00 1.4 C 4.75 g/m*3 -1.57 C 9.7 km/h
107 30-01-2015 08:50:00 1.6 C 4.76 g/m*3 -2.05 C 12.9 km/h
108 30-01-2015 08:55:00 1.6 C 4.76 g/m*3 -0.89 C 8.1 km/h
109 30-01-2015 09:00:00 1.7 C 4.74 g/m*3 -2.23 C 14.5 km/h
110 30-01-2015 09:05:00 1.8 C 4.77 g/m*3 -0.65 C 8.1 km/h
111 30-01-2015 09:10:00 1.8 C 4.77 g/m*3 -0.65 C 8.1 km/h
112 30-01-2015 09:15:00 1.8 C 4.77 g/m*3 -1.47 C 11.3 km/h
113 30-01-2015 09:20:00 1.9 C 4.75 g/m*3 -2.97 C 20.9 km/h
114 30-01-2015 09:25:00 2 C 4.72 g/m*3 -1.56 C 12.9 km/h
115 30-01-2015 09:30:00 2.2 C 4.79 g/m*3 -1.89 C 16.1 km/h
116 30-01-2015 09:35:00 2.2 C 4.73 g/m*3 -2.14 C 17.7 km/h
117 30-01-2015 09:40:00 2.2 C 4.73 g/m*3 -1.32 C 12.9 km/h
118 30-01-2015 09:45:00 2.2 C 4.73 g/m*3 -0.99 C 11.3 km/h
119 30-01-2015 09:50:00 2.1 C 4.76 g/m*3 -2.01 C 16.1 km/h
120 30-01-2015 09:55:00 2.1 C 4.76 g/m*3 -2.01 C 16.1 km/h
121 30-01-2015 10:00:00 2.1 C 4.76 g/m*3 -0.3 C 8.1 km/h
122 30-01-2015 10:05:00 2.1 C 4.76 g/m*3 -0.3 C 8.1 km/h
123 30-01-2015 10:10:00 2.1 C 4.76 g/m*3 -0.3 C 8.1 km/h
124 30-01-2015 10:15:00 2.1 C 4.81 g/m*3 -0.73 C 9.7 km/h
125 30-01-2015 10:20:00 2.1 C 4.81 g/m*3 -1.74 C 14.5 km/h
Sensor: Nr:Datum:Temp:Abs-Feuchte:Windchill:Wind:
Aussen-T/F 126 30-01-2015 10:25:00 2.1 C 4.81 g/m*3 -1.11 C 11.3 km/h
127 30-01-2015 10:30:00 2.2 C 4.84 g/m*3 -1.32 C 12.9 km/h
128 30-01-2015 10:35:00 2.3 C 4.88 g/m*3 -0.87 C 11.3 km/h
129 30-01-2015 10:40:00 2.4 C 4.91 g/m*3 -0.37 C 9.7 km/h
130 30-01-2015 10:45:00 2.4 C 4.91 g/m*3 -1.64 C 16.1 km/h
131 30-01-2015 10:50:00 2.5 C 4.94 g/m*3 -1.25 C 14.5 km/h
132 30-01-2015 10:55:00 2.6 C 4.98 g/m*3 -0.5 C 11.3 km/h
133 30-01-2015 11:00:00 2.6 C 4.98 g/m*3 -0.14 C 9.7 km/h
134 30-01-2015 11:05:00 2.7 C 5.01 g/m*3 -0.38 C 11.3 km/h
135 30-01-2015 11:10:00 2.8 C 4.99 g/m*3 -1.39 C 17.7 km/h
136 30-01-2015 11:15:00 2.8 C 4.99 g/m*3 -0.88 C 14.5 km/h
137 30-01-2015 11:20:00 2.9 C 5.02 g/m*3 -0.46 C 12.9 km/h
138 30-01-2015 11:25:00 2.9 C 5.08 g/m*3 -0.46 C 12.9 km/h
139 30-01-2015 11:30:00 2.8 C 4.99 g/m*3 -0.26 C 11.3 km/h
140 30-01-2015 11:35:00 2.8 C 4.99 g/m*3 0.1 C 9.7 km/h
141 30-01-2015 11:40:00 2.8 C 4.99 g/m*3 0.1 C 9.7 km/h
142 30-01-2015 11:45:00 2.8 C 4.93 g/m*3 -1.83 C 20.9 km/h
143 30-01-2015 11:50:00 2.9 C 4.96 g/m*3 -1.02 C 16.1 km/h
144 30-01-2015 11:55:00 2.9 C 4.96 g/m*3 -0.46 C 12.9 km/h
145 30-01-2015 12:00:00 2.9 C 4.96 g/m*3 -0.14 C 11.3 km/h
146 30-01-2015 12:05:00 2.9 C 4.96 g/m*3 -0.46 C 12.9 km/h
147 30-01-2015 12:10:00 2.9 C 4.96 g/m*3 0.64 C 8.1 km/h
148 30-01-2015 12:15:00 2.9 C 4.96 g/m*3 -0.14 C 11.3 km/h
149 30-01-2015 12:20:00 2.9 C 5.02 g/m*3 0.64 C 8.1 km/h
150 30-01-2015 12:25:00 2.9 C 5.02 g/m*3 0.22 C 9.7 km/h
Sensor: Nr:Datum:Temp:Abs-Feuchte:Windchill:Wind:
Aussen-T/F 151 30-01-2015 12:30:00 3 C 5.05 g/m*3 0.76 C 8.1 km/h
152 30-01-2015 12:35:00 3.1 C 5.03 g/m*3 -0.22 C 12.9 km/h
153 30-01-2015 12:40:00 3.2 C 5.12 g/m*3 -0.1 C 12.9 km/h
154 30-01-2015 12:45:00 3.3 C 5.16 g/m*3 1.63 C 6.4 km/h
155 30-01-2015 12:50:00 3.3 C 5.1 g/m*3 0.02 C 12.9 km/h
156 30-01-2015 12:55:00 3.4 C 5.13 g/m*3 0.82 C 9.7 km/h
157 30-01-2015 13:00:00 3.4 C 5.13 g/m*3 -0.64 C 17.7 km/h
158 30-01-2015 13:05:00 3.4 C 5.07 g/m*3 0.82 C 9.7 km/h
159 30-01-2015 13:10:00 3.4 C 5.01 g/m*3 -1.07 C 20.9 km/h
160 30-01-2015 13:15:00 3.4 C 5.01 g/m*3 -0.4 C 16.1 km/h
161 30-01-2015 13:20:00 3.3 C 4.97 g/m*3 0.34 C 11.3 km/h
162 30-01-2015 13:25:00 3.2 C 4.94 g/m*3 0.22 C 11.3 km/h
163 30-01-2015 13:30:00 3.2 C 4.94 g/m*3 0.58 C 9.7 km/h
164 30-01-2015 13:35:00 3.1 C 4.91 g/m*3 1.4 C 6.4 km/h
165 30-01-2015 13:40:00 3.1 C 4.97 g/m*3 -0.22 C 12.9 km/h
166 30-01-2015 13:45:00 3.1 C 4.97 g/m*3 1.4 C 6.4 km/h
167 30-01-2015 13:50:00 3 C 4.93 g/m*3 0.76 C 8.1 km/h
168 30-01-2015 13:55:00 3 C 4.99 g/m*3 1.28 C 6.4 km/h
169 30-01-2015 14:00:00 3 C 4.99 g/m*3 3 C 4.8 km/h
170 30-01-2015 14:05:00 2.9 C 4.9 g/m*3 0.22 C 9.7 km/h
171 30-01-2015 14:10:00 2.9 C 4.9 g/m*3 1.17 C 6.4 km/h
172 30-01-2015 14:15:00 3 C 4.88 g/m*3 0.34 C 9.7 km/h
173 30-01-2015 14:20:00 2.9 C 4.9 g/m*3 0.22 C 9.7 km/h
174 30-01-2015 14:25:00 2.9 C 4.9 g/m*3 2.9 C 4.8 km/h
175 30-01-2015 14:30:00 2.9 C 4.96 g/m*3 2.9 C 4.8 km/h
Sensor: Nr:Datum:Temp:Abs-Feuchte:Windchill:Wind:
Aussen-T/F 176 30-01-2015 14:35:00 2.8 C 4.93 g/m*3 1.05 C 6.4 km/h
177 30-01-2015 14:40:00 2.8 C 4.99 g/m*3 0.1 C 9.7 km/h
178 30-01-2015 14:45:00 2.8 C 4.99 g/m*3 0.52 C 8.1 km/h
179 30-01-2015 14:50:00 2.7 C 5.01 g/m*3 2.7 C 3.2 km/h
180 30-01-2015 14:55:00 2.6 C 4.98 g/m*3 2.6 C 3.2 km/h
181 30-01-2015 15:00:00 2.6 C 5.03 g/m*3 2.6 C 3.2 km/h
182 30-01-2015 15:05:00 2.4 C 4.97 g/m*3 2.4 C 4.8 km/h
183 30-01-2015 15:10:00 2.3 C 4.99 g/m*3 2.3 C 4.8 km/h
184 30-01-2015 15:15:00 2.2 C 5.01 g/m*3 2.2 C 3.2 km/h
185 30-01-2015 15:20:00 2.2 C 5.01 g/m*3 2.2 C 1.6 km/h
186 30-01-2015 15:25:00 2 C 5 g/m*3 2 C 3.2 km/h
187 30-01-2015 15:30:00 1.9 C 4.97 g/m*3 1.9 C 4.8 km/h
188 30-01-2015 15:35:00 1.9 C 5.02 g/m*3 1.9 C 3.2 km/h
189 30-01-2015 15:40:00 1.9 C 5.02 g/m*3 1.9 C 3.2 km/h
190 30-01-2015 15:45:00 1.8 C 4.99 g/m*3 1.8 C 3.2 km/h
191 30-01-2015 15:50:00 1.8 C 4.99 g/m*3 1.8 C 1.6 km/h
192 30-01-2015 15:55:00 1.8 C 4.99 g/m*3 -0.1 C 6.4 km/h
193 30-01-2015 16:00:00 1.8 C 4.99 g/m*3 1.8 C 1.6 km/h
194 30-01-2015 16:05:00 1.8 C 4.99 g/m*3 1.8 C 3.2 km/h
195 30-01-2015 16:10:00 1.7 C 4.95 g/m*3 1.7 C 3.2 km/h
196 30-01-2015 16:15:00 1.6 C 4.97 g/m*3 1.6 C 3.2 km/h
197 30-01-2015 16:20:00 1.5 C 4.94 g/m*3 1.5 C 3.2 km/h
198 30-01-2015 16:25:00 1.4 C 4.91 g/m*3 1.4 C 3.2 km/h
199 30-01-2015 16:30:00 1.3 C 4.93 g/m*3 1.3 C 3.2 km/h
200 30-01-2015 16:35:00 1.2 C 4.89 g/m*3 1.2 C 3.2 km/h
Sensor: Nr:Datum:Temp:Abs-Feuchte:Windchill:Wind:
Aussen-T/F 201 30-01-2015 16:40:00 1.2 C 4.89 g/m*3 1.2 C 3.2 km/h
202 30-01-2015 16:45:00 1.2 C 4.89 g/m*3 1.2 C 3.2 km/h
203 30-01-2015 16:50:00 1.1 C 4.91 g/m*3 1.1 C 3.2 km/h
204 30-01-2015 16:55:00 1.1 C 4.91 g/m*3 1.1 C 3.2 km/h
205 30-01-2015 17:00:00 1 C 4.88 g/m*3 1 C 3.2 km/h
206 30-01-2015 17:05:00 1 C 4.88 g/m*3 1 C 3.2 km/h
207 30-01-2015 17:10:00 0.9 C 4.85 g/m*3 0.9 C 3.2 km/h
208 30-01-2015 17:15:00 1 C 4.93 g/m*3 1 C 3.2 km/h
209 30-01-2015 17:20:00 1.1 C 4.96 g/m*3 1.1 C 4.8 km/h
210 30-01-2015 17:25:00 1.1 C 4.91 g/m*3 1.1 C 3.2 km/h
211 30-01-2015 17:30:00 1.2 C 4.95 g/m*3 -0.8 C 6.4 km/h
212 30-01-2015 17:35:00 1.2 C 5 g/m*3 1.2 C 3.2 km/h
213 30-01-2015 17:40:00 1.2 C 5 g/m*3 1.2 C 3.2 km/h
214 30-01-2015 17:45:00 1.2 C 5 g/m*3 1.2 C 3.2 km/h
215 30-01-2015 17:50:00 1.2 C 5 g/m*3 1.2 C 4.8 km/h
216 30-01-2015 17:55:00 1.2 C 5 g/m*3 -0.8 C 6.4 km/h
217 30-01-2015 18:00:00 1.3 C 5.03 g/m*3 1.3 C 4.8 km/h
218 30-01-2015 18:05:00 1.3 C 5.03 g/m*3 1.3 C 1.6 km/h
219 30-01-2015 18:10:00 1.3 C 5.03 g/m*3 1.3 C 1.6 km/h
220 30-01-2015 18:15:00 1.3 C 5.03 g/m*3 1.3 C 1.6 km/h
221 30-01-2015 18:20:00 1.3 C 5.03 g/m*3 1.3 C 3.2 km/h
222 30-01-2015 18:25:00 1.2 C 5 g/m*3 1.2 C 1.6 km/h
223 30-01-2015 18:30:00 1.2 C 5 g/m*3 1.2 C 1.6 km/h
224 30-01-2015 18:35:00 1.2 C 5 g/m*3 1.2 C 0 km/h
225 30-01-2015 18:40:00 1.2 C 5 g/m*3 1.2 C 1.6 km/h
Sensor: Nr:Datum:Temp:Abs-Feuchte:Windchill:Wind:
Aussen-T/F 226 30-01-2015 18:45:00 1.2 C 5 g/m*3 1.2 C 3.2 km/h
227 30-01-2015 18:50:00 1.3 C 5.03 g/m*3 1.3 C 4.8 km/h
228 30-01-2015 18:55:00 1.4 C 5.07 g/m*3 1.4 C 3.2 km/h
229 30-01-2015 19:00:00 1.5 C 5.05 g/m*3 1.5 C 4.8 km/h
230 30-01-2015 19:05:00 1.6 C 5.08 g/m*3 1.6 C 1.6 km/h
231 30-01-2015 19:10:00 1.7 C 5.12 g/m*3 1.7 C 1.6 km/h
232 30-01-2015 19:15:00 1.6 C 5.08 g/m*3 1.6 C 0 km/h
233 30-01-2015 19:20:00 1.6 C 5.08 g/m*3 1.6 C 1.6 km/h
234 30-01-2015 19:25:00 1.6 C 5.08 g/m*3 1.6 C 0 km/h
235 30-01-2015 19:30:00 1.6 C 5.08 g/m*3 1.6 C 1.6 km/h
236 30-01-2015 19:35:00 1.6 C 5.08 g/m*3 1.6 C 0 km/h
237 30-01-2015 19:40:00 1.6 C 5.08 g/m*3 1.6 C 0 km/h
238 30-01-2015 19:45:00 1.6 C 5.08 g/m*3 1.6 C 1.6 km/h
239 30-01-2015 19:50:00 1.6 C 5.08 g/m*3 1.6 C 3.2 km/h
240 30-01-2015 19:55:00 1.6 C 5.14 g/m*3 1.6 C 1.6 km/h
241 30-01-2015 20:00:00 1.6 C 5.14 g/m*3 1.6 C 0 km/h
242 30-01-2015 20:05:00 1.6 C 5.14 g/m*3 1.6 C 1.6 km/h
243 30-01-2015 20:10:00 1.6 C 5.14 g/m*3 1.6 C 1.6 km/h
244 30-01-2015 20:15:00 1.5 C 5.1 g/m*3 1.5 C 0 km/h
245 30-01-2015 20:20:00 1.5 C 5.05 g/m*3 1.5 C 0 km/h
246 30-01-2015 20:25:00 1.4 C 5.01 g/m*3 1.4 C 0 km/h
247 30-01-2015 20:30:00 1.4 C 5.01 g/m*3 1.4 C 0 km/h
248 30-01-2015 20:35:00 1.4 C 5.01 g/m*3 1.4 C 0 km/h
249 30-01-2015 20:40:00 1.4 C 5.01 g/m*3 1.4 C 0 km/h
250 30-01-2015 20:45:00 1.4 C 5.01 g/m*3 1.4 C 0 km/h
Sensor: Nr:Datum:Temp:Abs-Feuchte:Windchill:Wind:
Aussen-T/F 251 30-01-2015 20:50:00 1.4 C 5.01 g/m*3 1.4 C 0 km/h
252 30-01-2015 20:55:00 1.4 C 5.01 g/m*3 1.4 C 0 km/h
253 30-01-2015 21:00:00 1.4 C 5.01 g/m*3 1.4 C 3.2 km/h
254 30-01-2015 21:05:00 1.5 C 5.05 g/m*3 1.5 C 3.2 km/h
255 30-01-2015 21:10:00 1.5 C 5.05 g/m*3 1.5 C 0 km/h
256 30-01-2015 21:15:00 1.5 C 5.05 g/m*3 1.5 C 0 km/h
257 30-01-2015 21:20:00 1.5 C 5.05 g/m*3 1.5 C 0 km/h
258 30-01-2015 21:25:00 1.5 C 5.05 g/m*3 1.5 C 1.6 km/h
259 30-01-2015 21:30:00 1.5 C 5.05 g/m*3 1.5 C 0 km/h
260 30-01-2015 21:35:00 1.5 C 5.05 g/m*3 1.5 C 0 km/h
261 30-01-2015 21:40:00 1.5 C 5.05 g/m*3 1.5 C 0 km/h
262 30-01-2015 21:45:00 1.4 C 5.01 g/m*3 1.4 C 1.6 km/h
263 30-01-2015 21:50:00 1.4 C 5.01 g/m*3 1.4 C 0 km/h
264 30-01-2015 21:55:00 1.4 C 5.01 g/m*3 1.4 C 0 km/h
265 30-01-2015 22:00:00 1.4 C 5.01 g/m*3 1.4 C 0 km/h
266 30-01-2015 22:05:00 1.4 C 5.01 g/m*3 1.4 C 0 km/h
267 30-01-2015 22:10:00 1.4 C 4.96 g/m*3 1.4 C 1.6 km/h
268 30-01-2015 22:15:00 1.5 C 4.99 g/m*3 1.5 C 1.6 km/h
269 30-01-2015 22:20:00 1.6 C 4.97 g/m*3 1.6 C 1.6 km/h
270 30-01-2015 22:25:00 1.6 C 4.97 g/m*3 1.6 C 1.6 km/h
271 30-01-2015 22:30:00 1.6 C 4.92 g/m*3 1.6 C 4.8 km/h
272 30-01-2015 22:35:00 1.7 C 4.95 g/m*3 -0.77 C 8.1 km/h
273 30-01-2015 22:40:00 1.8 C 4.88 g/m*3 1.8 C 4.8 km/h
274 30-01-2015 22:45:00 1.9 C 4.86 g/m*3 1.9 C 4.8 km/h
275 30-01-2015 22:50:00 2 C 4.95 g/m*3 2 C 1.6 km/h
Sensor: Nr:Datum:Temp:Abs-Feuchte:Windchill:Wind:
Aussen-T/F 276 30-01-2015 22:55:00 1.9 C 4.91 g/m*3 1.9 C 1.6 km/h
277 30-01-2015 23:00:00 1.9 C 4.91 g/m*3 1.9 C 1.6 km/h
278 30-01-2015 23:05:00 1.9 C 4.97 g/m*3 1.9 C 0 km/h
279 30-01-2015 23:10:00 1.8 C 4.93 g/m*3 1.8 C 0 km/h
280 30-01-2015 23:15:00 1.7 C 4.9 g/m*3 1.7 C 3.2 km/h
281 30-01-2015 23:20:00 1.7 C 4.95 g/m*3 1.7 C 1.6 km/h
282 30-01-2015 23:25:00 1.7 C 4.95 g/m*3 1.7 C 0 km/h
283 30-01-2015 23:30:00 1.6 C 4.92 g/m*3 1.6 C 3.2 km/h
284 30-01-2015 23:35:00 1.5 C 4.83 g/m*3 1.5 C 4.8 km/h
285 30-01-2015 23:40:00 1.6 C 4.87 g/m*3 -0.33 C 6.4 km/h
286 30-01-2015 23:45:00 1.6 C 4.81 g/m*3 1.6 C 4.8 km/h
287 30-01-2015 23:50:00 1.6 C 4.81 g/m*3 1.6 C 3.2 km/h
288 30-01-2015 23:55:00 1.6 C 4.81 g/m*3 1.6 C 1.6 km/h
289 31-01-2015 00:00:00 1.6 C 4.87 g/m*3 1.6 C 3.2 km/h
290 31-01-2015 00:05:00 1.6 C 4.81 g/m*3 1.6 C 3.2 km/h
291 31-01-2015 00:10:00 1.6 C 4.81 g/m*3 1.6 C 4.8 km/h
292 31-01-2015 00:15:00 1.6 C 4.76 g/m*3 1.6 C 4.8 km/h
293 31-01-2015 00:20:00 1.7 C 4.79 g/m*3 1.7 C 4.8 km/h
294 31-01-2015 00:25:00 1.7 C 4.74 g/m*3 -0.22 C 6.4 km/h
295 31-01-2015 00:30:00 1.7 C 4.74 g/m*3 1.7 C 4.8 km/h
296 31-01-2015 00:35:00 1.6 C 4.76 g/m*3 -0.89 C 8.1 km/h
297 31-01-2015 00:40:00 1.4 C 4.69 g/m*3 1.4 C 4.8 km/h
298 31-01-2015 00:45:00 1.5 C 4.73 g/m*3 -1.01 C 8.1 km/h
299 31-01-2015 00:50:00 1.6 C 4.76 g/m*3 -1.33 C 9.7 km/h
300 31-01-2015 00:55:00 1.7 C 4.79 g/m*3 -0.22 C 6.4 km/h
Sensor: Nr:Datum:Temp:Abs-Feuchte:Windchill:Wind:
Aussen-T/F 301 31-01-2015 01:00:00 1.8 C 4.77 g/m*3 -0.1 C 6.4 km/h
302 31-01-2015 01:05:00 1.8 C 4.77 g/m*3 -0.65 C 8.1 km/h
303 31-01-2015 01:10:00 1.9 C 4.75 g/m*3 -1.68 C 12.9 km/h
304 31-01-2015 01:15:00 1.9 C 4.75 g/m*3 -1.68 C 12.9 km/h
305 31-01-2015 01:20:00 1.9 C 4.75 g/m*3 -1.35 C 11.3 km/h
306 31-01-2015 01:25:00 2.1 C 4.81 g/m*3 -1.74 C 14.5 km/h
307 31-01-2015 01:30:00 2.1 C 4.81 g/m*3 -1.74 C 14.5 km/h
308 31-01-2015 01:35:00 2.1 C 4.81 g/m*3 -1.44 C 12.9 km/h
309 31-01-2015 01:40:00 2 C 4.72 g/m*3 -1.23 C 11.3 km/h
310 31-01-2015 01:45:00 2.1 C 4.7 g/m*3 -0.73 C 9.7 km/h
311 31-01-2015 01:50:00 2.1 C 4.7 g/m*3 -1.44 C 12.9 km/h
312 31-01-2015 01:55:00 2 C 4.67 g/m*3 0.13 C 6.4 km/h
313 31-01-2015 02:00:00 2 C 4.67 g/m*3 -1.23 C 11.3 km/h
314 31-01-2015 02:05:00 2 C 4.67 g/m*3 -1.23 C 11.3 km/h
315 31-01-2015 02:10:00 2.1 C 4.7 g/m*3 -1.44 C 12.9 km/h
316 31-01-2015 02:15:00 2.1 C 4.64 g/m*3 -1.44 C 12.9 km/h
317 31-01-2015 02:20:00 2.1 C 4.64 g/m*3 -1.11 C 11.3 km/h
318 31-01-2015 02:25:00 2.1 C 4.64 g/m*3 -1.44 C 12.9 km/h
319 31-01-2015 02:30:00 2.1 C 4.64 g/m*3 -1.44 C 12.9 km/h
320 31-01-2015 02:35:00 2.1 C 4.7 g/m*3 -1.44 C 12.9 km/h
321 31-01-2015 02:40:00 2.1 C 4.7 g/m*3 -1.74 C 14.5 km/h
322 31-01-2015 02:45:00 2 C 4.67 g/m*3 -0.85 C 9.7 km/h
323 31-01-2015 02:50:00 2 C 4.72 g/m*3 -1.56 C 12.9 km/h
324 31-01-2015 02:55:00 2 C 4.72 g/m*3 -1.56 C 12.9 km/h
325 31-01-2015 03:00:00 1.9 C 4.69 g/m*3 -1.68 C 12.9 km/h
Sensor: Nr:Datum:Temp:Abs-Feuchte:Windchill:Wind:
Aussen-T/F 326 31-01-2015 03:05:00 1.9 C 4.75 g/m*3 -1.35 C 11.3 km/h
327 31-01-2015 03:10:00 1.9 C 4.75 g/m*3 -2.51 C 17.7 km/h
328 31-01-2015 03:15:00 1.9 C 4.75 g/m*3 -2.51 C 17.7 km/h
329 31-01-2015 03:20:00 1.9 C 4.75 g/m*3 -1.35 C 11.3 km/h
330 31-01-2015 03:25:00 1.9 C 4.75 g/m*3 -2.75 C 19.3 km/h
331 31-01-2015 03:30:00 2 C 4.78 g/m*3 -2.62 C 19.3 km/h
332 31-01-2015 03:35:00 2 C 4.78 g/m*3 -0.85 C 9.7 km/h
333 31-01-2015 03:40:00 1.9 C 4.75 g/m*3 -2.51 C 17.7 km/h
334 31-01-2015 03:45:00 1.9 C 4.8 g/m*3 -2.75 C 19.3 km/h
335 31-01-2015 03:50:00 1.9 C 4.8 g/m*3 -1.98 C 14.5 km/h
336 31-01-2015 03:55:00 1.9 C 4.8 g/m*3 -0.97 C 9.7 km/h
337 31-01-2015 04:00:00 1.9 C 4.86 g/m*3 -1.35 C 11.3 km/h
338 31-01-2015 04:05:00 1.9 C 4.86 g/m*3 -1.35 C 11.3 km/h
339 31-01-2015 04:10:00 1.9 C 4.86 g/m*3 -0.97 C 9.7 km/h
340 31-01-2015 04:15:00 1.9 C 4.86 g/m*3 -1.98 C 14.5 km/h
341 31-01-2015 04:20:00 1.9 C 4.86 g/m*3 -2.26 C 16.1 km/h
342 31-01-2015 04:25:00 1.9 C 4.86 g/m*3 -1.35 C 11.3 km/h
343 31-01-2015 04:30:00 1.9 C 4.86 g/m*3 -2.26 C 16.1 km/h
344 31-01-2015 04:35:00 2 C 4.89 g/m*3 -2.14 C 16.1 km/h
345 31-01-2015 04:40:00 1.9 C 4.86 g/m*3 -1.68 C 12.9 km/h
346 31-01-2015 04:45:00 1.9 C 4.86 g/m*3 -1.98 C 14.5 km/h
347 31-01-2015 04:50:00 1.9 C 4.86 g/m*3 -2.51 C 17.7 km/h
348 31-01-2015 04:55:00 1.9 C 4.86 g/m*3 -1.98 C 14.5 km/h
349 31-01-2015 05:00:00 1.9 C 4.86 g/m*3 -1.35 C 11.3 km/h
350 31-01-2015 05:05:00 1.9 C 4.91 g/m*3 -3.17 C 22.5 km/h
Sensor: Nr:Datum:Temp:Abs-Feuchte:Windchill:Wind:
Aussen-T/F 351 31-01-2015 05:10:00 1.9 C 4.91 g/m*3 -1.68 C 12.9 km/h
352 31-01-2015 05:15:00 1.8 C 4.88 g/m*3 -0.65 C 8.1 km/h
353 31-01-2015 05:20:00 1.8 C 4.88 g/m*3 -1.47 C 11.3 km/h
354 31-01-2015 05:25:00 1.8 C 4.88 g/m*3 -0.1 C 6.4 km/h
355 31-01-2015 05:30:00 1.7 C 4.9 g/m*3 -1.59 C 11.3 km/h
356 31-01-2015 05:35:00 1.7 C 4.9 g/m*3 -0.77 C 8.1 km/h
357 31-01-2015 05:40:00 1.7 C 4.9 g/m*3 -0.77 C 8.1 km/h
358 31-01-2015 05:45:00 1.7 C 4.9 g/m*3 -1.21 C 9.7 km/h
359 31-01-2015 05:50:00 1.7 C 4.9 g/m*3 -0.77 C 8.1 km/h
360 31-01-2015 05:55:00 1.7 C 4.9 g/m*3 -0.22 C 6.4 km/h
361 31-01-2015 06:00:00 1.8 C 4.93 g/m*3 -1.47 C 11.3 km/h
362 31-01-2015 06:05:00 1.8 C 4.93 g/m*3 -0.65 C 8.1 km/h
363 31-01-2015 06:10:00 1.8 C 4.93 g/m*3 -0.1 C 6.4 km/h
364 31-01-2015 06:15:00 1.8 C 4.93 g/m*3 -0.65 C 8.1 km/h
365 31-01-2015 06:20:00 1.8 C 4.93 g/m*3 -0.1 C 6.4 km/h
366 31-01-2015 06:25:00 1.8 C 4.93 g/m*3 -1.47 C 11.3 km/h
367 31-01-2015 06:30:00 1.8 C 4.93 g/m*3 -1.47 C 11.3 km/h
368 31-01-2015 06:35:00 1.9 C 4.97 g/m*3 -0.54 C 8.1 km/h
369 31-01-2015 06:40:00 1.9 C 4.91 g/m*3 0.01 C 6.4 km/h
370 31-01-2015 06:45:00 1.9 C 4.91 g/m*3 -1.68 C 12.9 km/h
371 31-01-2015 06:50:00 1.9 C 4.91 g/m*3 -0.97 C 9.7 km/h
372 31-01-2015 06:55:00 1.9 C 4.91 g/m*3 -1.35 C 11.3 km/h
373 31-01-2015 07:00:00 1.8 C 4.88 g/m*3 -1.47 C 11.3 km/h
374 31-01-2015 07:05:00 1.8 C 4.88 g/m*3 1.8 C 3.2 km/h
375 31-01-2015 07:10:00 1.6 C 4.81 g/m*3 1.6 C 4.8 km/h
Sensor: Nr:Datum:Temp:Abs-Feuchte:Windchill:Wind:
Aussen-T/F 376 31-01-2015 07:15:00 1.4 C 4.8 g/m*3 -0.56 C 6.4 km/h
377 31-01-2015 07:20:00 1.3 C 4.77 g/m*3 -2.07 C 11.3 km/h
378 31-01-2015 07:25:00 1.3 C 4.77 g/m*3 -0.68 C 6.4 km/h
379 31-01-2015 07:30:00 1.2 C 4.79 g/m*3 1.2 C 4.8 km/h
380 31-01-2015 07:35:00 1.2 C 4.79 g/m*3 -0.8 C 6.4 km/h
381 31-01-2015 07:40:00 1.1 C 4.76 g/m*3 1.1 C 4.8 km/h
382 31-01-2015 07:45:00 1.1 C 4.81 g/m*3 -1.92 C 9.7 km/h
383 31-01-2015 07:50:00 1.3 C 4.82 g/m*3 -1.24 C 8.1 km/h
384 31-01-2015 07:55:00 1.2 C 4.74 g/m*3 -0.8 C 6.4 km/h
385 31-01-2015 08:00:00 1.3 C 4.82 g/m*3 1.3 C 4.8 km/h
386 31-01-2015 08:05:00 1.3 C 4.77 g/m*3 1.3 C 3.2 km/h
387 31-01-2015 08:10:00 1.2 C 4.79 g/m*3 1.2 C 4.8 km/h
388 31-01-2015 08:15:00 1.2 C 4.79 g/m*3 1.2 C 4.8 km/h
389 31-01-2015 08:20:00 1.2 C 4.79 g/m*3 1.2 C 4.8 km/h
390 31-01-2015 08:25:00 1.2 C 4.79 g/m*3 1.2 C 4.8 km/h
391 31-01-2015 08:30:00 1.3 C 4.82 g/m*3 -1.24 C 8.1 km/h
392 31-01-2015 08:35:00 1.3 C 4.82 g/m*3 -0.68 C 6.4 km/h
393 31-01-2015 08:40:00 1.4 C 4.85 g/m*3 -1.12 C 8.1 km/h
394 31-01-2015 08:45:00 1.5 C 4.83 g/m*3 -1.83 C 11.3 km/h
395 31-01-2015 08:50:00 1.6 C 4.87 g/m*3 1.6 C 4.8 km/h
396 31-01-2015 08:55:00 1.6 C 4.87 g/m*3 -0.89 C 8.1 km/h
397 31-01-2015 09:00:00 1.7 C 4.9 g/m*3 1.7 C 4.8 km/h
398 31-01-2015 09:05:00 1.7 C 4.9 g/m*3 1.7 C 3.2 km/h
399 31-01-2015 09:10:00 1.7 C 4.9 g/m*3 1.7 C 3.2 km/h
400 31-01-2015 09:15:00 1.6 C 4.87 g/m*3 1.6 C 4.8 km/h
Sensor: Nr:Datum:Temp:Abs-Feuchte:Windchill:Wind:
Aussen-T/F 401 31-01-2015 09:20:00 1.6 C 4.87 g/m*3 1.6 C 4.8 km/h
402 31-01-2015 09:25:00 1.7 C 4.9 g/m*3 1.7 C 3.2 km/h
403 31-01-2015 09:30:00 1.7 C 4.9 g/m*3 1.7 C 3.2 km/h
404 31-01-2015 09:35:00 1.7 C 4.9 g/m*3 1.7 C 3.2 km/h
405 31-01-2015 09:40:00 1.6 C 4.87 g/m*3 -0.89 C 8.1 km/h
406 31-01-2015 09:45:00 1.7 C 4.9 g/m*3 -0.77 C 8.1 km/h
407 31-01-2015 09:50:00 1.7 C 4.85 g/m*3 1.7 C 4.8 km/h
408 31-01-2015 09:55:00 1.8 C 4.82 g/m*3 -1.8 C 12.9 km/h
409 31-01-2015 10:00:00 1.9 C 4.86 g/m*3 -1.35 C 11.3 km/h
410 31-01-2015 10:05:00 2.1 C 4.87 g/m*3 -1.44 C 12.9 km/h
411 31-01-2015 10:10:00 2.1 C 4.87 g/m*3 -0.3 C 8.1 km/h
412 31-01-2015 10:15:00 2.2 C 4.84 g/m*3 -1.32 C 12.9 km/h
413 31-01-2015 10:20:00 2.2 C 4.84 g/m*3 -0.61 C 9.7 km/h
414 31-01-2015 10:25:00 2.3 C 4.88 g/m*3 -0.49 C 9.7 km/h
415 31-01-2015 10:30:00 2.3 C 4.88 g/m*3 -1.2 C 12.9 km/h
416 31-01-2015 10:35:00 2.4 C 4.91 g/m*3 -0.37 C 9.7 km/h
417 31-01-2015 10:40:00 2.4 C 4.91 g/m*3 -0.74 C 11.3 km/h
418 31-01-2015 10:45:00 2.4 C 4.85 g/m*3 -1.37 C 14.5 km/h
419 31-01-2015 10:50:00 2.5 C 4.89 g/m*3 0.17 C 8.1 km/h
420 31-01-2015 10:55:00 2.6 C 4.92 g/m*3 -1.87 C 19.3 km/h
421 31-01-2015 11:00:00 2.6 C 4.86 g/m*3 -0.5 C 11.3 km/h
422 31-01-2015 11:05:00 2.6 C 4.86 g/m*3 -0.83 C 12.9 km/h
423 31-01-2015 11:10:00 2.7 C 4.89 g/m*3 -1 C 14.5 km/h
424 31-01-2015 11:15:00 2.7 C 4.89 g/m*3 -1.27 C 16.1 km/h
425 31-01-2015 11:20:00 2.8 C 4.93 g/m*3 -1.14 C 16.1 km/h
Sensor: Nr:Datum:Temp:Abs-Feuchte:Windchill:Wind:
Aussen-T/F 426 31-01-2015 11:25:00 2.8 C 4.87 g/m*3 -0.26 C 11.3 km/h
427 31-01-2015 11:30:00 2.9 C 4.9 g/m*3 -0.46 C 12.9 km/h
428 31-01-2015 11:35:00 2.9 C 4.9 g/m*3 -1.26 C 17.7 km/h
429 31-01-2015 11:40:00 3.1 C 4.91 g/m*3 -0.22 C 12.9 km/h
430 31-01-2015 11:45:00 3.1 C 4.91 g/m*3 0.1 C 11.3 km/h
431 31-01-2015 11:50:00 3.2 C 4.88 g/m*3 -0.89 C 17.7 km/h
432 31-01-2015 11:55:00 3.2 C 4.88 g/m*3 0.58 C 9.7 km/h
433 31-01-2015 12:00:00 3.3 C 4.85 g/m*3 -0.26 C 14.5 km/h
434 31-01-2015 12:05:00 3.3 C 4.85 g/m*3 -0.76 C 17.7 km/h
435 31-01-2015 12:10:00 3.3 C 4.79 g/m*3 -0.52 C 16.1 km/h
436 31-01-2015 12:15:00 3.4 C 4.83 g/m*3 0.14 C 12.9 km/h
437 31-01-2015 12:20:00 3.6 C 4.89 g/m*3 0.7 C 11.3 km/h
438 31-01-2015 12:25:00 3.6 C 4.89 g/m*3 1.06 C 9.7 km/h
439 31-01-2015 12:30:00 3.7 C 4.92 g/m*3 0.82 C 11.3 km/h
440 31-01-2015 12:35:00 3.7 C 4.92 g/m*3 1.18 C 9.7 km/h
441 31-01-2015 12:40:00 3.7 C 4.86 g/m*3 0.82 C 11.3 km/h
442 31-01-2015 12:45:00 3.8 C 4.96 g/m*3 1.29 C 9.7 km/h
443 31-01-2015 12:50:00 3.8 C 4.96 g/m*3 1.29 C 9.7 km/h
444 31-01-2015 12:55:00 3.9 C 4.93 g/m*3 0.22 C 16.1 km/h
445 31-01-2015 13:00:00 3.8 C 4.89 g/m*3 0.94 C 11.3 km/h
446 31-01-2015 13:05:00 3.7 C 4.86 g/m*3 1.18 C 9.7 km/h
447 31-01-2015 13:10:00 3.7 C 4.92 g/m*3 1.18 C 9.7 km/h
448 31-01-2015 13:15:00 3.7 C 4.92 g/m*3 2.09 C 6.4 km/h
449 31-01-2015 13:20:00 3.7 C 4.92 g/m*3 1.58 C 8.1 km/h
450 31-01-2015 13:25:00 3.7 C 4.92 g/m*3 1.18 C 9.7 km/h
Sensor: Nr:Datum:Temp:Abs-Feuchte:Windchill:Wind:
Aussen-T/F 451 31-01-2015 13:30:00 3.7 C 4.92 g/m*3 1.18 C 9.7 km/h
452 31-01-2015 13:55:00 4 C 6.36 g/m*3 1.18 C 11.3 km/h
453 31-01-2015 14:00:00 4 C 6.36 g/m*3 0.88 C 12.9 km/h
454 31-01-2015 14:05:00 4 C 6.36 g/m*3 1.18 C 11.3 km/h
455 31-01-2015 14:10:00 4 C 6.36 g/m*3 1.93 C 8.1 km/h
456 31-01-2015 14:15:00 4 C 6.36 g/m*3 1.93 C 8.1 km/h
457 31-01-2015 15:10:00 3.9 C 5.05 g/m*3 1.82 C 8.1 km/h
458 31-01-2015 15:15:00 4 C 5.09 g/m*3 1.93 C 8.1 km/h
459 31-01-2015 15:20:00 4.1 C 5.12 g/m*3 1.31 C 11.3 km/h
460 31-01-2015 15:25:00 4.2 C 5.22 g/m*3 1.43 C 11.3 km/h
461 31-01-2015 15:30:00 4.2 C 5.03 g/m*3 0.84 C 14.5 km/h
462 31-01-2015 15:35:00 4.1 C 4.99 g/m*3 0.72 C 14.5 km/h
463 31-01-2015 15:40:00 4 C 5.09 g/m*3 0.88 C 12.9 km/h
464 31-01-2015 15:45:00 3.9 C 4.99 g/m*3 1.82 C 8.1 km/h
465 31-01-2015 15:50:00 3.8 C 5.02 g/m*3 1.7 C 8.1 km/h
466 31-01-2015 15:55:00 3.8 C 5.08 g/m*3 3.8 C 4.8 km/h
467 31-01-2015 16:00:00 3.8 C 5.08 g/m*3 3.8 C 3.2 km/h
468 31-01-2015 16:05:00 3.7 C 4.99 g/m*3 0.82 C 11.3 km/h
469 31-01-2015 16:10:00 3.7 C 4.99 g/m*3 1.18 C 9.7 km/h
470 31-01-2015 16:15:00 3.7 C 4.99 g/m*3 2.09 C 6.4 km/h
471 31-01-2015 16:20:00 3.6 C 4.95 g/m*3 1.46 C 8.1 km/h
472 31-01-2015 16:25:00 3.5 C 4.92 g/m*3 1.34 C 8.1 km/h
473 31-01-2015 16:30:00 3.4 C 4.95 g/m*3 0.82 C 9.7 km/h
474 31-01-2015 16:35:00 3.3 C 4.91 g/m*3 1.63 C 6.4 km/h
475 31-01-2015 16:40:00 3.2 C 5 g/m*3 3.2 C 3.2 km/h
Sensor: Nr:Datum:Temp:Abs-Feuchte:Windchill:Wind:
Aussen-T/F 476 31-01-2015 16:45:00 3 C 4.93 g/m*3 3 C 3.2 km/h
477 31-01-2015 16:50:00 2.8 C 4.99 g/m*3 2.8 C 4.8 km/h
478 31-01-2015 16:55:00 2.7 C 4.89 g/m*3 2.7 C 3.2 km/h
479 31-01-2015 17:00:00 2.5 C 4.83 g/m*3 2.5 C 3.2 km/h
480 31-01-2015 17:05:00 2.3 C 4.82 g/m*3 2.3 C 3.2 km/h
481 31-01-2015 17:10:00 2.1 C 4.87 g/m*3 2.1 C 4.8 km/h
482 31-01-2015 17:15:00 1.9 C 4.8 g/m*3 1.9 C 4.8 km/h
483 31-01-2015 17:20:00 1.7 C 4.79 g/m*3 1.7 C 4.8 km/h
484 31-01-2015 17:25:00 1.5 C 4.78 g/m*3 1.5 C 3.2 km/h
485 31-01-2015 17:30:00 1.3 C 4.72 g/m*3 1.3 C 3.2 km/h
486 31-01-2015 17:35:00 1.3 C 4.77 g/m*3 1.3 C 3.2 km/h
487 31-01-2015 17:40:00 1.2 C 4.74 g/m*3 1.2 C 3.2 km/h
488 31-01-2015 17:45:00 1.1 C 4.7 g/m*3 1.1 C 3.2 km/h
489 31-01-2015 17:50:00 1 C 4.72 g/m*3 1 C 4.8 km/h
490 31-01-2015 17:55:00 1 C 4.72 g/m*3 1 C 3.2 km/h
491 31-01-2015 18:35:00 0.8 C 4.76 g/m*3 0.8 C 1.6 km/h
492 31-01-2015 18:40:00 0.9 C 4.79 g/m*3 0.9 C 3.2 km/h
493 31-01-2015 18:45:00 1 C 4.83 g/m*3 1 C 1.6 km/h
494 31-01-2015 18:50:00 1.1 C 4.81 g/m*3 1.1 C 1.6 km/h
495 31-01-2015 18:55:00 1.2 C 4.84 g/m*3 1.2 C 1.6 km/h
496 31-01-2015 19:00:00 1.2 C 4.84 g/m*3 1.2 C 1.6 km/h
497 31-01-2015 19:05:00 1.3 C 4.87 g/m*3 1.3 C 1.6 km/h
498 31-01-2015 19:10:00 1.3 C 4.87 g/m*3 1.3 C 1.6 km/h
499 31-01-2015 19:15:00 1.3 C 4.87 g/m*3 1.3 C 1.6 km/h
500 31-01-2015 19:20:00 1.3 C 4.87 g/m*3 1.3 C 1.6 km/h
Sensor: Nr:Datum:Temp:Abs-Feuchte:Windchill:Wind:
Aussen-T/F 501 31-01-2015 19:25:00 1.3 C 4.87 g/m*3 1.3 C 1.6 km/h
502 31-01-2015 19:30:00 1.3 C 4.87 g/m*3 1.3 C 3.2 km/h
503 31-01-2015 19:35:00 1.3 C 4.87 g/m*3 1.3 C 1.6 km/h
504 31-01-2015 19:40:00 1.4 C 4.91 g/m*3 1.4 C 3.2 km/h
505 31-01-2015 19:45:00 1.6 C 4.92 g/m*3 1.6 C 4.8 km/h
506 31-01-2015 19:50:00 1.8 C 4.99 g/m*3 1.8 C 3.2 km/h
507 31-01-2015 19:55:00 1.8 C 4.99 g/m*3 1.8 C 1.6 km/h
508 31-01-2015 20:00:00 1.8 C 4.99 g/m*3 1.8 C 1.6 km/h
509 31-01-2015 20:05:00 1.8 C 4.99 g/m*3 1.8 C 1.6 km/h
510 31-01-2015 20:10:00 1.9 C 5.02 g/m*3 1.9 C 1.6 km/h
511 31-01-2015 20:15:00 1.9 C 5.02 g/m*3 1.9 C 0 km/h
512 31-01-2015 20:20:00 1.9 C 5.02 g/m*3 1.9 C 0 km/h
513 31-01-2015 20:25:00 1.8 C 4.99 g/m*3 1.8 C 0 km/h
514 31-01-2015 20:30:00 1.8 C 4.99 g/m*3 1.8 C 1.6 km/h
515 31-01-2015 20:35:00 1.8 C 4.99 g/m*3 1.8 C 3.2 km/h
516 31-01-2015 20:40:00 1.8 C 4.99 g/m*3 1.8 C 1.6 km/h
517 31-01-2015 20:45:00 1.7 C 5.01 g/m*3 1.7 C 1.6 km/h
518 31-01-2015 20:50:00 1.6 C 4.97 g/m*3 1.6 C 1.6 km/h
519 31-01-2015 20:55:00 1.5 C 4.94 g/m*3 1.5 C 0 km/h
520 31-01-2015 21:00:00 1.4 C 4.91 g/m*3 1.4 C 1.6 km/h
521 31-01-2015 21:05:00 1.3 C 4.87 g/m*3 1.3 C 1.6 km/h
522 31-01-2015 21:10:00 1.2 C 4.84 g/m*3 1.2 C 1.6 km/h
523 31-01-2015 21:15:00 1.1 C 4.86 g/m*3 1.1 C 1.6 km/h
524 31-01-2015 21:20:00 1 C 4.83 g/m*3 1 C 1.6 km/h
525 31-01-2015 21:25:00 1 C 4.83 g/m*3 1 C 0 km/h
Sensor: Nr:Datum:Temp:Abs-Feuchte:Windchill:Wind:
Aussen-T/F 526 31-01-2015 21:30:00 0.9 C 4.79 g/m*3 0.9 C 3.2 km/h
527 31-01-2015 21:35:00 0.9 C 4.79 g/m*3 0.9 C 1.6 km/h
528 31-01-2015 21:40:00 0.8 C 4.76 g/m*3 0.8 C 1.6 km/h
529 31-01-2015 21:45:00 0.7 C 4.73 g/m*3 0.7 C 3.2 km/h
530 31-01-2015 21:50:00 0.7 C 4.78 g/m*3 0.7 C 3.2 km/h
531 31-01-2015 21:55:00 0.7 C 4.78 g/m*3 0.7 C 4.8 km/h
532 31-01-2015 22:00:00 0.7 C 4.78 g/m*3 0.7 C 3.2 km/h
533 31-01-2015 22:05:00 0.7 C 4.78 g/m*3 0.7 C 4.8 km/h
534 31-01-2015 22:10:00 0.8 C 4.81 g/m*3 0.8 C 4.8 km/h
535 31-01-2015 22:15:00 0.8 C 4.81 g/m*3 0.8 C 1.6 km/h
536 31-01-2015 22:20:00 0.8 C 4.81 g/m*3 0.8 C 0 km/h
537 31-01-2015 22:25:00 0.8 C 4.81 g/m*3 0.8 C 0 km/h
538 31-01-2015 22:30:00 0.8 C 4.81 g/m*3 0.8 C 1.6 km/h
539 31-01-2015 22:35:00 0.8 C 4.81 g/m*3 0.8 C 0 km/h
540 31-01-2015 22:40:00 0.8 C 4.81 g/m*3 0.8 C 0 km/h
541 01-02-2015 08:50:00 0.7 C 4.53 g/m*3 0.7 C 1.6 km/h
542 01-02-2015 08:55:00 0.6 C 4.54 g/m*3 0.6 C 3.2 km/h
543 01-02-2015 09:00:00 0.6 C 4.54 g/m*3 0.6 C 1.6 km/h
544 01-02-2015 09:05:00 0.6 C 4.54 g/m*3 0.6 C 1.6 km/h
545 01-02-2015 09:10:00 0.6 C 4.54 g/m*3 0.6 C 1.6 km/h
546 01-02-2015 09:40:00 0.3 C 4.55 g/m*3 0.3 C 1.6 km/h
547 01-02-2015 09:45:00 0.3 C 4.55 g/m*3 0.3 C 4.8 km/h
548 01-02-2015 09:50:00 0.3 C 4.55 g/m*3 0.3 C 3.2 km/h
549 01-02-2015 09:55:00 0.6 C 4.6 g/m*3 0.6 C 1.6 km/h
550 01-02-2015 10:00:00 0.7 C 4.63 g/m*3 0.7 C 3.2 km/h
Sensor: Nr:Datum:Temp:Abs-Feuchte:Windchill:Wind:
Aussen-T/F 551 01-02-2015 10:05:00 0.7 C 4.63 g/m*3 0.7 C 4.8 km/h
552 01-02-2015 10:10:00 1.1 C 4.65 g/m*3 -1.48 C 8.1 km/h
553 01-02-2015 10:15:00 1.4 C 4.75 g/m*3 -1.95 C 11.3 km/h
554 01-02-2015 10:20:00 1.6 C 4.76 g/m*3 -0.89 C 8.1 km/h
555 01-02-2015 10:25:00 1.7 C 4.79 g/m*3 -1.59 C 11.3 km/h
556 01-02-2015 10:30:00 1.8 C 4.77 g/m*3 -1.47 C 11.3 km/h
557 01-02-2015 10:35:00 1.9 C 4.8 g/m*3 -1.35 C 11.3 km/h
558 01-02-2015 10:40:00 1.9 C 4.8 g/m*3 -0.97 C 9.7 km/h
559 01-02-2015 10:45:00 1.9 C 4.8 g/m*3 -0.97 C 9.7 km/h
560 01-02-2015 10:50:00 1.9 C 4.8 g/m*3 0.01 C 6.4 km/h
561 01-02-2015 10:55:00 2 C 4.83 g/m*3 -0.42 C 8.1 km/h
562 01-02-2015 11:00:00 2 C 4.89 g/m*3 -0.42 C 8.1 km/h
563 01-02-2015 11:05:00 2 C 4.89 g/m*3 -0.85 C 9.7 km/h
564 01-02-2015 11:10:00 2 C 4.95 g/m*3 -0.42 C 8.1 km/h
565 01-02-2015 11:15:00 2 C 4.95 g/m*3 -0.42 C 8.1 km/h
566 01-02-2015 11:20:00 2 C 4.95 g/m*3 2 C 4.8 km/h
567 01-02-2015 11:25:00 1.9 C 4.91 g/m*3 1.9 C 4.8 km/h
568 01-02-2015 11:30:00 1.9 C 4.91 g/m*3 -0.97 C 9.7 km/h
569 01-02-2015 11:35:00 1.8 C 4.88 g/m*3 -0.1 C 6.4 km/h
570 01-02-2015 11:40:00 1.8 C 4.88 g/m*3 -1.47 C 11.3 km/h
571 01-02-2015 11:45:00 1.8 C 4.88 g/m*3 -0.1 C 6.4 km/h
572 01-02-2015 11:50:00 1.5 C 4.99 g/m*3 1.5 C 4.8 km/h
573 01-02-2015 11:55:00 1.4 C 5.01 g/m*3 -0.56 C 6.4 km/h
574 01-02-2015 12:00:00 1.4 C 5.01 g/m*3 1.4 C 3.2 km/h
575 01-02-2015 12:05:00 1.3 C 4.98 g/m*3 1.3 C 4.8 km/h
Sensor: Nr:Datum:Temp:Abs-Feuchte:Windchill:Wind:
Aussen-T/F 576 01-02-2015 12:10:00 1.3 C 5.03 g/m*3 1.3 C 1.6 km/h
577 01-02-2015 12:15:00 1.3 C 5.03 g/m*3 1.3 C 3.2 km/h
578 01-02-2015 12:20:00 1.3 C 5.03 g/m*3 1.3 C 1.6 km/h
579 01-02-2015 12:25:00 1.3 C 5.03 g/m*3 1.3 C 1.6 km/h
580 01-02-2015 12:30:00 1.3 C 5.03 g/m*3 1.3 C 0 km/h
581 01-02-2015 12:35:00 1.3 C 5.03 g/m*3 1.3 C 4.8 km/h
582 01-02-2015 12:40:00 1.3 C 5.03 g/m*3 1.3 C 3.2 km/h
583 01-02-2015 12:45:00 1.4 C 5.07 g/m*3 1.4 C 3.2 km/h
584 01-02-2015 12:50:00 1.5 C 5.16 g/m*3 1.5 C 4.8 km/h
585 01-02-2015 12:55:00 1.6 C 5.19 g/m*3 1.6 C 4.8 km/h
586 01-02-2015 13:00:00 1.7 C 5.23 g/m*3 -0.22 C 6.4 km/h
587 01-02-2015 13:05:00 1.8 C 5.26 g/m*3 1.8 C 4.8 km/h
588 01-02-2015 13:10:00 1.9 C 5.3 g/m*3 -0.54 C 8.1 km/h
589 01-02-2015 13:15:00 2.1 C 5.37 g/m*3 0.24 C 6.4 km/h
590 01-02-2015 13:20:00 2.2 C 5.35 g/m*3 2.2 C 4.8 km/h
591 01-02-2015 13:25:00 2.2 C 5.35 g/m*3 2.2 C 3.2 km/h
592 01-02-2015 13:30:00 2.3 C 5.39 g/m*3 2.3 C 4.8 km/h
593 01-02-2015 13:35:00 2.4 C 5.42 g/m*3 2.4 C 4.8 km/h
594 01-02-2015 13:40:00 2.5 C 5.46 g/m*3 0.71 C 6.4 km/h
595 01-02-2015 13:45:00 2.7 C 5.54 g/m*3 2.7 C 4.8 km/h
596 01-02-2015 13:50:00 2.8 C 5.51 g/m*3 1.05 C 6.4 km/h
597 01-02-2015 13:55:00 3 C 5.59 g/m*3 3 C 3.2 km/h
598 01-02-2015 14:00:00 3.2 C 5.66 g/m*3 3.2 C 4.8 km/h
599 01-02-2015 14:05:00 3.3 C 5.64 g/m*3 1.63 C 6.4 km/h
600 01-02-2015 14:10:00 3.3 C 5.64 g/m*3 3.3 C 4.8 km/h
Sensor: Nr:Datum:Temp:Abs-Feuchte:Windchill:Wind:
Aussen-T/F 601 01-02-2015 15:05:00 3.8 C 6.27 g/m*3 3.8 C 3.2 km/h
602 01-02-2015 15:10:00 3.8 C 6.27 g/m*3 3.8 C 3.2 km/h
603 01-02-2015 15:35:00 3.9 C 5.68 g/m*3 3.9 C 0 km/h
604 01-02-2015 15:40:00 3.9 C 5.62 g/m*3 3.9 C 0 km/h
605 01-02-2015 15:45:00 3.9 C 5.62 g/m*3 3.9 C 4.8 km/h
606 01-02-2015 15:50:00 3.9 C 5.56 g/m*3 2.32 C 6.4 km/h
607 01-02-2015 15:55:00 3.9 C 5.56 g/m*3 3.9 C 4.8 km/h
608 01-02-2015 16:00:00 3.9 C 5.56 g/m*3 3.9 C 3.2 km/h
609 01-02-2015 16:05:00 3.9 C 5.56 g/m*3 3.9 C 4.8 km/h
610 01-02-2015 16:10:00 3.8 C 5.46 g/m*3 3.8 C 1.6 km/h
611 01-02-2015 16:15:00 3.8 C 5.52 g/m*3 3.8 C 4.8 km/h
612 01-02-2015 16:20:00 3.8 C 5.52 g/m*3 1.29 C 9.7 km/h
613 01-02-2015 16:25:00 3.8 C 5.52 g/m*3 3.8 C 3.2 km/h
614 01-02-2015 16:30:00 3.8 C 5.52 g/m*3 3.8 C 0 km/h
615 01-02-2015 16:35:00 3.7 C 5.48 g/m*3 3.7 C 3.2 km/h
616 01-02-2015 16:40:00 3.6 C 5.45 g/m*3 3.6 C 3.2 km/h
617 01-02-2015 16:45:00 3.5 C 5.47 g/m*3 3.5 C 3.2 km/h
618 01-02-2015 16:50:00 3.5 C 5.47 g/m*3 3.5 C 3.2 km/h
619 01-02-2015 16:55:00 3.5 C 5.47 g/m*3 3.5 C 3.2 km/h
620 01-02-2015 17:00:00 3.4 C 5.5 g/m*3 3.4 C 3.2 km/h
621 01-02-2015 17:05:00 3.2 C 5.42 g/m*3 3.2 C 3.2 km/h
622 01-02-2015 17:10:00 3.2 C 5.42 g/m*3 0.99 C 8.1 km/h
623 01-02-2015 17:15:00 3.2 C 5.42 g/m*3 1.51 C 6.4 km/h
624 01-02-2015 17:20:00 3.2 C 5.42 g/m*3 3.2 C 0 km/h
625 01-02-2015 20:05:00 1.8 C 5.32 g/m*3 1.8 C 0 km/h
Sensor: Nr:Datum:Temp:Abs-Feuchte:Windchill:Wind:
Aussen-T/F 626 01-02-2015 20:10:00 1.8 C 5.32 g/m*3 1.8 C 0 km/h
627 01-02-2015 20:15:00 1.8 C 5.32 g/m*3 1.8 C 0 km/h
628 01-02-2015 20:20:00 1.8 C 5.32 g/m*3 1.8 C 0 km/h
629 01-02-2015 20:25:00 1.8 C 5.32 g/m*3 1.8 C 0 km/h
630 01-02-2015 20:30:00 1.7 C 5.28 g/m*3 1.7 C 0 km/h
631 01-02-2015 20:35:00 1.7 C 5.28 g/m*3 1.7 C 0 km/h
632 01-02-2015 20:40:00 1.6 C 5.25 g/m*3 1.6 C 0 km/h
633 01-02-2015 20:45:00 1.4 C 5.12 g/m*3 1.4 C 0 km/h
634 01-02-2015 20:50:00 1.3 C 5.09 g/m*3 1.3 C 0 km/h
635 01-02-2015 20:55:00 1.3 C 5.09 g/m*3 1.3 C 0 km/h
636 01-02-2015 21:00:00 1.3 C 5.09 g/m*3 1.3 C 0 km/h
637 01-02-2015 21:40:00 1.3 C 5.14 g/m*3 1.3 C 1.6 km/h
638 01-02-2015 21:45:00 1.4 C 5.17 g/m*3 1.4 C 1.6 km/h
639 01-02-2015 21:50:00 1.4 C 5.17 g/m*3 1.4 C 4.8 km/h
640 01-02-2015 21:55:00 1.5 C 5.21 g/m*3 1.5 C 4.8 km/h
641 01-02-2015 22:00:00 1.6 C 5.25 g/m*3 -0.89 C 8.1 km/h
642 01-02-2015 22:05:00 1.6 C 5.25 g/m*3 -0.33 C 6.4 km/h
643 01-02-2015 22:10:00 1.6 C 5.25 g/m*3 -0.33 C 6.4 km/h
644 01-02-2015 22:15:00 1.6 C 5.25 g/m*3 -0.33 C 6.4 km/h
645 01-02-2015 22:20:00 1.7 C 5.28 g/m*3 1.7 C 4.8 km/h
646 01-02-2015 22:25:00 1.7 C 5.28 g/m*3 -0.22 C 6.4 km/h
647 01-02-2015 22:30:00 1.7 C 5.28 g/m*3 -0.22 C 6.4 km/h
648 01-02-2015 22:35:00 1.7 C 5.28 g/m*3 1.7 C 4.8 km/h
649 01-02-2015 22:40:00 1.7 C 5.28 g/m*3 -0.22 C 6.4 km/h
650 01-02-2015 22:45:00 1.7 C 5.28 g/m*3 1.7 C 1.6 km/h
Sensor: Nr:Datum:Temp:Abs-Feuchte:Windchill:Wind:
Aussen-T/F 651 01-02-2015 22:50:00 1.7 C 5.28 g/m*3 1.7 C 3.2 km/h
652 01-02-2015 22:55:00 1.7 C 5.28 g/m*3 1.7 C 0 km/h
653 01-02-2015 23:00:00 1.8 C 5.32 g/m*3 1.8 C 3.2 km/h
654 01-02-2015 23:05:00 1.8 C 5.32 g/m*3 1.8 C 3.2 km/h
655 01-02-2015 23:10:00 1.8 C 5.32 g/m*3 1.8 C 1.6 km/h
656 01-02-2015 23:15:00 1.7 C 5.28 g/m*3 1.7 C 0 km/h
657 01-02-2015 23:20:00 1.7 C 5.28 g/m*3 1.7 C 0 km/h
658 01-02-2015 23:25:00 1.7 C 5.28 g/m*3 1.7 C 3.2 km/h
659 01-02-2015 23:30:00 1.8 C 5.32 g/m*3 1.8 C 0 km/h
660 01-02-2015 23:35:00 1.8 C 5.32 g/m*3 1.8 C 3.2 km/h
661 01-02-2015 23:40:00 1.8 C 5.32 g/m*3 1.8 C 1.6 km/h
662 01-02-2015 23:45:00 1.8 C 5.32 g/m*3 -0.1 C 6.4 km/h
663 01-02-2015 23:50:00 1.9 C 5.35 g/m*3 1.9 C 3.2 km/h
664 01-02-2015 23:55:00 1.9 C 5.35 g/m*3 1.9 C 0 km/h
665 02-02-2015 00:00:00 1.9 C 5.35 g/m*3 1.9 C 1.6 km/h
666 02-02-2015 00:05:00 1.9 C 5.35 g/m*3 1.9 C 0 km/h
667 02-02-2015 00:10:00 1.9 C 5.35 g/m*3 1.9 C 0 km/h
668 02-02-2015 00:15:00 1.9 C 5.35 g/m*3 0.01 C 6.4 km/h
669 02-02-2015 00:20:00 1.9 C 5.35 g/m*3 -0.54 C 8.1 km/h
670 02-02-2015 00:25:00 1.9 C 5.35 g/m*3 1.9 C 1.6 km/h
671 02-02-2015 00:30:00 1.9 C 5.35 g/m*3 1.9 C 0 km/h
672 02-02-2015 00:35:00 1.9 C 5.35 g/m*3 1.9 C 3.2 km/h
673 02-02-2015 00:40:00 1.9 C 5.35 g/m*3 1.9 C 3.2 km/h
674 02-02-2015 00:45:00 1.9 C 5.35 g/m*3 1.9 C 1.6 km/h
675 02-02-2015 00:50:00 1.9 C 5.35 g/m*3 1.9 C 3.2 km/h
Sensor: Nr:Datum:Temp:Abs-Feuchte:Windchill:Wind:
Aussen-T/F 676 02-02-2015 00:55:00 1.9 C 5.35 g/m*3 1.9 C 3.2 km/h
677 02-02-2015 01:00:00 2 C 5.39 g/m*3 2 C 3.2 km/h
678 02-02-2015 01:05:00 1.9 C 5.35 g/m*3 1.9 C 1.6 km/h
679 02-02-2015 01:10:00 2 C 5.39 g/m*3 2 C 1.6 km/h
680 02-02-2015 01:15:00 2 C 5.39 g/m*3 2 C 3.2 km/h
681 02-02-2015 01:20:00 2 C 5.39 g/m*3 2 C 1.6 km/h
682 02-02-2015 01:25:00 2 C 5.39 g/m*3 2 C 1.6 km/h
683 02-02-2015 01:30:00 2 C 5.39 g/m*3 2 C 1.6 km/h
684 02-02-2015 01:35:00 2.1 C 5.43 g/m*3 2.1 C 1.6 km/h
685 02-02-2015 01:40:00 2.1 C 5.43 g/m*3 2.1 C 1.6 km/h
686 02-02-2015 01:45:00 2.1 C 5.43 g/m*3 2.1 C 1.6 km/h
687 02-02-2015 01:50:00 2.1 C 5.43 g/m*3 2.1 C 3.2 km/h
688 02-02-2015 01:55:00 2.1 C 5.43 g/m*3 2.1 C 3.2 km/h
689 02-02-2015 02:00:00 2.1 C 5.43 g/m*3 2.1 C 0 km/h
690 02-02-2015 02:05:00 2.1 C 5.43 g/m*3 2.1 C 4.8 km/h
691 02-02-2015 02:10:00 2.1 C 5.43 g/m*3 2.1 C 4.8 km/h
692 02-02-2015 02:15:00 2.1 C 5.43 g/m*3 2.1 C 4.8 km/h
693 02-02-2015 02:20:00 2 C 5.39 g/m*3 2 C 0 km/h
694 02-02-2015 02:25:00 2 C 5.39 g/m*3 2 C 3.2 km/h
695 02-02-2015 02:30:00 2 C 5.39 g/m*3 2 C 3.2 km/h
696 02-02-2015 02:35:00 1.9 C 5.35 g/m*3 1.9 C 4.8 km/h
697 02-02-2015 02:40:00 2 C 5.39 g/m*3 2 C 3.2 km/h
698 02-02-2015 02:45:00 1.9 C 5.35 g/m*3 1.9 C 1.6 km/h
699 02-02-2015 02:50:00 1.9 C 5.35 g/m*3 1.9 C 4.8 km/h
700 02-02-2015 02:55:00 1.9 C 5.35 g/m*3 1.9 C 3.2 km/h
Sensor: Nr:Datum:Temp:Abs-Feuchte:Windchill:Wind:
Aussen-T/F 701 02-02-2015 03:00:00 1.9 C 5.35 g/m*3 1.9 C 3.2 km/h
702 02-02-2015 03:05:00 2 C 5.39 g/m*3 2 C 1.6 km/h
703 02-02-2015 03:10:00 2 C 5.39 g/m*3 2 C 0 km/h
704 02-02-2015 03:15:00 2.1 C 5.43 g/m*3 2.1 C 1.6 km/h
705 02-02-2015 03:20:00 2.1 C 5.43 g/m*3 2.1 C 4.8 km/h
706 02-02-2015 03:25:00 2.2 C 5.46 g/m*3 2.2 C 4.8 km/h
707 02-02-2015 03:30:00 2.2 C 5.46 g/m*3 2.2 C 1.6 km/h
708 02-02-2015 03:35:00 2.2 C 5.46 g/m*3 2.2 C 1.6 km/h
709 02-02-2015 03:40:00 2.2 C 5.46 g/m*3 2.2 C 1.6 km/h
710 02-02-2015 03:45:00 2.2 C 5.46 g/m*3 2.2 C 1.6 km/h
711 02-02-2015 03:50:00 2.2 C 5.46 g/m*3 2.2 C 4.8 km/h
712 02-02-2015 03:55:00 2.2 C 5.46 g/m*3 2.2 C 1.6 km/h
713 02-02-2015 04:00:00 2.2 C 5.46 g/m*3 2.2 C 3.2 km/h
714 02-02-2015 04:05:00 2.2 C 5.46 g/m*3 2.2 C 4.8 km/h
715 02-02-2015 04:10:00 2.3 C 5.5 g/m*3 2.3 C 4.8 km/h
716 02-02-2015 04:15:00 2.3 C 5.44 g/m*3 2.3 C 1.6 km/h
717 02-02-2015 04:20:00 2.3 C 5.44 g/m*3 2.3 C 3.2 km/h
718 02-02-2015 04:25:00 2.3 C 5.44 g/m*3 2.3 C 1.6 km/h
719 02-02-2015 04:30:00 2.3 C 5.44 g/m*3 2.3 C 1.6 km/h
720 02-02-2015 04:35:00 2.3 C 5.44 g/m*3 2.3 C 1.6 km/h
721 02-02-2015 04:40:00 2.2 C 5.41 g/m*3 2.2 C 1.6 km/h
722 02-02-2015 04:45:00 2.2 C 5.41 g/m*3 2.2 C 1.6 km/h
723 02-02-2015 04:50:00 2.2 C 5.41 g/m*3 2.2 C 3.2 km/h
724 02-02-2015 04:55:00 2.2 C 5.41 g/m*3 2.2 C 3.2 km/h
725 02-02-2015 05:00:00 2.2 C 5.41 g/m*3 2.2 C 1.6 km/h
Sensor: Nr:Datum:Temp:Abs-Feuchte:Windchill:Wind:
Aussen-T/F 726 02-02-2015 05:05:00 2.2 C 5.41 g/m*3 2.2 C 1.6 km/h
727 02-02-2015 05:10:00 2.2 C 5.41 g/m*3 2.2 C 0 km/h
728 02-02-2015 05:15:00 2.3 C 5.39 g/m*3 2.3 C 0 km/h
729 02-02-2015 05:20:00 2.2 C 5.41 g/m*3 2.2 C 0 km/h
730 02-02-2015 05:25:00 2.2 C 5.41 g/m*3 2.2 C 1.6 km/h
731 02-02-2015 05:30:00 2.2 C 5.41 g/m*3 2.2 C 1.6 km/h
732 02-02-2015 05:35:00 2.2 C 5.41 g/m*3 2.2 C 1.6 km/h
733 02-02-2015 05:40:00 2.2 C 5.41 g/m*3 2.2 C 1.6 km/h
734 02-02-2015 05:45:00 2.2 C 5.41 g/m*3 2.2 C 0 km/h
735 02-02-2015 05:50:00 2.1 C 5.37 g/m*3 2.1 C 0 km/h
736 02-02-2015 05:55:00 2.1 C 5.37 g/m*3 2.1 C 1.6 km/h
737 02-02-2015 06:00:00 2.1 C 5.31 g/m*3 2.1 C 3.2 km/h
738 02-02-2015 06:05:00 2.1 C 5.31 g/m*3 2.1 C 0 km/h
739 02-02-2015 06:10:00 2.1 C 5.31 g/m*3 2.1 C 1.6 km/h
740 02-02-2015 06:15:00 2.1 C 5.31 g/m*3 -0.3 C 8.1 km/h
741 02-02-2015 06:20:00 2.1 C 5.31 g/m*3 2.1 C 1.6 km/h
742 02-02-2015 06:25:00 2.1 C 5.31 g/m*3 2.1 C 1.6 km/h
743 02-02-2015 06:30:00 2.1 C 5.31 g/m*3 2.1 C 4.8 km/h
744 02-02-2015 06:35:00 2.1 C 5.31 g/m*3 2.1 C 4.8 km/h
745 02-02-2015 06:40:00 2.1 C 5.31 g/m*3 2.1 C 3.2 km/h
746 02-02-2015 06:45:00 2 C 5.22 g/m*3 2 C 3.2 km/h
747 02-02-2015 06:50:00 2 C 5.22 g/m*3 2 C 3.2 km/h
748 02-02-2015 06:55:00 2.1 C 5.26 g/m*3 0.24 C 6.4 km/h
749 02-02-2015 07:00:00 2.1 C 5.26 g/m*3 0.24 C 6.4 km/h
750 02-02-2015 07:05:00 2.1 C 5.2 g/m*3 2.1 C 1.6 km/h
Sensor: Nr:Datum:Temp:Abs-Feuchte:Windchill:Wind:
Aussen-T/F 751 02-02-2015 07:10:00 2.1 C 5.26 g/m*3 2.1 C 0 km/h
752 02-02-2015 07:15:00 2 C 5.22 g/m*3 2 C 3.2 km/h
753 02-02-2015 07:20:00 1.9 C 5.19 g/m*3 1.9 C 4.8 km/h
754 02-02-2015 07:25:00 1.8 C 5.15 g/m*3 1.8 C 4.8 km/h
755 02-02-2015 07:30:00 1.8 C 5.15 g/m*3 1.8 C 4.8 km/h
756 02-02-2015 07:35:00 1.8 C 5.15 g/m*3 -0.1 C 6.4 km/h
757 02-02-2015 07:40:00 1.8 C 5.21 g/m*3 1.8 C 4.8 km/h
758 02-02-2015 07:45:00 1.8 C 5.21 g/m*3 1.8 C 3.2 km/h
759 02-02-2015 07:50:00 1.8 C 5.15 g/m*3 1.8 C 1.6 km/h
760 02-02-2015 07:55:00 1.8 C 5.15 g/m*3 1.8 C 4.8 km/h
761 02-02-2015 08:00:00 1.9 C 5.19 g/m*3 1.9 C 4.8 km/h
762 02-02-2015 08:05:00 1.9 C 5.24 g/m*3 1.9 C 3.2 km/h
763 02-02-2015 08:10:00 1.9 C 5.24 g/m*3 1.9 C 3.2 km/h
764 02-02-2015 08:15:00 1.8 C 5.21 g/m*3 -0.1 C 6.4 km/h
765 02-02-2015 08:20:00 1.8 C 5.21 g/m*3 1.8 C 0 km/h
766 02-02-2015 08:25:00 1.8 C 5.21 g/m*3 1.8 C 3.2 km/h
767 02-02-2015 08:30:00 1.8 C 5.21 g/m*3 1.8 C 1.6 km/h
768 02-02-2015 08:35:00 1.8 C 5.21 g/m*3 1.8 C 4.8 km/h
769 02-02-2015 08:40:00 1.8 C 5.21 g/m*3 -0.65 C 8.1 km/h
770 02-02-2015 08:45:00 1.8 C 5.21 g/m*3 1.8 C 4.8 km/h
771 02-02-2015 08:50:00 1.8 C 5.21 g/m*3 1.8 C 1.6 km/h
772 02-02-2015 08:55:00 1.9 C 5.19 g/m*3 1.9 C 0 km/h
773 02-02-2015 09:00:00 1.9 C 5.19 g/m*3 1.9 C 1.6 km/h
774 02-02-2015 09:05:00 2 C 5.22 g/m*3 2 C 4.8 km/h
775 02-02-2015 09:10:00 1.9 C 5.19 g/m*3 1.9 C 3.2 km/h
Sensor: Nr:Datum:Temp:Abs-Feuchte:Windchill:Wind:
Aussen-T/F 776 02-02-2015 09:15:00 1.9 C 5.13 g/m*3 -0.54 C 8.1 km/h
777 02-02-2015 09:20:00 1.9 C 5.13 g/m*3 -0.54 C 8.1 km/h
778 02-02-2015 09:25:00 2.1 C 5.15 g/m*3 -0.3 C 8.1 km/h
779 02-02-2015 09:30:00 2.1 C 5.15 g/m*3 -0.73 C 9.7 km/h
780 02-02-2015 09:35:00 2.1 C 5.15 g/m*3 0.24 C 6.4 km/h
781 02-02-2015 11:35:00 3.1 C 5.15 g/m*3 0.46 C 9.7 km/h
782 02-02-2015 11:40:00 2.9 C 5.08 g/m*3 -0.14 C 11.3 km/h
783 02-02-2015 11:45:00 2.7 C 5.07 g/m*3 2.7 C 4.8 km/h
784 02-02-2015 11:50:00 2.7 C 5.19 g/m*3 -0.02 C 9.7 km/h
785 02-02-2015 11:55:00 2.1 C 5.04 g/m*3 0.24 C 6.4 km/h
786 02-02-2015 12:00:00 2.1 C 5.04 g/m*3 2.1 C 4.8 km/h
787 02-02-2015 12:05:00 2.1 C 5.04 g/m*3 0.24 C 6.4 km/h
788 02-02-2015 12:10:00 1.9 C 5.02 g/m*3 0.01 C 6.4 km/h
789 02-02-2015 12:15:00 1.9 C 5.08 g/m*3 -0.54 C 8.1 km/h
790 02-02-2015 12:20:00 2.1 C 5.15 g/m*3 -0.73 C 9.7 km/h
791 02-02-2015 12:25:00 2.3 C 5.16 g/m*3 -0.49 C 9.7 km/h
792 02-02-2015 12:30:00 2.6 C 5.27 g/m*3 -0.14 C 9.7 km/h
793 02-02-2015 12:35:00 2.7 C 5.24 g/m*3 0.94 C 6.4 km/h
794 02-02-2015 12:40:00 2.9 C 5.2 g/m*3 0.22 C 9.7 km/h
795 02-02-2015 12:45:00 3.1 C 5.27 g/m*3 1.4 C 6.4 km/h
796 02-02-2015 12:50:00 3.3 C 5.34 g/m*3 1.11 C 8.1 km/h
797 02-02-2015 12:55:00 3.4 C 5.31 g/m*3 1.75 C 6.4 km/h
798 02-02-2015 13:00:00 3.4 C 5.19 g/m*3 0.46 C 11.3 km/h
799 02-02-2015 13:05:00 3.4 C 5.07 g/m*3 0.14 C 12.9 km/h
800 02-02-2015 13:10:00 3.4 C 5.07 g/m*3 -0.4 C 16.1 km/h
Sensor: Nr:Datum:Temp:Abs-Feuchte:Windchill:Wind:
Aussen-T/F 801 02-02-2015 13:15:00 3.5 C 5.16 g/m*3 -0.02 C 14.5 km/h
802 02-02-2015 13:20:00 3.6 C 5.14 g/m*3 0.11 C 14.5 km/h
803 02-02-2015 13:25:00 3.6 C 5.08 g/m*3 1.46 C 8.1 km/h
804 02-02-2015 13:30:00 3.5 C 5.1 g/m*3 0.58 C 11.3 km/h
805 02-02-2015 13:35:00 3.4 C 5.01 g/m*3 0.82 C 9.7 km/h
806 02-02-2015 13:40:00 3.5 C 5.1 g/m*3 0.94 C 9.7 km/h
807 02-02-2015 13:45:00 3.5 C 5.1 g/m*3 1.34 C 8.1 km/h
808 02-02-2015 13:50:00 3.6 C 5.2 g/m*3 1.98 C 6.4 km/h
809 02-02-2015 13:55:00 3.7 C 5.11 g/m*3 1.58 C 8.1 km/h
810 02-02-2015 14:00:00 3.8 C 5.08 g/m*3 0.35 C 14.5 km/h
811 02-02-2015 14:05:00 3.9 C 5.05 g/m*3 1.41 C 9.7 km/h
812 02-02-2015 14:10:00 3.9 C 5.05 g/m*3 1.06 C 11.3 km/h
813 02-02-2015 14:15:00 3.9 C 5.05 g/m*3 -0.23 C 19.3 km/h
814 02-02-2015 14:20:00 4 C 4.96 g/m*3 -0.11 C 19.3 km/h
815 02-02-2015 14:25:00 3.9 C 4.99 g/m*3 0.22 C 16.1 km/h
816 02-02-2015 14:30:00 3.9 C 4.99 g/m*3 0.47 C 14.5 km/h
817 02-02-2015 14:35:00 3.9 C 4.99 g/m*3 0.47 C 14.5 km/h
818 02-02-2015 14:40:00 3.7 C 4.99 g/m*3 -0.26 C 17.7 km/h
819 02-02-2015 14:45:00 3.7 C 4.99 g/m*3 1.18 C 9.7 km/h
820 02-02-2015 14:50:00 3.7 C 4.99 g/m*3 1.18 C 9.7 km/h
821 02-02-2015 14:55:00 3.7 C 4.92 g/m*3 0.51 C 12.9 km/h
822 02-02-2015 15:00:00 3.4 C 5.01 g/m*3 -0.86 C 19.3 km/h
823 02-02-2015 15:05:00 3.3 C 5.04 g/m*3 1.63 C 6.4 km/h
824 02-02-2015 15:10:00 3.3 C 4.97 g/m*3 0.34 C 11.3 km/h
825 02-02-2015 15:15:00 3.3 C 4.91 g/m*3 0.34 C 11.3 km/h
Sensor: Nr:Datum:Temp:Abs-Feuchte:Windchill:Wind:
Aussen-T/F 826 02-02-2015 15:20:00 3.4 C 4.95 g/m*3 0.46 C 11.3 km/h
827 02-02-2015 15:25:00 3.4 C 4.89 g/m*3 0.14 C 12.9 km/h
828 02-02-2015 15:30:00 3.4 C 4.83 g/m*3 -0.14 C 14.5 km/h
829 02-02-2015 15:35:00 3.5 C 4.8 g/m*3 0.27 C 12.9 km/h
830 02-02-2015 15:40:00 3.4 C 4.83 g/m*3 0.14 C 12.9 km/h
831 02-02-2015 15:45:00 3.4 C 4.83 g/m*3 0.14 C 12.9 km/h
832 02-02-2015 15:50:00 3.4 C 4.83 g/m*3 0.46 C 11.3 km/h
833 02-02-2015 15:55:00 3.3 C 4.79 g/m*3 0.34 C 11.3 km/h
834 02-02-2015 16:00:00 3.3 C 4.79 g/m*3 0.02 C 12.9 km/h
835 02-02-2015 16:05:00 3.2 C 4.82 g/m*3 0.22 C 11.3 km/h
836 02-02-2015 16:10:00 3.1 C 4.79 g/m*3 -0.77 C 16.1 km/h
837 02-02-2015 16:15:00 3.1 C 4.79 g/m*3 -0.77 C 16.1 km/h
838 02-02-2015 16:20:00 3.1 C 4.73 g/m*3 0.1 C 11.3 km/h
839 02-02-2015 16:25:00 3.1 C 4.73 g/m*3 -0.51 C 14.5 km/h
840 02-02-2015 16:30:00 3 C 4.76 g/m*3 -1.77 C 22.5 km/h
841 02-02-2015 16:35:00 2.9 C 4.72 g/m*3 -1.26 C 17.7 km/h
842 02-02-2015 16:40:00 3 C 4.76 g/m*3 -0.9 C 16.1 km/h
843 02-02-2015 16:45:00 3 C 4.76 g/m*3 -0.9 C 16.1 km/h
844 02-02-2015 16:50:00 2.9 C 4.72 g/m*3 -1.26 C 17.7 km/h
845 02-02-2015 16:55:00 2.9 C 4.72 g/m*3 -1.02 C 16.1 km/h
846 02-02-2015 17:00:00 2.8 C 4.75 g/m*3 -0.88 C 14.5 km/h
847 02-02-2015 17:05:00 2.8 C 4.81 g/m*3 0.1 C 9.7 km/h
848 02-02-2015 17:10:00 2.7 C 4.78 g/m*3 0.4 C 8.1 km/h
849 02-02-2015 17:15:00 2.6 C 4.75 g/m*3 -0.83 C 12.9 km/h
850 02-02-2015 17:20:00 2.6 C 4.8 g/m*3 -1.12 C 14.5 km/h
Sensor: Nr:Datum:Temp:Abs-Feuchte:Windchill:Wind:
Aussen-T/F 851 02-02-2015 17:25:00 2.6 C 4.8 g/m*3 -0.14 C 9.7 km/h
852 02-02-2015 17:30:00 2.5 C 4.77 g/m*3 0.17 C 8.1 km/h
853 02-02-2015 17:35:00 2.5 C 4.77 g/m*3 -0.26 C 9.7 km/h
854 02-02-2015 17:40:00 2.5 C 4.71 g/m*3 -0.95 C 12.9 km/h
855 02-02-2015 17:45:00 2.5 C 4.71 g/m*3 -0.62 C 11.3 km/h
856 02-02-2015 18:05:00 2.5 C 4.71 g/m*3 -0.26 C 9.7 km/h
857 02-02-2015 18:10:00 2.5 C 4.71 g/m*3 0.71 C 6.4 km/h
858 02-02-2015 18:15:00 2.4 C 4.74 g/m*3 0.59 C 6.4 km/h
859 02-02-2015 18:20:00 2.4 C 4.74 g/m*3 2.4 C 4.8 km/h
860 02-02-2015 18:25:00 2.4 C 4.74 g/m*3 0.05 C 8.1 km/h
861 02-02-2015 18:30:00 2.4 C 4.74 g/m*3 -0.74 C 11.3 km/h
862 02-02-2015 18:35:00 2.4 C 4.74 g/m*3 -0.37 C 9.7 km/h
863 02-02-2015 18:40:00 2.4 C 4.74 g/m*3 0.05 C 8.1 km/h
864 02-02-2015 18:45:00 2.4 C 4.74 g/m*3 -0.37 C 9.7 km/h
865 02-02-2015 18:50:00 2.4 C 4.74 g/m*3 0.59 C 6.4 km/h
866 02-02-2015 18:55:00 2.3 C 4.71 g/m*3 2.3 C 4.8 km/h
867 02-02-2015 19:00:00 2.3 C 4.71 g/m*3 0.47 C 6.4 km/h
868 02-02-2015 19:05:00 2.3 C 4.71 g/m*3 -0.49 C 9.7 km/h
869 02-02-2015 19:10:00 2.3 C 4.71 g/m*3 0.47 C 6.4 km/h
870 02-02-2015 19:15:00 2.3 C 4.76 g/m*3 2.3 C 4.8 km/h
871 02-02-2015 19:20:00 2.3 C 4.76 g/m*3 2.3 C 3.2 km/h
872 02-02-2015 19:25:00 2.2 C 4.73 g/m*3 -0.18 C 8.1 km/h
873 02-02-2015 19:30:00 2.2 C 4.73 g/m*3 0.36 C 6.4 km/h
874 02-02-2015 19:35:00 2.2 C 4.73 g/m*3 -1.62 C 14.5 km/h
875 02-02-2015 19:40:00 2.2 C 4.79 g/m*3 2.2 C 3.2 km/h
Sensor: Nr:Datum:Temp:Abs-Feuchte:Windchill:Wind:
Aussen-T/F 876 02-02-2015 19:45:00 2.1 C 4.76 g/m*3 0.24 C 6.4 km/h
877 02-02-2015 19:50:00 2.1 C 4.76 g/m*3 0.24 C 6.4 km/h
878 02-02-2015 19:55:00 2.2 C 4.73 g/m*3 -0.99 C 11.3 km/h
879 02-02-2015 20:00:00 2.1 C 4.7 g/m*3 0.24 C 6.4 km/h
880 02-02-2015 20:05:00 2.2 C 4.73 g/m*3 0.36 C 6.4 km/h
881 02-02-2015 20:10:00 2.2 C 4.73 g/m*3 0.36 C 6.4 km/h
882 02-02-2015 20:15:00 2.2 C 4.73 g/m*3 -0.61 C 9.7 km/h
883 02-02-2015 20:20:00 2.2 C 4.68 g/m*3 -0.61 C 9.7 km/h
884 02-02-2015 20:25:00 2.2 C 4.73 g/m*3 -0.61 C 9.7 km/h
885 02-02-2015 20:30:00 2.2 C 4.73 g/m*3 -0.18 C 8.1 km/h
886 02-02-2015 20:35:00 2.2 C 4.73 g/m*3 -0.18 C 8.1 km/h
887 02-02-2015 20:40:00 2.1 C 4.7 g/m*3 -0.3 C 8.1 km/h
888 02-02-2015 20:45:00 2.1 C 4.76 g/m*3 -0.73 C 9.7 km/h
889 02-02-2015 20:50:00 2.1 C 4.76 g/m*3 2.1 C 4.8 km/h
890 02-02-2015 20:55:00 2.1 C 4.76 g/m*3 0.24 C 6.4 km/h
891 02-02-2015 21:00:00 2.1 C 4.7 g/m*3 0.24 C 6.4 km/h
892 02-02-2015 21:05:00 2.1 C 4.7 g/m*3 2.1 C 4.8 km/h
893 02-02-2015 21:10:00 2.1 C 4.7 g/m*3 -0.73 C 9.7 km/h
894 02-02-2015 21:15:00 2.1 C 4.7 g/m*3 0.24 C 6.4 km/h
895 02-02-2015 21:20:00 2 C 4.72 g/m*3 2 C 3.2 km/h
896 02-02-2015 21:25:00 1.9 C 4.69 g/m*3 -0.54 C 8.1 km/h
897 02-02-2015 21:30:00 1.8 C 4.66 g/m*3 -0.65 C 8.1 km/h
898 02-02-2015 21:35:00 1.8 C 4.66 g/m*3 -0.1 C 6.4 km/h
899 02-02-2015 21:40:00 1.8 C 4.66 g/m*3 -0.65 C 8.1 km/h
900 02-02-2015 21:45:00 1.8 C 4.66 g/m*3 -1.47 C 11.3 km/h
Sensor: Nr:Datum:Temp:Abs-Feuchte:Windchill:Wind:
Aussen-T/F 901 02-02-2015 21:50:00 1.8 C 4.66 g/m*3 -1.09 C 9.7 km/h
902 02-02-2015 21:55:00 1.8 C 4.66 g/m*3 -1.09 C 9.7 km/h
903 02-02-2015 22:50:00 1.4 C 4.53 g/m*3 -0.56 C 6.4 km/h
904 02-02-2015 22:55:00 1.4 C 4.53 g/m*3 -0.56 C 6.4 km/h
905 02-02-2015 23:00:00 1.4 C 4.53 g/m*3 1.4 C 4.8 km/h
906 02-02-2015 23:05:00 1.5 C 4.57 g/m*3 -0.45 C 6.4 km/h
907 02-02-2015 23:10:00 1.5 C 4.51 g/m*3 -1.01 C 8.1 km/h
908 02-02-2015 23:15:00 1.5 C 4.57 g/m*3 1.5 C 4.8 km/h
909 02-02-2015 23:20:00 1.5 C 4.51 g/m*3 -0.45 C 6.4 km/h
910 02-02-2015 23:25:00 1.5 C 4.51 g/m*3 1.5 C 4.8 km/h
911 02-02-2015 23:30:00 1.5 C 4.51 g/m*3 -0.45 C 6.4 km/h
912 02-02-2015 23:35:00 1.5 C 4.51 g/m*3 -0.45 C 6.4 km/h
913 02-02-2015 23:40:00 1.6 C 4.54 g/m*3 -1.33 C 9.7 km/h
914 02-02-2015 23:45:00 1.6 C 4.54 g/m*3 -1.33 C 9.7 km/h
915 02-02-2015 23:50:00 1.6 C 4.49 g/m*3 1.6 C 3.2 km/h
916 02-02-2015 23:55:00 1.6 C 4.49 g/m*3 1.6 C 4.8 km/h
917 03-02-2015 00:00:00 1.7 C 4.57 g/m*3 1.7 C 4.8 km/h
918 03-02-2015 00:05:00 1.7 C 4.57 g/m*3 -0.77 C 8.1 km/h
919 03-02-2015 00:10:00 1.7 C 4.52 g/m*3 1.7 C 4.8 km/h
920 03-02-2015 00:15:00 1.6 C 4.54 g/m*3 1.6 C 3.2 km/h
921 03-02-2015 00:20:00 1.6 C 4.54 g/m*3 1.6 C 3.2 km/h
922 03-02-2015 00:25:00 1.6 C 4.49 g/m*3 1.6 C 4.8 km/h
923 03-02-2015 00:30:00 1.6 C 4.54 g/m*3 1.6 C 3.2 km/h
924 03-02-2015 00:35:00 1.6 C 4.6 g/m*3 1.6 C 3.2 km/h
925 03-02-2015 00:40:00 1.6 C 4.54 g/m*3 1.6 C 1.6 km/h
Sensor: Nr:Datum:Temp:Abs-Feuchte:Windchill:Wind:
Aussen-T/F 926 03-02-2015 00:45:00 1.6 C 4.54 g/m*3 1.6 C 3.2 km/h
927 03-02-2015 00:50:00 1.6 C 4.54 g/m*3 1.6 C 4.8 km/h
928 03-02-2015 00:55:00 1.6 C 4.65 g/m*3 1.6 C 4.8 km/h
929 03-02-2015 01:00:00 1.6 C 4.65 g/m*3 1.6 C 3.2 km/h
930 03-02-2015 01:05:00 1.5 C 4.57 g/m*3 1.5 C 3.2 km/h
931 03-02-2015 01:10:00 1.4 C 4.59 g/m*3 1.4 C 0 km/h
932 03-02-2015 01:15:00 1.4 C 4.59 g/m*3 1.4 C 1.6 km/h
933 03-02-2015 01:20:00 1.4 C 4.59 g/m*3 1.4 C 3.2 km/h
934 03-02-2015 01:25:00 1.4 C 4.53 g/m*3 1.4 C 3.2 km/h
935 03-02-2015 01:30:00 1.4 C 4.59 g/m*3 1.4 C 1.6 km/h
936 03-02-2015 01:35:00 1.3 C 4.56 g/m*3 1.3 C 3.2 km/h
937 03-02-2015 01:40:00 1.3 C 4.56 g/m*3 1.3 C 3.2 km/h
938 03-02-2015 01:45:00 1.3 C 4.56 g/m*3 1.3 C 3.2 km/h
939 03-02-2015 01:50:00 1.3 C 4.56 g/m*3 1.3 C 4.8 km/h
940 03-02-2015 01:55:00 1.3 C 4.56 g/m*3 1.3 C 0 km/h
941 03-02-2015 02:00:00 1.2 C 4.53 g/m*3 1.2 C 0 km/h
942 03-02-2015 02:05:00 1.2 C 4.53 g/m*3 1.2 C 0 km/h
943 03-02-2015 02:10:00 1.2 C 4.58 g/m*3 1.2 C 0 km/h
944 03-02-2015 02:15:00 1.1 C 4.55 g/m*3 1.1 C 3.2 km/h
945 03-02-2015 02:20:00 1.1 C 4.55 g/m*3 1.1 C 1.6 km/h
946 03-02-2015 02:25:00 1 C 4.57 g/m*3 1 C 3.2 km/h
947 03-02-2015 02:30:00 1 C 4.52 g/m*3 1 C 3.2 km/h
948 03-02-2015 02:35:00 1 C 4.57 g/m*3 1 C 1.6 km/h
949 03-02-2015 02:40:00 1 C 4.57 g/m*3 1 C 3.2 km/h
950 03-02-2015 02:45:00 0.9 C 4.54 g/m*3 0.9 C 3.2 km/h
Sensor: Nr:Datum:Temp:Abs-Feuchte:Windchill:Wind:
Aussen-T/F 951 03-02-2015 02:50:00 0.9 C 4.48 g/m*3 0.9 C 3.2 km/h
952 03-02-2015 02:55:00 0.9 C 4.48 g/m*3 0.9 C 1.6 km/h
953 03-02-2015 03:00:00 0.9 C 4.48 g/m*3 0.9 C 3.2 km/h
954 03-02-2015 03:05:00 0.9 C 4.48 g/m*3 0.9 C 3.2 km/h
955 03-02-2015 03:10:00 0.8 C 4.45 g/m*3 0.8 C 3.2 km/h
956 03-02-2015 03:15:00 0.8 C 4.45 g/m*3 0.8 C 3.2 km/h
957 03-02-2015 03:20:00 0.8 C 4.51 g/m*3 0.8 C 0 km/h
958 03-02-2015 03:25:00 0.7 C 4.53 g/m*3 0.7 C 0 km/h
959 03-02-2015 03:30:00 0.7 C 4.53 g/m*3 0.7 C 1.6 km/h
960 03-02-2015 03:35:00 0.6 C 4.49 g/m*3 0.6 C 1.6 km/h
961 03-02-2015 03:40:00 0.6 C 4.44 g/m*3 0.6 C 3.2 km/h
962 03-02-2015 03:45:00 0.6 C 4.49 g/m*3 0.6 C 1.6 km/h
963 03-02-2015 03:50:00 0.6 C 4.49 g/m*3 0.6 C 1.6 km/h
964 03-02-2015 03:55:00 0.6 C 4.49 g/m*3 0.6 C 4.8 km/h
965 03-02-2015 04:00:00 0.6 C 4.49 g/m*3 0.6 C 3.2 km/h
966 03-02-2015 04:05:00 0.5 C 4.46 g/m*3 0.5 C 1.6 km/h
967 03-02-2015 04:10:00 0.5 C 4.46 g/m*3 0.5 C 0 km/h
968 03-02-2015 04:15:00 0.6 C 4.49 g/m*3 0.6 C 1.6 km/h
969 03-02-2015 04:20:00 0.6 C 4.49 g/m*3 0.6 C 0 km/h
970 03-02-2015 04:25:00 0.5 C 4.51 g/m*3 0.5 C 0 km/h
971 03-02-2015 04:30:00 0.5 C 4.51 g/m*3 0.5 C 0 km/h
972 03-02-2015 04:35:00 0.6 C 4.54 g/m*3 0.6 C 1.6 km/h
973 03-02-2015 04:40:00 0.6 C 4.54 g/m*3 0.6 C 1.6 km/h
974 03-02-2015 04:45:00 0.6 C 4.54 g/m*3 0.6 C 1.6 km/h
975 03-02-2015 04:50:00 0.6 C 4.49 g/m*3 0.6 C 0 km/h
Sensor: Nr:Datum:Temp:Abs-Feuchte:Windchill:Wind:
Aussen-T/F 976 03-02-2015 04:55:00 0.6 C 4.49 g/m*3 0.6 C 1.6 km/h
977 03-02-2015 05:00:00 0.6 C 4.49 g/m*3 0.6 C 1.6 km/h
978 03-02-2015 05:05:00 0.6 C 4.49 g/m*3 0.6 C 0 km/h
979 03-02-2015 05:10:00 0.7 C 4.53 g/m*3 0.7 C 1.6 km/h
980 03-02-2015 05:15:00 0.7 C 4.53 g/m*3 0.7 C 1.6 km/h
981 03-02-2015 05:20:00 0.6 C 4.49 g/m*3 0.6 C 0 km/h
982 03-02-2015 05:25:00 0.6 C 4.49 g/m*3 0.6 C 0 km/h
983 03-02-2015 05:30:00 0.6 C 4.49 g/m*3 0.6 C 0 km/h
984 03-02-2015 05:35:00 0.6 C 4.49 g/m*3 0.6 C 0 km/h
985 03-02-2015 05:40:00 0.6 C 4.49 g/m*3 0.6 C 0 km/h
986 03-02-2015 05:45:00 0.6 C 4.49 g/m*3 0.6 C 0 km/h
987 03-02-2015 05:50:00 0.6 C 4.49 g/m*3 0.6 C 0 km/h
988 03-02-2015 05:55:00 0.6 C 4.49 g/m*3 0.6 C 1.6 km/h
989 03-02-2015 06:00:00 0.6 C 4.49 g/m*3 0.6 C 0 km/h
990 03-02-2015 06:05:00 0.6 C 4.49 g/m*3 0.6 C 0 km/h
991 03-02-2015 06:10:00 0.6 C 4.49 g/m*3 0.6 C 0 km/h
992 03-02-2015 06:15:00 0.6 C 4.49 g/m*3 0.6 C 0 km/h
993 03-02-2015 06:20:00 0.5 C 4.46 g/m*3 0.5 C 1.6 km/h
994 03-02-2015 06:25:00 0.6 C 4.49 g/m*3 0.6 C 3.2 km/h
995 03-02-2015 06:30:00 0.6 C 4.49 g/m*3 0.6 C 1.6 km/h
996 03-02-2015 06:35:00 0.6 C 4.49 g/m*3 0.6 C 3.2 km/h
997 03-02-2015 06:40:00 0.6 C 4.49 g/m*3 0.6 C 0 km/h
998 03-02-2015 06:45:00 0.6 C 4.49 g/m*3 0.6 C 0 km/h
999 03-02-2015 06:50:00 0.6 C 4.44 g/m*3 0.6 C 0 km/h
1000 03-02-2015 06:55:00 0.6 C 4.44 g/m*3 0.6 C 0 km/h
Sensor: Nr:Datum:Temp:Abs-Feuchte:Windchill:Wind:
Aussen-T/F 1001 03-02-2015 07:00:00 0.6 C 4.44 g/m*3 0.6 C 4.8 km/h
1002 03-02-2015 07:05:00 0.6 C 4.39 g/m*3 -1.49 C 6.4 km/h
1003 03-02-2015 07:10:00 0.7 C 4.42 g/m*3 0.7 C 3.2 km/h
1004 03-02-2015 07:15:00 0.7 C 4.42 g/m*3 0.7 C 1.6 km/h
1005 03-02-2015 07:20:00 0.7 C 4.47 g/m*3 0.7 C 1.6 km/h
1006 03-02-2015 07:25:00 0.7 C 4.47 g/m*3 0.7 C 1.6 km/h
1007 03-02-2015 07:30:00 0.6 C 4.49 g/m*3 0.6 C 0 km/h
1008 03-02-2015 07:35:00 0.6 C 4.44 g/m*3 0.6 C 0 km/h
1009 03-02-2015 07:40:00 0.6 C 4.49 g/m*3 0.6 C 0 km/h
1010 03-02-2015 07:45:00 0.5 C 4.46 g/m*3 0.5 C 0 km/h
1011 03-02-2015 07:50:00 0.5 C 4.46 g/m*3 0.5 C 0 km/h
1012 03-02-2015 07:55:00 0.5 C 4.46 g/m*3 0.5 C 1.6 km/h
1013 03-02-2015 08:00:00 0.4 C 4.43 g/m*3 0.4 C 0 km/h
1014 03-02-2015 08:05:00 0.4 C 4.43 g/m*3 0.4 C 0 km/h
1015 03-02-2015 08:10:00 0.4 C 4.43 g/m*3 0.4 C 0 km/h
1016 03-02-2015 12:15:00 2.4 C 5.71 g/m*3 0.59 C 6.4 km/h
1017 03-02-2015 12:20:00 2.4 C 5.71 g/m*3 -0.37 C 9.7 km/h
1018 03-02-2015 12:25:00 2.6 C 5.79 g/m*3 0.29 C 8.1 km/h
1019 03-02-2015 12:30:00 2.6 C 5.79 g/m*3 -0.14 C 9.7 km/h
1020 03-02-2015 16:00:00 3.1 C 5.21 g/m*3 3.1 C 4.8 km/h
1021 03-02-2015 16:05:00 3.1 C 5.21 g/m*3 1.4 C 6.4 km/h
1022 03-02-2015 16:10:00 3.1 C 5.21 g/m*3 3.1 C 1.6 km/h
1023 03-02-2015 16:15:00 3.1 C 5.21 g/m*3 3.1 C 1.6 km/h
1024 03-02-2015 16:20:00 3.1 C 5.21 g/m*3 3.1 C 1.6 km/h
1025 03-02-2015 16:25:00 2.8 C 5.1 g/m*3 2.8 C 1.6 km/h
Sensor: Nr:Datum:Temp:Abs-Feuchte:Windchill:Wind:
Aussen-T/F 1026 03-02-2015 16:30:00 2.7 C 5.13 g/m*3 2.7 C 0 km/h
1027 03-02-2015 16:35:00 2.7 C 5.13 g/m*3 2.7 C 0 km/h
1028 03-02-2015 16:40:00 2.7 C 5.13 g/m*3 2.7 C 0 km/h
1029 03-02-2015 16:45:00 2.7 C 5.13 g/m*3 2.7 C 0 km/h
1030 03-02-2015 16:50:00 2.7 C 5.13 g/m*3 2.7 C 0 km/h
1031 03-02-2015 17:15:00 1.5 C 4.83 g/m*3 1.5 C 3.2 km/h
1032 03-02-2015 17:20:00 1.3 C 4.82 g/m*3 1.3 C 3.2 km/h
1033 03-02-2015 17:25:00 1.2 C 4.79 g/m*3 1.2 C 4.8 km/h
1034 03-02-2015 17:30:00 1.1 C 4.76 g/m*3 1.1 C 3.2 km/h
1035 03-02-2015 17:35:00 1 C 4.78 g/m*3 1 C 3.2 km/h
1036 03-02-2015 17:40:00 0.9 C 4.74 g/m*3 0.9 C 3.2 km/h
1037 03-02-2015 17:45:00 0.9 C 4.79 g/m*3 0.9 C 1.6 km/h
1038 03-02-2015 17:50:00 1 C 4.83 g/m*3 1 C 3.2 km/h
1039 03-02-2015 17:55:00 1.1 C 4.86 g/m*3 1.1 C 3.2 km/h
1040 03-02-2015 18:00:00 1.1 C 4.86 g/m*3 1.1 C 3.2 km/h
1041 03-02-2015 18:05:00 0.9 C 4.79 g/m*3 0.9 C 3.2 km/h
1042 03-02-2015 18:10:00 0.8 C 4.76 g/m*3 0.8 C 4.8 km/h
1043 03-02-2015 18:15:00 0.7 C 4.73 g/m*3 0.7 C 0 km/h
1044 03-02-2015 18:20:00 0.6 C 4.7 g/m*3 0.6 C 3.2 km/h
1045 03-02-2015 18:25:00 0.5 C 4.66 g/m*3 0.5 C 1.6 km/h
1046 03-02-2015 18:30:00 0.5 C 4.71 g/m*3 0.5 C 4.8 km/h
1047 03-02-2015 18:35:00 0.7 C 4.78 g/m*3 0.7 C 4.8 km/h
1048 03-02-2015 18:40:00 0.7 C 4.78 g/m*3 0.7 C 3.2 km/h
1049 03-02-2015 18:45:00 0.7 C 4.78 g/m*3 0.7 C 3.2 km/h
1050 03-02-2015 18:50:00 0.6 C 4.75 g/m*3 0.6 C 4.8 km/h
Sensor: Nr:Datum:Temp:Abs-Feuchte:Windchill:Wind:
Aussen-T/F 1051 03-02-2015 18:55:00 0.6 C 4.75 g/m*3 0.6 C 4.8 km/h
1052 03-02-2015 19:00:00 0.5 C 4.71 g/m*3 0.5 C 3.2 km/h
1053 03-02-2015 19:05:00 0.4 C 4.68 g/m*3 0.4 C 4.8 km/h
1054 03-02-2015 19:10:00 0.6 C 4.8 g/m*3 0.6 C 4.8 km/h
1055 03-02-2015 19:15:00 0.7 C 4.83 g/m*3 0.7 C 1.6 km/h
1056 03-02-2015 19:20:00 0.7 C 4.83 g/m*3 0.7 C 0 km/h
1057 03-02-2015 19:25:00 0.8 C 4.86 g/m*3 0.8 C 0 km/h
1058 03-02-2015 19:30:00 0.7 C 4.83 g/m*3 0.7 C 0 km/h
1059 03-02-2015 19:35:00 0.7 C 4.83 g/m*3 0.7 C 0 km/h
1060 03-02-2015 19:40:00 0.7 C 4.83 g/m*3 0.7 C 1.6 km/h
1061 03-02-2015 19:45:00 0.7 C 4.83 g/m*3 0.7 C 0 km/h
1062 03-02-2015 19:50:00 0.7 C 4.83 g/m*3 0.7 C 0 km/h
1063 03-02-2015 19:55:00 0.7 C 4.83 g/m*3 0.7 C 3.2 km/h
1064 03-02-2015 20:00:00 0.8 C 4.86 g/m*3 0.8 C 1.6 km/h
1065 03-02-2015 20:05:00 0.8 C 4.86 g/m*3 0.8 C 1.6 km/h
1066 03-02-2015 20:10:00 0.8 C 4.86 g/m*3 0.8 C 1.6 km/h
1067 03-02-2015 20:15:00 0.8 C 4.86 g/m*3 0.8 C 0 km/h
1068 03-02-2015 20:20:00 0.8 C 4.86 g/m*3 0.8 C 0 km/h
1069 03-02-2015 20:25:00 0.8 C 4.86 g/m*3 0.8 C 0 km/h
1070 03-02-2015 20:30:00 0.9 C 4.9 g/m*3 0.9 C 1.6 km/h
1071 03-02-2015 20:35:00 0.9 C 4.9 g/m*3 0.9 C 0 km/h
1072 03-02-2015 20:40:00 0.9 C 4.9 g/m*3 0.9 C 0 km/h
1073 03-02-2015 20:45:00 1 C 4.93 g/m*3 1 C 0 km/h
1074 03-02-2015 20:50:00 1.1 C 4.96 g/m*3 1.1 C 0 km/h
1075 03-02-2015 20:55:00 1.1 C 4.96 g/m*3 1.1 C 0 km/h
Sensor: Nr:Datum:Temp:Abs-Feuchte:Windchill:Wind:
Aussen-T/F 1076 03-02-2015 21:00:00 1.2 C 5 g/m*3 1.2 C 1.6 km/h
1077 03-02-2015 21:05:00 1.2 C 5 g/m*3 1.2 C 3.2 km/h
1078 03-02-2015 21:10:00 1.2 C 5 g/m*3 1.2 C 3.2 km/h
1079 03-02-2015 21:15:00 1.1 C 4.91 g/m*3 1.1 C 3.2 km/h
1080 03-02-2015 21:20:00 1.1 C 4.91 g/m*3 1.1 C 3.2 km/h
1081 03-02-2015 21:25:00 1.1 C 4.96 g/m*3 1.1 C 0 km/h
1082 03-02-2015 21:30:00 1.1 C 4.96 g/m*3 1.1 C 0 km/h
1083 03-02-2015 21:35:00 1.1 C 4.96 g/m*3 1.1 C 0 km/h
1084 03-02-2015 21:40:00 1.1 C 4.96 g/m*3 1.1 C 0 km/h
1085 03-02-2015 21:45:00 0.9 C 4.85 g/m*3 0.9 C 0 km/h
1086 03-02-2015 21:50:00 0.7 C 4.78 g/m*3 0.7 C 0 km/h
1087 03-02-2015 21:55:00 0.5 C 4.71 g/m*3 0.5 C 3.2 km/h
1088 03-02-2015 22:00:00 0.4 C 4.68 g/m*3 0.4 C 3.2 km/h
1089 03-02-2015 22:05:00 0.4 C 4.68 g/m*3 0.4 C 0 km/h
1090 03-02-2015 22:10:00 0.3 C 4.65 g/m*3 0.3 C 0 km/h
1091 03-02-2015 22:15:00 0.2 C 4.62 g/m*3 0.2 C 1.6 km/h
1092 03-02-2015 22:20:00 0.2 C 4.67 g/m*3 0.2 C 3.2 km/h
1093 03-02-2015 22:25:00 0.2 C 4.67 g/m*3 0.2 C 0 km/h
1094 03-02-2015 22:30:00 0.1 C 4.63 g/m*3 0.1 C 0 km/h
1095 03-02-2015 22:35:00 -0.1 C 4.57 g/m*3 -0.1 C 0 km/h
1096 03-02-2015 22:40:00 -0.2 C 4.49 g/m*3 -0.2 C 0 km/h
1097 03-02-2015 22:45:00 -0.2 C 4.54 g/m*3 -0.2 C 3.2 km/h
1098 03-02-2015 22:50:00 -0.1 C 4.57 g/m*3 -0.1 C 4.8 km/h
1099 03-02-2015 22:55:00 -0.1 C 4.57 g/m*3 -0.1 C 0 km/h
1100 03-02-2015 23:00:00 -0.1 C 4.62 g/m*3 -0.1 C 0 km/h
Sensor: Nr:Datum:Temp:Abs-Feuchte:Windchill:Wind:
Aussen-T/F 1101 03-02-2015 23:05:00 -0.2 C 4.54 g/m*3 -0.2 C 0 km/h
1102 03-02-2015 23:10:00 -0.2 C 4.54 g/m*3 -0.2 C 0 km/h
1103 03-02-2015 23:15:00 -0.3 C 4.51 g/m*3 -0.3 C 1.6 km/h
1104 03-02-2015 23:20:00 -0.4 C 4.48 g/m*3 -0.4 C 0 km/h
1105 03-02-2015 23:25:00 -0.5 C 4.45 g/m*3 -0.5 C 0 km/h
1106 03-02-2015 23:30:00 -0.6 C 4.42 g/m*3 -0.6 C 0 km/h
1107 03-02-2015 23:35:00 -0.7 C 4.39 g/m*3 -0.7 C 0 km/h
1108 03-02-2015 23:40:00 -0.8 C 4.35 g/m*3 -0.8 C 1.6 km/h
1109 03-02-2015 23:45:00 -0.8 C 4.35 g/m*3 -0.8 C 1.6 km/h
1110 03-02-2015 23:50:00 -0.8 C 4.4 g/m*3 -0.8 C 0 km/h
1111 03-02-2015 23:55:00 -0.7 C 4.43 g/m*3 -0.7 C 3.2 km/h
1112 04-02-2015 00:00:00 -0.7 C 4.43 g/m*3 -0.7 C 0 km/h
1113 04-02-2015 00:05:00 -0.6 C 4.46 g/m*3 -0.6 C 1.6 km/h
1114 04-02-2015 00:10:00 -0.4 C 4.52 g/m*3 -0.4 C 0 km/h
1115 04-02-2015 00:15:00 -0.4 C 4.52 g/m*3 -0.4 C 0 km/h
1116 04-02-2015 00:20:00 -0.3 C 4.56 g/m*3 -0.3 C 0 km/h
1117 04-02-2015 00:25:00 -0.3 C 4.56 g/m*3 -0.3 C 0 km/h
1118 04-02-2015 00:30:00 -0.3 C 4.56 g/m*3 -0.3 C 0 km/h
1119 04-02-2015 00:35:00 -0.3 C 4.56 g/m*3 -0.3 C 0 km/h
1120 04-02-2015 00:40:00 -0.3 C 4.56 g/m*3 -0.3 C 0 km/h
1121 04-02-2015 00:45:00 -0.4 C 4.52 g/m*3 -0.4 C 0 km/h
1122 04-02-2015 00:50:00 -0.4 C 4.52 g/m*3 -0.4 C 0 km/h
1123 04-02-2015 00:55:00 -0.4 C 4.52 g/m*3 -0.4 C 1.6 km/h
1124 04-02-2015 01:00:00 -0.4 C 4.52 g/m*3 -0.4 C 1.6 km/h
1125 04-02-2015 01:05:00 -0.3 C 4.56 g/m*3 -0.3 C 1.6 km/h
Sensor: Nr:Datum:Temp:Abs-Feuchte:Windchill:Wind:
Aussen-T/F 1126 04-02-2015 01:10:00 -0.2 C 4.64 g/m*3 -0.2 C 0 km/h
1127 04-02-2015 01:15:00 -0.2 C 4.59 g/m*3 -0.2 C 0 km/h
1128 04-02-2015 01:20:00 -0.2 C 4.59 g/m*3 -0.2 C 1.6 km/h
1129 04-02-2015 01:25:00 -0.1 C 4.62 g/m*3 -0.1 C 3.2 km/h
1130 04-02-2015 01:30:00 0 C 4.7 g/m*3 0 C 1.6 km/h
1131 04-02-2015 01:35:00 0 C 4.7 g/m*3 0 C 4.8 km/h
1132 04-02-2015 01:40:00 0.1 C 4.73 g/m*3 0.1 C 1.6 km/h
1133 04-02-2015 01:45:00 0.1 C 4.73 g/m*3 0.1 C 3.2 km/h
1134 04-02-2015 01:50:00 0.1 C 4.73 g/m*3 0.1 C 0 km/h
1135 04-02-2015 01:55:00 0.1 C 4.73 g/m*3 0.1 C 1.6 km/h
1136 04-02-2015 02:00:00 0.2 C 4.72 g/m*3 0.2 C 0 km/h
1137 04-02-2015 02:05:00 0.2 C 4.77 g/m*3 0.2 C 0 km/h
1138 04-02-2015 02:10:00 0.3 C 4.8 g/m*3 0.3 C 0 km/h
1139 04-02-2015 02:15:00 0.3 C 4.8 g/m*3 0.3 C 0 km/h
1140 04-02-2015 02:20:00 0.3 C 4.8 g/m*3 0.3 C 0 km/h
1141 04-02-2015 02:25:00 0.4 C 4.83 g/m*3 0.4 C 1.6 km/h
1142 04-02-2015 02:30:00 0.4 C 4.83 g/m*3 0.4 C 3.2 km/h
1143 04-02-2015 02:35:00 0.4 C 4.83 g/m*3 0.4 C 3.2 km/h
1144 04-02-2015 02:40:00 0.4 C 4.78 g/m*3 0.4 C 3.2 km/h
1145 04-02-2015 02:45:00 0.3 C 4.75 g/m*3 0.3 C 1.6 km/h
1146 04-02-2015 02:50:00 0.3 C 4.75 g/m*3 0.3 C 0 km/h
1147 04-02-2015 02:55:00 0.3 C 4.75 g/m*3 0.3 C 0 km/h
1148 04-02-2015 03:00:00 0.2 C 4.72 g/m*3 0.2 C 0 km/h
1149 04-02-2015 03:05:00 0.2 C 4.72 g/m*3 0.2 C 0 km/h
1150 04-02-2015 03:10:00 0.2 C 4.72 g/m*3 0.2 C 3.2 km/h
Sensor: Nr:Datum:Temp:Abs-Feuchte:Windchill:Wind:
Aussen-T/F 1151 04-02-2015 03:15:00 0.2 C 4.72 g/m*3 0.2 C 0 km/h
1152 04-02-2015 03:20:00 0.2 C 4.72 g/m*3 0.2 C 3.2 km/h
1153 04-02-2015 03:25:00 0.3 C 4.75 g/m*3 0.3 C 0 km/h
1154 04-02-2015 03:30:00 0.3 C 4.75 g/m*3 0.3 C 0 km/h
1155 04-02-2015 03:35:00 0.3 C 4.75 g/m*3 0.3 C 3.2 km/h
1156 04-02-2015 03:40:00 0.3 C 4.75 g/m*3 0.3 C 3.2 km/h
1157 04-02-2015 03:45:00 0.3 C 4.75 g/m*3 0.3 C 0 km/h
1158 04-02-2015 03:50:00 0.3 C 4.75 g/m*3 0.3 C 0 km/h
1159 04-02-2015 03:55:00 0.3 C 4.7 g/m*3 0.3 C 3.2 km/h
1160 04-02-2015 04:00:00 0.3 C 4.7 g/m*3 -2.42 C 8.1 km/h
1161 04-02-2015 04:05:00 0.3 C 4.65 g/m*3 -2.88 C 9.7 km/h
1162 04-02-2015 04:10:00 0.4 C 4.68 g/m*3 0.4 C 4.8 km/h
1163 04-02-2015 04:15:00 0.5 C 4.66 g/m*3 0.5 C 1.6 km/h
1164 04-02-2015 04:20:00 0.5 C 4.66 g/m*3 0.5 C 4.8 km/h
1165 04-02-2015 04:25:00 0.5 C 4.66 g/m*3 0.5 C 1.6 km/h
1166 04-02-2015 04:30:00 0.6 C 4.65 g/m*3 0.6 C 0 km/h
1167 04-02-2015 04:35:00 0.5 C 4.61 g/m*3 0.5 C 4.8 km/h
1168 04-02-2015 04:40:00 0.5 C 4.61 g/m*3 0.5 C 1.6 km/h
1169 04-02-2015 04:45:00 0.5 C 4.61 g/m*3 0.5 C 1.6 km/h
1170 04-02-2015 04:50:00 0.5 C 4.61 g/m*3 -2.18 C 8.1 km/h
1171 04-02-2015 04:55:00 0.5 C 4.56 g/m*3 0.5 C 1.6 km/h
1172 04-02-2015 05:00:00 0.5 C 4.56 g/m*3 0.5 C 4.8 km/h
1173 04-02-2015 05:05:00 0.5 C 4.56 g/m*3 0.5 C 1.6 km/h
1174 04-02-2015 05:10:00 0.5 C 4.56 g/m*3 0.5 C 1.6 km/h
1175 04-02-2015 05:15:00 0.5 C 4.56 g/m*3 0.5 C 1.6 km/h
Sensor: Nr:Datum:Temp:Abs-Feuchte:Windchill:Wind:
Aussen-T/F 1176 04-02-2015 05:20:00 0.5 C 4.56 g/m*3 0.5 C 3.2 km/h
1177 04-02-2015 05:25:00 0.5 C 4.56 g/m*3 -1.6 C 6.4 km/h
1178 04-02-2015 05:30:00 0.5 C 4.51 g/m*3 0.5 C 4.8 km/h
1179 04-02-2015 05:35:00 0.5 C 4.51 g/m*3 -1.6 C 6.4 km/h
1180 04-02-2015 05:40:00 0.5 C 4.51 g/m*3 -1.6 C 6.4 km/h
1181 04-02-2015 05:45:00 0.5 C 4.51 g/m*3 0.5 C 3.2 km/h
1182 04-02-2015 05:50:00 0.5 C 4.51 g/m*3 0.5 C 4.8 km/h
1183 04-02-2015 05:55:00 0.5 C 4.51 g/m*3 0.5 C 0 km/h
1184 04-02-2015 06:00:00 0.5 C 4.51 g/m*3 0.5 C 4.8 km/h
1185 04-02-2015 06:05:00 0.4 C 4.43 g/m*3 -2.3 C 8.1 km/h
1186 04-02-2015 06:10:00 0.4 C 4.43 g/m*3 -2.3 C 8.1 km/h
1187 04-02-2015 06:15:00 0.3 C 4.4 g/m*3 -1.84 C 6.4 km/h
1188 04-02-2015 06:20:00 0.3 C 4.35 g/m*3 -1.84 C 6.4 km/h
1189 04-02-2015 06:25:00 0.2 C 4.32 g/m*3 -1.95 C 6.4 km/h
1190 04-02-2015 06:30:00 0.2 C 4.32 g/m*3 0.2 C 4.8 km/h
1191 04-02-2015 06:35:00 0.1 C 4.29 g/m*3 0.1 C 3.2 km/h
1192 04-02-2015 06:40:00 0 C 4.26 g/m*3 0 C 0 km/h
1193 04-02-2015 06:45:00 -0.2 C 4.21 g/m*3 -0.2 C 0 km/h
1194 04-02-2015 06:50:00 -0.4 C 4.15 g/m*3 -0.4 C 1.6 km/h
1195 04-02-2015 06:55:00 -0.6 C 4.14 g/m*3 -0.6 C 0 km/h
1196 04-02-2015 07:00:00 -0.7 C 4.15 g/m*3 -0.7 C 0 km/h
1197 04-02-2015 07:05:00 -0.7 C 4.2 g/m*3 -0.7 C 0 km/h
1198 04-02-2015 07:10:00 -0.6 C 4.23 g/m*3 -0.6 C 1.6 km/h
1199 04-02-2015 07:15:00 -0.6 C 4.18 g/m*3 -0.6 C 3.2 km/h
1200 04-02-2015 07:20:00 -0.5 C 4.21 g/m*3 -2.76 C 6.4 km/h
Sensor: Nr:Datum:Temp:Abs-Feuchte:Windchill:Wind:
Aussen-T/F 1201 04-02-2015 07:25:00 -0.4 C 4.24 g/m*3 -0.4 C 1.6 km/h
1202 04-02-2015 07:30:00 -0.4 C 4.19 g/m*3 -0.4 C 3.2 km/h
1203 04-02-2015 07:35:00 -0.4 C 4.15 g/m*3 -0.4 C 3.2 km/h
1204 04-02-2015 07:40:00 -0.5 C 4.12 g/m*3 -0.5 C 1.6 km/h
1205 04-02-2015 07:45:00 -0.6 C 4.09 g/m*3 -0.6 C 3.2 km/h
1206 04-02-2015 07:50:00 -0.7 C 4.06 g/m*3 -0.7 C 1.6 km/h
1207 04-02-2015 07:55:00 -0.7 C 4.06 g/m*3 -0.7 C 0 km/h
1208 04-02-2015 08:00:00 -0.7 C 4.06 g/m*3 -0.7 C 1.6 km/h
1209 04-02-2015 08:05:00 -0.7 C 4.06 g/m*3 -0.7 C 0 km/h
1210 04-02-2015 08:10:00 -0.7 C 4.06 g/m*3 -0.7 C 1.6 km/h
1211 04-02-2015 10:15:00 -0.7 C 4.06 g/m*3 -4.48 C 11.3 km/h
1212 04-02-2015 10:20:00 -0.4 C 4.1 g/m*3 -4.12 C 11.3 km/h
1213 04-02-2015 10:25:00 -0.3 C 4.13 g/m*3 -4.99 C 16.1 km/h
1214 04-02-2015 10:30:00 -0.1 C 4.04 g/m*3 -4.74 C 16.1 km/h
1215 04-02-2015 10:35:00 0.1 C 4.05 g/m*3 -4.2 C 14.5 km/h
1216 04-02-2015 10:40:00 0.2 C 4.03 g/m*3 -4.37 C 16.1 km/h
1217 04-02-2015 10:45:00 0.3 C 4.01 g/m*3 -4.51 C 17.7 km/h
1218 04-02-2015 10:50:00 0.3 C 4.01 g/m*3 -4.24 C 16.1 km/h
1219 04-02-2015 10:55:00 0.3 C 3.96 g/m*3 -3.28 C 11.3 km/h
1220 04-02-2015 11:00:00 0.3 C 3.91 g/m*3 -3.95 C 14.5 km/h
1221 04-02-2015 11:05:00 0.4 C 3.93 g/m*3 -2.3 C 8.1 km/h
1222 04-02-2015 11:10:00 0.4 C 3.88 g/m*3 -3.83 C 14.5 km/h
1223 04-02-2015 11:15:00 0.4 C 3.88 g/m*3 -2.76 C 9.7 km/h
1224 04-02-2015 11:20:00 0.4 C 3.88 g/m*3 -4.39 C 17.7 km/h
1225 04-02-2015 11:25:00 0.4 C 3.88 g/m*3 -3.83 C 14.5 km/h
Sensor: Nr:Datum:Temp:Abs-Feuchte:Windchill:Wind:
Aussen-T/F 1226 04-02-2015 11:30:00 0.5 C 3.91 g/m*3 -3.39 C 12.9 km/h
1227 04-02-2015 11:35:00 0.6 C 3.89 g/m*3 -2.92 C 11.3 km/h
1228 04-02-2015 11:40:00 0.6 C 3.94 g/m*3 -3.27 C 12.9 km/h
1229 04-02-2015 11:45:00 0.7 C 3.97 g/m*3 -2.4 C 9.7 km/h
1230 04-02-2015 11:50:00 0.7 C 3.92 g/m*3 -2.8 C 11.3 km/h
1231 04-02-2015 11:55:00 0.7 C 3.97 g/m*3 -2.8 C 11.3 km/h
1232 04-02-2015 12:00:00 0.7 C 3.92 g/m*3 -3.46 C 14.5 km/h
1233 04-02-2015 12:05:00 0.7 C 3.92 g/m*3 -2.8 C 11.3 km/h
1234 04-02-2015 12:10:00 0.7 C 3.92 g/m*3 -3.15 C 12.9 km/h
1235 04-02-2015 12:15:00 0.8 C 3.89 g/m*3 -3.62 C 16.1 km/h
1236 04-02-2015 12:20:00 0.8 C 3.84 g/m*3 -2.28 C 9.7 km/h
1237 04-02-2015 12:25:00 0.9 C 3.92 g/m*3 -3.5 C 16.1 km/h
1238 04-02-2015 12:30:00 1 C 3.94 g/m*3 -4.11 C 20.9 km/h
1239 04-02-2015 12:35:00 1.1 C 3.97 g/m*3 -1.92 C 9.7 km/h
1240 04-02-2015 12:40:00 1.2 C 3.95 g/m*3 -1.8 C 9.7 km/h
1241 04-02-2015 12:45:00 1.2 C 3.95 g/m*3 -1.8 C 9.7 km/h
1242 04-02-2015 12:50:00 1.1 C 3.92 g/m*3 -1.48 C 8.1 km/h
1243 04-02-2015 12:55:00 1.1 C 3.92 g/m*3 -1.92 C 9.7 km/h
1244 04-02-2015 13:00:00 1.1 C 3.97 g/m*3 -1.92 C 9.7 km/h
1245 04-02-2015 13:05:00 1.2 C 3.95 g/m*3 -1.36 C 8.1 km/h
1246 04-02-2015 13:10:00 1.2 C 4 g/m*3 -2.19 C 11.3 km/h
1247 04-02-2015 13:15:00 1.3 C 4.03 g/m*3 -3 C 16.1 km/h
1248 04-02-2015 13:20:00 1.3 C 3.97 g/m*3 -0.68 C 6.4 km/h
1249 04-02-2015 13:25:00 1.3 C 3.97 g/m*3 1.3 C 4.8 km/h
1250 04-02-2015 13:30:00 1.4 C 4 g/m*3 -1.95 C 11.3 km/h
Sensor: Nr:Datum:Temp:Abs-Feuchte:Windchill:Wind:
Aussen-T/F 1251 04-02-2015 13:35:00 1.5 C 4.03 g/m*3 -0.45 C 6.4 km/h
1252 04-02-2015 13:40:00 1.6 C 4 g/m*3 1.6 C 4.8 km/h
1253 04-02-2015 13:45:00 1.6 C 4.06 g/m*3 -2.35 C 14.5 km/h
1254 04-02-2015 13:50:00 1.7 C 4.08 g/m*3 -1.21 C 9.7 km/h
1255 04-02-2015 13:55:00 1.8 C 4.11 g/m*3 -1.47 C 11.3 km/h
1256 04-02-2015 14:00:00 1.9 C 4.03 g/m*3 -0.97 C 9.7 km/h
1257 04-02-2015 14:05:00 1.9 C 4.08 g/m*3 1.9 C 4.8 km/h
1258 04-02-2015 14:10:00 1.9 C 4.03 g/m*3 1.9 C 4.8 km/h
1259 04-02-2015 14:15:00 2.1 C 4.2 g/m*3 -0.73 C 9.7 km/h
1260 04-02-2015 14:20:00 2.3 C 4.2 g/m*3 -0.87 C 11.3 km/h
1261 04-02-2015 14:25:00 2.4 C 4.17 g/m*3 -0.37 C 9.7 km/h
1262 04-02-2015 14:30:00 2.4 C 4.23 g/m*3 0.59 C 6.4 km/h
1263 04-02-2015 14:35:00 2.6 C 4.34 g/m*3 -0.14 C 9.7 km/h
1264 04-02-2015 14:40:00 2.7 C 4.31 g/m*3 -0.02 C 9.7 km/h
1265 04-02-2015 14:45:00 2.7 C 4.25 g/m*3 0.4 C 8.1 km/h
1266 04-02-2015 14:50:00 2.7 C 4.25 g/m*3 0.4 C 8.1 km/h
1267 04-02-2015 14:55:00 2.8 C 4.28 g/m*3 0.52 C 8.1 km/h
1268 04-02-2015 15:00:00 3 C 4.28 g/m*3 0.76 C 8.1 km/h
1269 04-02-2015 15:05:00 3.2 C 4.28 g/m*3 0.99 C 8.1 km/h
1270 04-02-2015 15:10:00 3.4 C 4.28 g/m*3 1.75 C 6.4 km/h
1271 04-02-2015 15:15:00 3.4 C 4.28 g/m*3 0.46 C 11.3 km/h
1272 04-02-2015 15:20:00 3.4 C 4.28 g/m*3 0.82 C 9.7 km/h
1273 04-02-2015 15:25:00 3.4 C 4.28 g/m*3 0.14 C 12.9 km/h
1274 04-02-2015 15:30:00 3.3 C 4.19 g/m*3 1.11 C 8.1 km/h
1275 04-02-2015 15:35:00 3.2 C 4.22 g/m*3 0.99 C 8.1 km/h
Sensor: Nr:Datum:Temp:Abs-Feuchte:Windchill:Wind:
Aussen-T/F 1276 04-02-2015 15:40:00 3.1 C 4.25 g/m*3 1.4 C 6.4 km/h
1277 04-02-2015 15:45:00 2.9 C 4.25 g/m*3 0.22 C 9.7 km/h
1278 04-02-2015 15:50:00 2.8 C 4.28 g/m*3 -0.26 C 11.3 km/h
1279 04-02-2015 15:55:00 2.7 C 4.25 g/m*3 -0.02 C 9.7 km/h
1280 04-02-2015 16:00:00 2.6 C 4.22 g/m*3 -0.5 C 11.3 km/h
1281 04-02-2015 16:05:00 2.5 C 4.2 g/m*3 -0.95 C 12.9 km/h
1282 04-02-2015 16:10:00 2.4 C 4.17 g/m*3 -0.37 C 9.7 km/h
1283 04-02-2015 16:15:00 2.3 C 4.2 g/m*3 -0.07 C 8.1 km/h
1284 04-02-2015 16:20:00 2.2 C 4.17 g/m*3 -0.61 C 9.7 km/h
1285 04-02-2015 16:25:00 2.2 C 4.17 g/m*3 -0.61 C 9.7 km/h
1286 04-02-2015 16:30:00 2.2 C 4.22 g/m*3 2.2 C 4.8 km/h
1287 04-02-2015 16:35:00 2.1 C 4.2 g/m*3 2.1 C 4.8 km/h
1288 04-02-2015 16:40:00 2 C 4.22 g/m*3 -0.85 C 9.7 km/h
1289 04-02-2015 16:45:00 1.9 C 4.19 g/m*3 0.01 C 6.4 km/h
1290 04-02-2015 16:50:00 1.8 C 4.22 g/m*3 1.8 C 4.8 km/h
1291 04-02-2015 16:55:00 1.7 C 4.19 g/m*3 1.7 C 4.8 km/h
1292 04-02-2015 17:00:00 1.6 C 4.16 g/m*3 1.6 C 0 km/h
1293 04-02-2015 17:05:00 1.3 C 4.19 g/m*3 1.3 C 1.6 km/h
1294 04-02-2015 17:10:00 1 C 4.2 g/m*3 1 C 0 km/h
1295 04-02-2015 17:15:00 0.7 C 4.22 g/m*3 0.7 C 0 km/h
1296 04-02-2015 17:20:00 0.5 C 4.21 g/m*3 0.5 C 0 km/h
1297 04-02-2015 17:25:00 0.3 C 4.16 g/m*3 0.3 C 0 km/h
1298 04-02-2015 17:30:00 0.2 C 4.18 g/m*3 0.2 C 3.2 km/h
1299 04-02-2015 17:35:00 0.1 C 4.2 g/m*3 0.1 C 1.6 km/h
1300 04-02-2015 17:40:00 0 C 4.17 g/m*3 0 C 0 km/h
Sensor: Nr:Datum:Temp:Abs-Feuchte:Windchill:Wind:
Aussen-T/F 1301 04-02-2015 17:45:00 -0.1 C 4.14 g/m*3 -0.1 C 3.2 km/h
1302 04-02-2015 17:50:00 -0.1 C 4.19 g/m*3 -0.1 C 1.6 km/h
1303 04-02-2015 17:55:00 -0.2 C 4.16 g/m*3 -0.2 C 4.8 km/h
1304 04-02-2015 18:00:00 -0.2 C 4.16 g/m*3 -0.2 C 4.8 km/h
1305 04-02-2015 18:05:00 -0.2 C 4.16 g/m*3 -0.2 C 4.8 km/h
1306 04-02-2015 18:10:00 -0.3 C 4.13 g/m*3 -0.3 C 4.8 km/h
1307 04-02-2015 18:15:00 -0.3 C 4.18 g/m*3 -0.3 C 4.8 km/h
1308 04-02-2015 18:20:00 -0.3 C 4.18 g/m*3 -0.3 C 4.8 km/h
1309 04-02-2015 18:25:00 -0.4 C 4.15 g/m*3 -0.4 C 4.8 km/h
1310 04-02-2015 18:30:00 -0.4 C 4.15 g/m*3 -0.4 C 4.8 km/h
1311 04-02-2015 18:35:00 -0.5 C 4.12 g/m*3 -0.5 C 4.8 km/h
1312 04-02-2015 18:40:00 -0.6 C 4.09 g/m*3 -0.6 C 3.2 km/h
1313 04-02-2015 18:45:00 -0.6 C 4.09 g/m*3 -0.6 C 4.8 km/h
1314 04-02-2015 18:50:00 -0.6 C 4.09 g/m*3 -0.6 C 3.2 km/h
1315 04-02-2015 18:55:00 -0.7 C 4.06 g/m*3 -0.7 C 3.2 km/h
1316 04-02-2015 19:00:00 -0.7 C 4.11 g/m*3 -0.7 C 3.2 km/h
1317 04-02-2015 19:05:00 -0.8 C 4.08 g/m*3 -0.8 C 3.2 km/h
1318 04-02-2015 19:10:00 -0.9 C 4.05 g/m*3 -0.9 C 3.2 km/h
1319 04-02-2015 19:15:00 -1 C 4.07 g/m*3 -1 C 3.2 km/h
1320 04-02-2015 19:20:00 -1.1 C 4.09 g/m*3 -1.1 C 0 km/h
1321 04-02-2015 19:25:00 -1.1 C 4.09 g/m*3 -1.1 C 3.2 km/h
1322 04-02-2015 19:30:00 -1.2 C 4.06 g/m*3 -1.2 C 1.6 km/h
1323 04-02-2015 19:35:00 -1.2 C 4.06 g/m*3 -1.2 C 1.6 km/h
1324 04-02-2015 19:40:00 -1.2 C 4.06 g/m*3 -1.2 C 1.6 km/h
1325 04-02-2015 19:45:00 -1.3 C 4.03 g/m*3 -1.3 C 0 km/h
Sensor: Nr:Datum:Temp:Abs-Feuchte:Windchill:Wind:
Aussen-T/F 1326 04-02-2015 19:50:00 -1.4 C 4 g/m*3 -1.4 C 0 km/h
1327 04-02-2015 19:55:00 -1.4 C 4.04 g/m*3 -1.4 C 0 km/h
1328 04-02-2015 20:00:00 -1.4 C 4.04 g/m*3 -1.4 C 0 km/h
1329 04-02-2015 20:05:00 -1.5 C 4.02 g/m*3 -1.5 C 0 km/h
1330 04-02-2015 20:10:00 -1.5 C 4.02 g/m*3 -1.5 C 0 km/h
1331 04-02-2015 20:15:00 -1.6 C 3.99 g/m*3 -1.6 C 0 km/h
1332 04-02-2015 20:20:00 -1.6 C 3.99 g/m*3 -1.6 C 0 km/h
1333 04-02-2015 20:25:00 -1.6 C 3.99 g/m*3 -1.6 C 0 km/h
1334 04-02-2015 20:30:00 -1.7 C 3.96 g/m*3 -1.7 C 0 km/h
1335 04-02-2015 20:35:00 -1.7 C 4 g/m*3 -1.7 C 0 km/h
1336 04-02-2015 20:40:00 -1.7 C 4 g/m*3 -1.7 C 0 km/h
1337 04-02-2015 20:45:00 -1.7 C 4 g/m*3 -1.7 C 0 km/h
1338 04-02-2015 20:50:00 -1.8 C 3.98 g/m*3 -1.8 C 0 km/h
1339 04-02-2015 20:55:00 -1.8 C 3.98 g/m*3 -1.8 C 0 km/h
1340 04-02-2015 21:00:00 -1.8 C 3.98 g/m*3 -1.8 C 0 km/h
1341 04-02-2015 21:05:00 -1.8 C 3.98 g/m*3 -1.8 C 0 km/h
1342 04-02-2015 21:10:00 -1.8 C 3.98 g/m*3 -1.8 C 0 km/h
1343 04-02-2015 21:15:00 -1.9 C 3.95 g/m*3 -1.9 C 0 km/h
1344 04-02-2015 21:20:00 -1.9 C 3.95 g/m*3 -1.9 C 0 km/h
1345 04-02-2015 21:25:00 -2.1 C 3.89 g/m*3 -2.1 C 0 km/h
1346 04-02-2015 21:30:00 -2.2 C 3.87 g/m*3 -2.2 C 0 km/h
1347 04-02-2015 21:35:00 -2.2 C 3.87 g/m*3 -2.2 C 0 km/h
1348 04-02-2015 21:40:00 -2.2 C 3.87 g/m*3 -2.2 C 0 km/h
1349 04-02-2015 21:45:00 -2.2 C 3.87 g/m*3 -2.2 C 0 km/h
1350 04-02-2015 21:50:00 -2.3 C 3.84 g/m*3 -2.3 C 0 km/h
Sensor: Nr:Datum:Temp:Abs-Feuchte:Windchill:Wind:
Aussen-T/F 1351 04-02-2015 21:55:00 -2.3 C 3.88 g/m*3 -2.3 C 0 km/h
1352 04-02-2015 22:00:00 -2.3 C 3.88 g/m*3 -2.3 C 0 km/h
1353 04-02-2015 22:05:00 -2.3 C 3.88 g/m*3 -2.3 C 0 km/h
1354 04-02-2015 22:10:00 -2.3 C 3.88 g/m*3 -2.3 C 1.6 km/h
1355 04-02-2015 22:15:00 -2.4 C 3.85 g/m*3 -2.4 C 0 km/h
1356 04-02-2015 22:20:00 -2.4 C 3.85 g/m*3 -2.4 C 0 km/h
1357 04-02-2015 22:25:00 -2.4 C 3.85 g/m*3 -2.4 C 0 km/h
1358 04-02-2015 22:30:00 -2.5 C 3.83 g/m*3 -2.5 C 0 km/h
1359 04-02-2015 22:35:00 -2.5 C 3.83 g/m*3 -2.5 C 0 km/h
1360 04-02-2015 22:40:00 -2.6 C 3.8 g/m*3 -2.6 C 0 km/h
1361 04-02-2015 22:45:00 -2.6 C 3.8 g/m*3 -2.6 C 0 km/h
1362 04-02-2015 22:50:00 -2.6 C 3.8 g/m*3 -2.6 C 0 km/h
1363 04-02-2015 22:55:00 -2.6 C 3.8 g/m*3 -2.6 C 0 km/h
1364 04-02-2015 23:00:00 -2.6 C 3.8 g/m*3 -2.6 C 0 km/h
1365 04-02-2015 23:05:00 -2.6 C 3.8 g/m*3 -2.6 C 0 km/h
1366 04-02-2015 23:10:00 -2.6 C 3.8 g/m*3 -2.6 C 0 km/h
1367 04-02-2015 23:15:00 -2.6 C 3.8 g/m*3 -2.6 C 0 km/h
1368 04-02-2015 23:20:00 -2.6 C 3.8 g/m*3 -2.6 C 0 km/h
1369 04-02-2015 23:25:00 -2.7 C 3.77 g/m*3 -2.7 C 0 km/h
1370 04-02-2015 23:30:00 -2.7 C 3.77 g/m*3 -2.7 C 3.2 km/h
1371 04-02-2015 23:35:00 -2.6 C 3.84 g/m*3 -2.6 C 3.2 km/h
1372 04-02-2015 23:40:00 -2.6 C 3.84 g/m*3 -2.6 C 0 km/h
1373 04-02-2015 23:45:00 -2.6 C 3.8 g/m*3 -2.6 C 0 km/h
1374 04-02-2015 23:50:00 -2.7 C 3.77 g/m*3 -2.7 C 3.2 km/h
1375 04-02-2015 23:55:00 -2.6 C 3.8 g/m*3 -2.6 C 1.6 km/h
Sensor: Nr:Datum:Temp:Abs-Feuchte:Windchill:Wind:
Aussen-T/F 1376 05-02-2015 00:00:00 -2.6 C 3.84 g/m*3 -2.6 C 1.6 km/h
1377 05-02-2015 00:05:00 -2.6 C 3.8 g/m*3 -2.6 C 1.6 km/h
1378 05-02-2015 00:10:00 -2.7 C 3.77 g/m*3 -2.7 C 1.6 km/h
1379 05-02-2015 00:15:00 -2.7 C 3.77 g/m*3 -2.7 C 1.6 km/h
1380 05-02-2015 00:20:00 -2.8 C 3.75 g/m*3 -2.8 C 1.6 km/h
1381 05-02-2015 00:25:00 -2.8 C 3.75 g/m*3 -2.8 C 1.6 km/h
1382 05-02-2015 00:30:00 -2.9 C 3.72 g/m*3 -2.9 C 1.6 km/h
1383 05-02-2015 00:35:00 -3 C 3.69 g/m*3 -3 C 3.2 km/h
1384 05-02-2015 00:40:00 -3 C 3.69 g/m*3 -3 C 1.6 km/h
1385 05-02-2015 00:45:00 -3 C 3.69 g/m*3 -3 C 0 km/h
1386 05-02-2015 00:50:00 -3.1 C 3.67 g/m*3 -3.1 C 0 km/h
1387 05-02-2015 00:55:00 -3.2 C 3.64 g/m*3 -3.2 C 1.6 km/h
1388 05-02-2015 01:00:00 -3.2 C 3.68 g/m*3 -3.2 C 1.6 km/h
1389 05-02-2015 01:05:00 -3.2 C 3.68 g/m*3 -3.2 C 0 km/h
1390 05-02-2015 01:10:00 -3.2 C 3.64 g/m*3 -3.2 C 0 km/h
1391 05-02-2015 01:15:00 -3.3 C 3.65 g/m*3 -3.3 C 0 km/h
1392 05-02-2015 01:20:00 -3.3 C 3.61 g/m*3 -3.3 C 0 km/h
1393 05-02-2015 01:25:00 -3.3 C 3.65 g/m*3 -3.3 C 1.6 km/h
1394 05-02-2015 01:30:00 -3.4 C 3.63 g/m*3 -3.4 C 0 km/h
1395 05-02-2015 01:35:00 -3.4 C 3.63 g/m*3 -3.4 C 0 km/h
1396 05-02-2015 01:40:00 -3.5 C 3.6 g/m*3 -3.5 C 0 km/h
1397 05-02-2015 01:45:00 -3.6 C 3.54 g/m*3 -3.6 C 0 km/h
1398 05-02-2015 01:50:00 -3.6 C 3.58 g/m*3 -3.6 C 0 km/h
1399 05-02-2015 01:55:00 -3.7 C 3.55 g/m*3 -3.7 C 0 km/h
1400 05-02-2015 02:00:00 -3.7 C 3.55 g/m*3 -3.7 C 0 km/h
Sensor: Nr:Datum:Temp:Abs-Feuchte:Windchill:Wind:
Aussen-T/F 1401 05-02-2015 02:05:00 -3.7 C 3.55 g/m*3 -3.7 C 0 km/h
1402 05-02-2015 02:10:00 -3.8 C 3.53 g/m*3 -3.8 C 0 km/h
1403 05-02-2015 02:15:00 -3.8 C 3.53 g/m*3 -3.8 C 0 km/h
1404 05-02-2015 02:20:00 -3.7 C 3.55 g/m*3 -3.7 C 0 km/h
1405 05-02-2015 02:25:00 -3.8 C 3.53 g/m*3 -3.8 C 1.6 km/h
1406 05-02-2015 02:30:00 -3.8 C 3.53 g/m*3 -3.8 C 0 km/h
1407 05-02-2015 02:35:00 -3.8 C 3.53 g/m*3 -3.8 C 1.6 km/h
1408 05-02-2015 02:40:00 -3.7 C 3.55 g/m*3 -3.7 C 1.6 km/h
1409 05-02-2015 02:45:00 -3.7 C 3.55 g/m*3 -3.7 C 3.2 km/h
1410 05-02-2015 02:50:00 -3.5 C 3.6 g/m*3 -3.5 C 4.8 km/h
1411 05-02-2015 02:55:00 -3.5 C 3.6 g/m*3 -3.5 C 4.8 km/h
1412 05-02-2015 03:00:00 -3.6 C 3.58 g/m*3 -3.6 C 3.2 km/h
1413 05-02-2015 03:05:00 -3.6 C 3.54 g/m*3 -3.6 C 3.2 km/h
1414 05-02-2015 03:10:00 -3.6 C 3.54 g/m*3 -3.6 C 3.2 km/h
1415 05-02-2015 03:15:00 -3.7 C 3.51 g/m*3 -3.7 C 3.2 km/h
1416 05-02-2015 03:20:00 -3.7 C 3.51 g/m*3 -3.7 C 3.2 km/h
1417 05-02-2015 03:25:00 -3.8 C 3.49 g/m*3 -3.8 C 3.2 km/h
1418 05-02-2015 03:30:00 -3.8 C 3.49 g/m*3 -3.8 C 4.8 km/h
1419 05-02-2015 03:35:00 -3.8 C 3.49 g/m*3 -3.8 C 4.8 km/h
1420 05-02-2015 03:40:00 -3.8 C 3.49 g/m*3 -3.8 C 3.2 km/h
1421 05-02-2015 03:45:00 -3.9 C 3.43 g/m*3 -3.9 C 0 km/h
1422 05-02-2015 03:50:00 -3.9 C 3.43 g/m*3 -3.9 C 1.6 km/h
1423 05-02-2015 03:55:00 -4 C 3.4 g/m*3 -4 C 0 km/h
1424 05-02-2015 04:00:00 -4.1 C 3.38 g/m*3 -4.1 C 1.6 km/h
1425 05-02-2015 04:05:00 -4.2 C 3.35 g/m*3 -4.2 C 0 km/h
Sensor: Nr:Datum:Temp:Abs-Feuchte:Windchill:Wind:
Aussen-T/F 1426 05-02-2015 04:10:00 -4.2 C 3.35 g/m*3 -4.2 C 3.2 km/h
1427 05-02-2015 04:15:00 -4.2 C 3.35 g/m*3 -4.2 C 1.6 km/h
1428 05-02-2015 04:20:00 -4.2 C 3.39 g/m*3 -4.2 C 4.8 km/h
1429 05-02-2015 04:25:00 -4.2 C 3.39 g/m*3 -4.2 C 4.8 km/h
1430 05-02-2015 04:30:00 -4.2 C 3.39 g/m*3 -4.2 C 3.2 km/h
1431 05-02-2015 04:35:00 -4.2 C 3.39 g/m*3 -4.2 C 0 km/h
1432 05-02-2015 04:40:00 -4.2 C 3.39 g/m*3 -4.2 C 3.2 km/h
1433 05-02-2015 04:45:00 -4.2 C 3.39 g/m*3 -4.2 C 3.2 km/h
1434 05-02-2015 04:50:00 -4.2 C 3.39 g/m*3 -4.2 C 1.6 km/h
1435 05-02-2015 04:55:00 -4.2 C 3.39 g/m*3 -4.2 C 3.2 km/h
1436 05-02-2015 05:00:00 -4.2 C 3.39 g/m*3 -4.2 C 4.8 km/h
1437 05-02-2015 05:05:00 -4.3 C 3.33 g/m*3 -4.3 C 3.2 km/h
1438 05-02-2015 05:10:00 -4.2 C 3.39 g/m*3 -4.2 C 3.2 km/h
1439 05-02-2015 05:15:00 -4.2 C 3.39 g/m*3 -4.2 C 1.6 km/h
1440 05-02-2015 05:20:00 -4.3 C 3.33 g/m*3 -4.3 C 1.6 km/h
1441 05-02-2015 05:25:00 -4.3 C 3.33 g/m*3 -4.3 C 0 km/h
1442 05-02-2015 05:30:00 -4.4 C 3.31 g/m*3 -4.4 C 0 km/h
1443 05-02-2015 05:35:00 -4.4 C 3.31 g/m*3 -4.4 C 0 km/h
1444 05-02-2015 05:40:00 -4.4 C 3.31 g/m*3 -4.4 C 0 km/h
1445 05-02-2015 05:45:00 -4.4 C 3.31 g/m*3 -4.4 C 0 km/h
1446 05-02-2015 05:50:00 -4.5 C 3.28 g/m*3 -4.5 C 0 km/h
1447 05-02-2015 05:55:00 -4.6 C 3.26 g/m*3 -4.6 C 0 km/h
1448 05-02-2015 06:00:00 -4.6 C 3.26 g/m*3 -4.6 C 0 km/h
1449 05-02-2015 06:05:00 -4.6 C 3.26 g/m*3 -4.6 C 0 km/h
1450 05-02-2015 06:10:00 -4.7 C 3.24 g/m*3 -4.7 C 0 km/h
Sensor: Nr:Datum:Temp:Abs-Feuchte:Windchill:Wind:
Aussen-T/F 1451 05-02-2015 06:15:00 -4.7 C 3.24 g/m*3 -4.7 C 0 km/h
1452 05-02-2015 06:20:00 -4.7 C 3.24 g/m*3 -4.7 C 0 km/h
1453 05-02-2015 06:25:00 -4.7 C 3.27 g/m*3 -4.7 C 0 km/h
1454 05-02-2015 06:30:00 -4.6 C 3.29 g/m*3 -4.6 C 1.6 km/h
1455 05-02-2015 06:35:00 -4.6 C 3.29 g/m*3 -4.6 C 0 km/h
1456 05-02-2015 06:40:00 -4.5 C 3.32 g/m*3 -4.5 C 0 km/h
1457 05-02-2015 06:45:00 -4.4 C 3.34 g/m*3 -4.4 C 0 km/h
1458 05-02-2015 06:50:00 -4.4 C 3.34 g/m*3 -4.4 C 0 km/h
1459 05-02-2015 06:55:00 -4.3 C 3.37 g/m*3 -4.3 C 0 km/h
1460 05-02-2015 07:00:00 -4.3 C 3.37 g/m*3 -4.3 C 0 km/h
1461 05-02-2015 07:05:00 -4.3 C 3.37 g/m*3 -4.3 C 0 km/h
1462 05-02-2015 07:10:00 -4.2 C 3.43 g/m*3 -4.2 C 0 km/h
1463 05-02-2015 07:15:00 -4.1 C 3.45 g/m*3 -4.1 C 0 km/h
1464 05-02-2015 07:20:00 -3.9 C 3.5 g/m*3 -3.9 C 0 km/h
1465 05-02-2015 07:25:00 -3.8 C 3.53 g/m*3 -3.8 C 0 km/h
1466 05-02-2015 07:30:00 -3.8 C 3.49 g/m*3 -3.8 C 0 km/h
1467 05-02-2015 07:35:00 -3.8 C 3.49 g/m*3 -3.8 C 0 km/h
1468 05-02-2015 07:40:00 -3.7 C 3.51 g/m*3 -3.7 C 3.2 km/h
1469 05-02-2015 07:45:00 -3.7 C 3.51 g/m*3 -3.7 C 1.6 km/h
1470 05-02-2015 07:50:00 -3.6 C 3.54 g/m*3 -3.6 C 1.6 km/h
1471 05-02-2015 07:55:00 -3.6 C 3.54 g/m*3 -3.6 C 1.6 km/h
1472 05-02-2015 17:00:00 1.1 C 3.66 g/m*3 -3.25 C 16.1 km/h
1473 05-02-2015 17:05:00 1 C 3.63 g/m*3 -3.09 C 14.5 km/h
1474 05-02-2015 17:10:00 0.9 C 3.61 g/m*3 -2.9 C 12.9 km/h
1475 05-02-2015 17:15:00 0.9 C 3.61 g/m*3 -3.5 C 16.1 km/h
Sensor: Nr:Datum:Temp:Abs-Feuchte:Windchill:Wind:
Aussen-T/F 1476 05-02-2015 17:20:00 0.8 C 3.58 g/m*3 -3.62 C 16.1 km/h
1477 05-02-2015 17:25:00 0.8 C 3.58 g/m*3 -4.77 C 24.1 km/h
1478 05-02-2015 17:30:00 0.8 C 3.63 g/m*3 -3.02 C 12.9 km/h
1479 05-02-2015 17:35:00 0.7 C 3.66 g/m*3 -4.01 C 17.7 km/h
1480 05-02-2015 17:40:00 0.7 C 3.66 g/m*3 -2.4 C 9.7 km/h
1481 05-02-2015 17:45:00 0.7 C 3.66 g/m*3 -3.15 C 12.9 km/h
1482 05-02-2015 17:50:00 0.7 C 3.66 g/m*3 -3.15 C 12.9 km/h
1483 05-02-2015 17:55:00 0.7 C 3.66 g/m*3 -1.95 C 8.1 km/h
1484 05-02-2015 18:00:00 0.7 C 3.66 g/m*3 -2.4 C 9.7 km/h
1485 05-02-2015 18:05:00 0.7 C 3.71 g/m*3 -3.46 C 14.5 km/h
1486 05-02-2015 18:10:00 0.7 C 3.71 g/m*3 -3.75 C 16.1 km/h
1487 05-02-2015 18:15:00 0.7 C 3.66 g/m*3 -3.75 C 16.1 km/h
1488 05-02-2015 18:20:00 0.7 C 3.66 g/m*3 -3.46 C 14.5 km/h
1489 05-02-2015 18:25:00 0.7 C 3.66 g/m*3 -4.01 C 17.7 km/h
1490 05-02-2015 18:30:00 0.7 C 3.71 g/m*3 -3.46 C 14.5 km/h
1491 05-02-2015 18:35:00 0.6 C 3.64 g/m*3 -3.58 C 14.5 km/h
1492 05-02-2015 18:40:00 0.6 C 3.64 g/m*3 -3.27 C 12.9 km/h
1493 05-02-2015 18:45:00 0.6 C 3.64 g/m*3 -3.27 C 12.9 km/h
1494 05-02-2015 18:50:00 0.6 C 3.64 g/m*3 -3.58 C 14.5 km/h
1495 05-02-2015 18:55:00 0.6 C 3.69 g/m*3 -2.06 C 8.1 km/h
1496 05-02-2015 19:00:00 0.5 C 3.66 g/m*3 -3.04 C 11.3 km/h
1497 05-02-2015 19:05:00 0.5 C 3.71 g/m*3 -3.04 C 11.3 km/h
1498 05-02-2015 19:10:00 0.4 C 3.69 g/m*3 -3.16 C 11.3 km/h
1499 05-02-2015 19:15:00 0.4 C 3.74 g/m*3 -2.76 C 9.7 km/h
1500 05-02-2015 19:20:00 0.4 C 3.74 g/m*3 -3.16 C 11.3 km/h
Sensor: Nr:Datum:Temp:Abs-Feuchte:Windchill:Wind:
Aussen-T/F 1501 05-02-2015 19:25:00 0.4 C 3.74 g/m*3 -2.3 C 8.1 km/h
1502 05-02-2015 19:30:00 0.4 C 3.69 g/m*3 -3.16 C 11.3 km/h
1503 05-02-2015 19:35:00 0.5 C 3.66 g/m*3 -3.71 C 14.5 km/h
1504 05-02-2015 19:40:00 0.6 C 3.69 g/m*3 -3.87 C 16.1 km/h
1505 05-02-2015 19:45:00 0.6 C 3.69 g/m*3 -4.14 C 17.7 km/h
1506 05-02-2015 19:50:00 0.6 C 3.69 g/m*3 -2.52 C 9.7 km/h
1507 05-02-2015 19:55:00 0.6 C 3.69 g/m*3 -2.92 C 11.3 km/h
1508 05-02-2015 20:00:00 0.6 C 3.69 g/m*3 -2.06 C 8.1 km/h
1509 05-02-2015 20:05:00 0.6 C 3.64 g/m*3 -3.27 C 12.9 km/h
1510 05-02-2015 20:10:00 0.7 C 3.66 g/m*3 -2.8 C 11.3 km/h
1511 05-02-2015 20:15:00 0.7 C 3.61 g/m*3 -2.4 C 9.7 km/h
1512 05-02-2015 20:20:00 0.7 C 3.56 g/m*3 -3.15 C 12.9 km/h
1513 05-02-2015 20:25:00 0.7 C 3.56 g/m*3 -3.46 C 14.5 km/h
1514 05-02-2015 20:30:00 0.7 C 3.56 g/m*3 -3.75 C 16.1 km/h
1515 05-02-2015 20:35:00 0.7 C 3.51 g/m*3 -3.75 C 16.1 km/h
1516 05-02-2015 20:40:00 0.6 C 3.48 g/m*3 -4.61 C 20.9 km/h
1517 05-02-2015 20:45:00 0.5 C 3.51 g/m*3 -2.64 C 9.7 km/h
1518 05-02-2015 20:50:00 0.5 C 3.51 g/m*3 -3.39 C 12.9 km/h
1519 05-02-2015 20:55:00 0.5 C 3.51 g/m*3 -4.51 C 19.3 km/h
1520 05-02-2015 21:00:00 0.4 C 3.49 g/m*3 -3.51 C 12.9 km/h
1521 05-02-2015 21:05:00 0.5 C 3.51 g/m*3 -3.71 C 14.5 km/h
1522 05-02-2015 21:10:00 0.4 C 3.49 g/m*3 -4.12 C 16.1 km/h
1523 05-02-2015 21:15:00 0.4 C 3.49 g/m*3 -3.83 C 14.5 km/h
1524 05-02-2015 21:20:00 0.3 C 3.51 g/m*3 -3.28 C 11.3 km/h
1525 05-02-2015 21:25:00 0.3 C 3.51 g/m*3 -2.42 C 8.1 km/h
Sensor: Nr:Datum:Temp:Abs-Feuchte:Windchill:Wind:
Aussen-T/F 1526 05-02-2015 21:30:00 0.3 C 3.51 g/m*3 -3.63 C 12.9 km/h
1527 05-02-2015 21:35:00 0.3 C 3.51 g/m*3 -3.95 C 14.5 km/h
1528 05-02-2015 21:40:00 0.3 C 3.46 g/m*3 -3.63 C 12.9 km/h
1529 05-02-2015 21:45:00 0.3 C 3.46 g/m*3 -3.63 C 12.9 km/h
1530 05-02-2015 21:50:00 0.2 C 3.49 g/m*3 -4.89 C 19.3 km/h
1531 05-02-2015 21:55:00 0.2 C 3.49 g/m*3 -3.4 C 11.3 km/h
1532 05-02-2015 22:00:00 0.2 C 3.49 g/m*3 -2.53 C 8.1 km/h
1533 05-02-2015 22:05:00 0.1 C 3.46 g/m*3 -3.52 C 11.3 km/h
1534 05-02-2015 22:10:00 0.1 C 3.46 g/m*3 -3.52 C 11.3 km/h
1535 05-02-2015 22:15:00 0.1 C 3.46 g/m*3 -5.25 C 20.9 km/h
1536 05-02-2015 22:20:00 0.1 C 3.46 g/m*3 -3.12 C 9.7 km/h
1537 05-02-2015 22:25:00 0 C 3.44 g/m*3 -2.77 C 8.1 km/h
1538 05-02-2015 22:30:00 0 C 3.49 g/m*3 -3.64 C 11.3 km/h
1539 05-02-2015 22:35:00 -0.1 C 3.46 g/m*3 -3.76 C 11.3 km/h
1540 05-02-2015 22:40:00 -0.1 C 3.46 g/m*3 -4.12 C 12.9 km/h
1541 05-02-2015 22:45:00 -0.1 C 3.46 g/m*3 -4.12 C 12.9 km/h
1542 05-02-2015 22:50:00 -0.1 C 3.51 g/m*3 -3.35 C 9.7 km/h
1543 05-02-2015 22:55:00 -0.1 C 3.51 g/m*3 -0.1 C 4.8 km/h
1544 05-02-2015 23:00:00 -0.2 C 3.49 g/m*3 -0.2 C 4.8 km/h
1545 05-02-2015 23:05:00 -0.2 C 3.49 g/m*3 -4.86 C 16.1 km/h
1546 05-02-2015 23:10:00 -0.2 C 3.54 g/m*3 -3 C 8.1 km/h
1547 05-02-2015 23:15:00 -0.2 C 3.54 g/m*3 -0.2 C 3.2 km/h
1548 05-02-2015 23:20:00 -0.2 C 3.54 g/m*3 -0.2 C 3.2 km/h
1549 05-02-2015 23:25:00 -0.2 C 3.54 g/m*3 -3.47 C 9.7 km/h
1550 05-02-2015 23:30:00 -0.2 C 3.54 g/m*3 -4.57 C 14.5 km/h
Sensor: Nr:Datum:Temp:Abs-Feuchte:Windchill:Wind:
Aussen-T/F 1551 05-02-2015 23:35:00 -0.2 C 3.54 g/m*3 -3.47 C 9.7 km/h
1552 05-02-2015 23:40:00 -0.2 C 3.54 g/m*3 -3.88 C 11.3 km/h
1553 05-02-2015 23:45:00 -0.2 C 3.54 g/m*3 -4.24 C 12.9 km/h
1554 05-02-2015 23:50:00 -0.2 C 3.54 g/m*3 -3.47 C 9.7 km/h
1555 05-02-2015 23:55:00 -0.2 C 3.54 g/m*3 -3 C 8.1 km/h
1556 06-02-2015 00:00:00 -0.2 C 3.54 g/m*3 -2.41 C 6.4 km/h
1557 06-02-2015 00:05:00 -0.2 C 3.54 g/m*3 -3.47 C 9.7 km/h
1558 06-02-2015 00:10:00 -0.1 C 3.56 g/m*3 -2.89 C 8.1 km/h
1559 06-02-2015 00:15:00 -0.1 C 3.56 g/m*3 -2.89 C 8.1 km/h
1560 06-02-2015 00:20:00 -0.1 C 3.56 g/m*3 -4.12 C 12.9 km/h
1561 06-02-2015 00:25:00 -0.1 C 3.56 g/m*3 -4.12 C 12.9 km/h
1562 06-02-2015 00:30:00 0 C 3.59 g/m*3 -3.23 C 9.7 km/h
1563 06-02-2015 00:35:00 0 C 3.59 g/m*3 -4 C 12.9 km/h
1564 06-02-2015 00:40:00 -0.1 C 3.56 g/m*3 -2.3 C 6.4 km/h
1565 06-02-2015 00:45:00 -0.1 C 3.56 g/m*3 -2.89 C 8.1 km/h
1566 06-02-2015 00:50:00 0 C 3.59 g/m*3 -3.23 C 9.7 km/h
1567 06-02-2015 00:55:00 0 C 3.59 g/m*3 -3.23 C 9.7 km/h
1568 06-02-2015 01:00:00 0 C 3.59 g/m*3 -5.8 C 24.1 km/h
1569 06-02-2015 01:05:00 0 C 3.59 g/m*3 -5.37 C 20.9 km/h
1570 06-02-2015 01:10:00 0 C 3.59 g/m*3 -3.64 C 11.3 km/h
1571 06-02-2015 01:15:00 0 C 3.59 g/m*3 -4.62 C 16.1 km/h
1572 06-02-2015 01:20:00 -0.1 C 3.56 g/m*3 -4.12 C 12.9 km/h
1573 06-02-2015 01:25:00 -0.1 C 3.56 g/m*3 -4.44 C 14.5 km/h
1574 06-02-2015 01:30:00 -0.1 C 3.56 g/m*3 -5.26 C 19.3 km/h
1575 06-02-2015 01:35:00 -0.1 C 3.56 g/m*3 -2.89 C 8.1 km/h
Sensor: Nr:Datum:Temp:Abs-Feuchte:Windchill:Wind:
Aussen-T/F 1576 06-02-2015 01:40:00 -0.1 C 3.56 g/m*3 -5.26 C 19.3 km/h
1577 06-02-2015 01:45:00 -0.1 C 3.56 g/m*3 -2.89 C 8.1 km/h
1578 06-02-2015 01:50:00 -0.1 C 3.56 g/m*3 -2.89 C 8.1 km/h
1579 06-02-2015 01:55:00 -0.1 C 3.61 g/m*3 -2.3 C 6.4 km/h
1580 06-02-2015 02:00:00 -0.1 C 3.61 g/m*3 -4.44 C 14.5 km/h
1581 06-02-2015 02:05:00 -0.1 C 3.61 g/m*3 -3.76 C 11.3 km/h
1582 06-02-2015 02:10:00 -0.1 C 3.61 g/m*3 -2.89 C 8.1 km/h
1583 06-02-2015 02:15:00 -0.1 C 3.61 g/m*3 -4.12 C 12.9 km/h
1584 06-02-2015 02:20:00 -0.1 C 3.56 g/m*3 -4.12 C 12.9 km/h
1585 06-02-2015 02:25:00 -0.1 C 3.56 g/m*3 -2.3 C 6.4 km/h
1586 06-02-2015 02:30:00 -0.1 C 3.56 g/m*3 -3.76 C 11.3 km/h
1587 06-02-2015 02:35:00 -0.1 C 3.56 g/m*3 -3.35 C 9.7 km/h
1588 06-02-2015 02:40:00 -0.1 C 3.61 g/m*3 -4.12 C 12.9 km/h
1589 06-02-2015 02:45:00 -0.1 C 3.61 g/m*3 -3.35 C 9.7 km/h
1590 06-02-2015 02:50:00 -0.1 C 3.61 g/m*3 -3.35 C 9.7 km/h
1591 06-02-2015 02:55:00 -0.2 C 3.58 g/m*3 -3 C 8.1 km/h
1592 06-02-2015 03:00:00 -0.2 C 3.54 g/m*3 -4.86 C 16.1 km/h
1593 06-02-2015 03:05:00 -0.3 C 3.51 g/m*3 -0.3 C 4.8 km/h
1594 06-02-2015 03:10:00 -0.4 C 3.49 g/m*3 -0.4 C 4.8 km/h
1595 06-02-2015 03:15:00 -0.4 C 3.44 g/m*3 -6.31 C 24.1 km/h
1596 06-02-2015 03:20:00 -0.5 C 3.46 g/m*3 -0.5 C 3.2 km/h
1597 06-02-2015 03:25:00 -0.5 C 3.46 g/m*3 -5.24 C 16.1 km/h
1598 06-02-2015 03:30:00 -0.6 C 3.39 g/m*3 -4.73 C 12.9 km/h
1599 06-02-2015 03:35:00 -0.7 C 3.42 g/m*3 -0.7 C 4.8 km/h
1600 06-02-2015 03:40:00 -0.7 C 3.42 g/m*3 -0.7 C 4.8 km/h
Sensor: Nr:Datum:Temp:Abs-Feuchte:Windchill:Wind:
Aussen-T/F 1601 06-02-2015 03:45:00 -0.8 C 3.44 g/m*3 -3.71 C 8.1 km/h
1602 06-02-2015 03:50:00 -0.8 C 3.44 g/m*3 -4.97 C 12.9 km/h
1603 06-02-2015 03:55:00 -0.7 C 3.46 g/m*3 -4.07 C 9.7 km/h
1604 06-02-2015 04:00:00 -0.7 C 3.46 g/m*3 -0.7 C 4.8 km/h
1605 06-02-2015 04:05:00 -0.8 C 3.44 g/m*3 -3.11 C 6.4 km/h
1606 06-02-2015 04:10:00 -0.7 C 3.46 g/m*3 -0.7 C 1.6 km/h
1607 06-02-2015 04:15:00 -0.7 C 3.46 g/m*3 -0.7 C 3.2 km/h
1608 06-02-2015 04:20:00 -0.7 C 3.42 g/m*3 -4.48 C 11.3 km/h
1609 06-02-2015 04:25:00 -0.6 C 3.44 g/m*3 -5.06 C 14.5 km/h
1610 06-02-2015 04:30:00 -0.5 C 3.46 g/m*3 -4.94 C 14.5 km/h
1611 06-02-2015 04:35:00 -0.4 C 3.49 g/m*3 -3.71 C 9.7 km/h
1612 06-02-2015 04:40:00 -0.4 C 3.49 g/m*3 -3.71 C 9.7 km/h
1613 06-02-2015 04:45:00 -0.4 C 3.49 g/m*3 -2.64 C 6.4 km/h
1614 06-02-2015 04:50:00 -0.4 C 3.49 g/m*3 -4.49 C 12.9 km/h
1615 06-02-2015 04:55:00 -0.4 C 3.49 g/m*3 -0.4 C 4.8 km/h
1616 06-02-2015 05:00:00 -0.4 C 3.49 g/m*3 -4.49 C 12.9 km/h
1617 06-02-2015 05:05:00 -0.4 C 3.49 g/m*3 -3.24 C 8.1 km/h
1618 06-02-2015 05:10:00 -0.3 C 3.51 g/m*3 -4.36 C 12.9 km/h
1619 06-02-2015 05:15:00 -0.3 C 3.51 g/m*3 -3.59 C 9.7 km/h
1620 06-02-2015 05:20:00 -0.4 C 3.49 g/m*3 -4.12 C 11.3 km/h
1621 06-02-2015 05:25:00 -0.4 C 3.49 g/m*3 -2.64 C 6.4 km/h
1622 06-02-2015 05:30:00 -0.4 C 3.49 g/m*3 -0.4 C 3.2 km/h
1623 06-02-2015 05:35:00 -0.4 C 3.49 g/m*3 -3.71 C 9.7 km/h
1624 06-02-2015 05:40:00 -0.4 C 3.49 g/m*3 -2.64 C 6.4 km/h
1625 06-02-2015 05:45:00 -0.5 C 3.46 g/m*3 -5.51 C 17.7 km/h
Sensor: Nr:Datum:Temp:Abs-Feuchte:Windchill:Wind:
Aussen-T/F 1626 06-02-2015 05:50:00 -0.5 C 3.51 g/m*3 -0.5 C 4.8 km/h
1627 06-02-2015 05:55:00 -0.5 C 3.51 g/m*3 -4.61 C 12.9 km/h
1628 06-02-2015 06:00:00 -0.5 C 3.46 g/m*3 -3.83 C 9.7 km/h
1629 06-02-2015 06:05:00 -0.5 C 3.46 g/m*3 -4.24 C 11.3 km/h
1630 06-02-2015 06:10:00 -0.5 C 3.46 g/m*3 -3.36 C 8.1 km/h
1631 06-02-2015 06:15:00 -0.6 C 3.44 g/m*3 -3.95 C 9.7 km/h
1632 06-02-2015 06:20:00 -0.6 C 3.44 g/m*3 -3.95 C 9.7 km/h
1633 06-02-2015 06:25:00 -0.7 C 3.42 g/m*3 -5.76 C 17.7 km/h
1634 06-02-2015 06:30:00 -0.7 C 3.46 g/m*3 -3.59 C 8.1 km/h
1635 06-02-2015 06:35:00 -0.7 C 3.46 g/m*3 -0.7 C 3.2 km/h
1636 06-02-2015 06:40:00 -0.7 C 3.46 g/m*3 -3.59 C 8.1 km/h
1637 06-02-2015 06:45:00 -0.7 C 3.46 g/m*3 -3.59 C 8.1 km/h
1638 06-02-2015 06:50:00 -0.7 C 3.46 g/m*3 -4.85 C 12.9 km/h
1639 06-02-2015 06:55:00 -0.7 C 3.46 g/m*3 -2.99 C 6.4 km/h
1640 06-02-2015 07:00:00 -0.7 C 3.46 g/m*3 -0.7 C 4.8 km/h
1641 06-02-2015 07:05:00 -0.7 C 3.46 g/m*3 -4.48 C 11.3 km/h
1642 06-02-2015 07:10:00 -0.7 C 3.42 g/m*3 -3.59 C 8.1 km/h
1643 06-02-2015 07:15:00 -0.7 C 3.46 g/m*3 -4.48 C 11.3 km/h
1644 06-02-2015 07:20:00 -0.6 C 3.44 g/m*3 -4.73 C 12.9 km/h
1645 06-02-2015 07:25:00 -0.6 C 3.44 g/m*3 -2.88 C 6.4 km/h
1646 06-02-2015 07:30:00 -0.6 C 3.44 g/m*3 -3.95 C 9.7 km/h
1647 06-02-2015 07:35:00 -0.6 C 3.44 g/m*3 -3.95 C 9.7 km/h
1648 06-02-2015 07:40:00 -0.6 C 3.49 g/m*3 -3.48 C 8.1 km/h
1649 06-02-2015 07:45:00 -0.7 C 3.46 g/m*3 -4.48 C 11.3 km/h
1650 06-02-2015 07:50:00 -0.6 C 3.49 g/m*3 -3.95 C 9.7 km/h
Sensor: Nr:Datum:Temp:Abs-Feuchte:Windchill:Wind:
Aussen-T/F 1651 06-02-2015 07:55:00 -0.6 C 3.49 g/m*3 -4.36 C 11.3 km/h
1652 06-02-2015 08:00:00 -0.5 C 3.51 g/m*3 -3.83 C 9.7 km/h
1653 06-02-2015 08:05:00 -0.4 C 3.49 g/m*3 -5.11 C 16.1 km/h
1654 06-02-2015 08:10:00 -0.3 C 3.51 g/m*3 -3.12 C 8.1 km/h
1655 06-02-2015 08:15:00 -0.3 C 3.51 g/m*3 -3.59 C 9.7 km/h
1656 06-02-2015 08:20:00 -0.3 C 3.51 g/m*3 -4 C 11.3 km/h
1657 06-02-2015 08:25:00 -0.3 C 3.51 g/m*3 -4.69 C 14.5 km/h
1658 06-02-2015 08:30:00 -0.2 C 3.49 g/m*3 -5.14 C 17.7 km/h
1659 06-02-2015 08:35:00 -0.2 C 3.49 g/m*3 -4.24 C 12.9 km/h
1660 06-02-2015 08:40:00 -0.2 C 3.49 g/m*3 -5.39 C 19.3 km/h
1661 06-02-2015 08:45:00 -0.2 C 3.49 g/m*3 -3 C 8.1 km/h
1662 06-02-2015 08:50:00 -0.1 C 3.51 g/m*3 -2.89 C 8.1 km/h
1663 06-02-2015 08:55:00 -0.1 C 3.51 g/m*3 -4.12 C 12.9 km/h
1664 06-02-2015 09:00:00 -0.1 C 3.51 g/m*3 -3.76 C 11.3 km/h
1665 06-02-2015 09:05:00 -0.1 C 3.51 g/m*3 -4.12 C 12.9 km/h
1666 06-02-2015 09:10:00 0 C 3.54 g/m*3 -3.64 C 11.3 km/h
1667 06-02-2015 09:15:00 0 C 3.54 g/m*3 -2.18 C 6.4 km/h
1668 06-02-2015 09:20:00 0.1 C 3.56 g/m*3 -3.52 C 11.3 km/h
1669 06-02-2015 09:25:00 0.1 C 3.56 g/m*3 -3.52 C 11.3 km/h
1670 06-02-2015 09:30:00 0.1 C 3.51 g/m*3 -3.88 C 12.9 km/h
1671 06-02-2015 09:35:00 0.1 C 3.51 g/m*3 -4.2 C 14.5 km/h
1672 06-02-2015 09:40:00 0.1 C 3.51 g/m*3 -4.76 C 17.7 km/h
1673 06-02-2015 09:45:00 0.1 C 3.51 g/m*3 -4.49 C 16.1 km/h
1674 06-02-2015 09:50:00 0.2 C 3.54 g/m*3 -3 C 9.7 km/h
1675 06-02-2015 09:55:00 0.2 C 3.54 g/m*3 -3.75 C 12.9 km/h
Sensor: Nr:Datum:Temp:Abs-Feuchte:Windchill:Wind:
Aussen-T/F 1676 06-02-2015 10:00:00 0.2 C 3.54 g/m*3 -3.75 C 12.9 km/h
1677 06-02-2015 10:05:00 0.2 C 3.54 g/m*3 -4.64 C 17.7 km/h
1678 06-02-2015 10:10:00 0.2 C 3.49 g/m*3 -4.37 C 16.1 km/h
1679 06-02-2015 10:15:00 0.2 C 3.49 g/m*3 -5.12 C 20.9 km/h
1680 06-02-2015 10:20:00 0.3 C 3.51 g/m*3 -4.24 C 16.1 km/h
1681 06-02-2015 10:25:00 0.3 C 3.51 g/m*3 -4.24 C 16.1 km/h
1682 06-02-2015 10:30:00 0.4 C 3.54 g/m*3 -5.67 C 27.4 km/h
1683 06-02-2015 10:35:00 0.4 C 3.49 g/m*3 -3.16 C 11.3 km/h
1684 06-02-2015 10:40:00 0.3 C 3.51 g/m*3 -3.28 C 11.3 km/h
1685 06-02-2015 10:45:00 0.3 C 3.51 g/m*3 -2.88 C 9.7 km/h
1686 06-02-2015 10:50:00 0.3 C 3.51 g/m*3 -3.28 C 11.3 km/h
1687 06-02-2015 10:55:00 0.3 C 3.51 g/m*3 -2.42 C 8.1 km/h
1688 06-02-2015 11:00:00 0.3 C 3.51 g/m*3 -4.24 C 16.1 km/h
1689 06-02-2015 11:05:00 0.4 C 3.54 g/m*3 -3.83 C 14.5 km/h
1690 06-02-2015 11:10:00 0.4 C 3.54 g/m*3 -4.39 C 17.7 km/h
1691 06-02-2015 11:15:00 0.4 C 3.49 g/m*3 -4.87 C 20.9 km/h
1692 06-02-2015 11:20:00 0.5 C 3.51 g/m*3 -3.39 C 12.9 km/h
1693 06-02-2015 11:25:00 0.6 C 3.53 g/m*3 -2.06 C 8.1 km/h
1694 06-02-2015 11:30:00 0.7 C 3.56 g/m*3 -3.46 C 14.5 km/h
1695 06-02-2015 11:35:00 0.7 C 3.56 g/m*3 -4.01 C 17.7 km/h
1696 06-02-2015 11:40:00 0.8 C 3.53 g/m*3 -4.13 C 19.3 km/h
1697 06-02-2015 11:45:00 0.8 C 3.53 g/m*3 -3.89 C 17.7 km/h
1698 06-02-2015 11:50:00 0.9 C 3.56 g/m*3 -3.21 C 14.5 km/h
1699 06-02-2015 11:55:00 0.9 C 3.51 g/m*3 -3.21 C 14.5 km/h
1700 06-02-2015 12:00:00 1 C 3.58 g/m*3 -2.43 C 11.3 km/h
Sensor: Nr:Datum:Temp:Abs-Feuchte:Windchill:Wind:
Aussen-T/F 1701 06-02-2015 12:05:00 1.1 C 3.55 g/m*3 -3.98 C 20.9 km/h
1702 06-02-2015 12:10:00 1.2 C 3.58 g/m*3 -2.54 C 12.9 km/h
1703 06-02-2015 12:15:00 1.3 C 3.55 g/m*3 -2.41 C 12.9 km/h
1704 06-02-2015 12:20:00 1.3 C 3.55 g/m*3 -2.72 C 14.5 km/h
1705 06-02-2015 12:25:00 1.4 C 3.52 g/m*3 -1.57 C 9.7 km/h
1706 06-02-2015 12:30:00 1.5 C 3.54 g/m*3 -2.17 C 12.9 km/h
1707 06-02-2015 12:35:00 1.7 C 3.54 g/m*3 -2.23 C 14.5 km/h
1708 06-02-2015 12:40:00 1.8 C 3.51 g/m*3 -2.64 C 17.7 km/h
1709 06-02-2015 12:45:00 1.9 C 3.48 g/m*3 -3.36 C 24.1 km/h
1710 06-02-2015 12:50:00 1.9 C 3.53 g/m*3 -0.97 C 9.7 km/h
1711 06-02-2015 12:55:00 2 C 3.56 g/m*3 -0.85 C 9.7 km/h
1712 06-02-2015 13:00:00 2.1 C 3.52 g/m*3 -0.73 C 9.7 km/h
1713 06-02-2015 13:05:00 2.2 C 3.49 g/m*3 -2.59 C 20.9 km/h
1714 06-02-2015 13:10:00 2.2 C 3.55 g/m*3 -2.59 C 20.9 km/h
1715 06-02-2015 13:15:00 2.3 C 3.52 g/m*3 -2.24 C 19.3 km/h
1716 06-02-2015 13:20:00 2.4 C 3.54 g/m*3 -2.33 C 20.9 km/h
1717 06-02-2015 13:25:00 2.4 C 3.54 g/m*3 -1.64 C 16.1 km/h
1718 06-02-2015 13:30:00 2.6 C 3.59 g/m*3 -1.87 C 19.3 km/h
1719 06-02-2015 13:35:00 2.6 C 3.53 g/m*3 -0.83 C 12.9 km/h
1720 06-02-2015 13:40:00 2.7 C 3.61 g/m*3 -1 C 14.5 km/h
1721 06-02-2015 13:45:00 2.8 C 3.58 g/m*3 -1.61 C 19.3 km/h
1722 06-02-2015 13:50:00 2.9 C 3.54 g/m*3 -1.49 C 19.3 km/h
1723 06-02-2015 13:55:00 3 C 3.57 g/m*3 -1.57 C 20.9 km/h
1724 06-02-2015 14:00:00 3.1 C 3.59 g/m*3 0.46 C 9.7 km/h
1725 06-02-2015 14:05:00 3.2 C 3.56 g/m*3 -0.89 C 17.7 km/h
Sensor: Nr:Datum:Temp:Abs-Feuchte:Windchill:Wind:
Aussen-T/F 1726 06-02-2015 14:10:00 3.3 C 3.52 g/m*3 -2.22 C 30.6 km/h
1727 06-02-2015 14:15:00 3.3 C 3.52 g/m*3 -2.22 C 30.6 km/h
1728 06-02-2015 14:20:00 3.4 C 3.54 g/m*3 -0.64 C 17.7 km/h
1729 06-02-2015 14:25:00 3.4 C 3.54 g/m*3 -0.86 C 19.3 km/h
1730 06-02-2015 14:30:00 3.4 C 3.6 g/m*3 -0.64 C 17.7 km/h
1731 06-02-2015 14:35:00 3.4 C 3.48 g/m*3 -0.86 C 19.3 km/h
1732 06-02-2015 14:40:00 3.3 C 3.58 g/m*3 0.34 C 11.3 km/h
1733 06-02-2015 14:45:00 3.4 C 3.54 g/m*3 -0.86 C 19.3 km/h
1734 06-02-2015 14:50:00 3.4 C 3.54 g/m*3 1.23 C 8.1 km/h
1735 06-02-2015 14:55:00 3.6 C 3.59 g/m*3 1.46 C 8.1 km/h
1736 06-02-2015 15:00:00 3.6 C 3.53 g/m*3 -0.15 C 16.1 km/h
1737 06-02-2015 15:05:00 3.8 C 3.51 g/m*3 2.21 C 6.4 km/h
1738 06-02-2015 15:10:00 3.9 C 3.47 g/m*3 2.32 C 6.4 km/h
1739 06-02-2015 15:15:00 4 C 3.43 g/m*3 4 C 4.8 km/h
1740 06-02-2015 15:20:00 4 C 3.43 g/m*3 2.44 C 6.4 km/h
1741 06-02-2015 15:25:00 3.9 C 3.47 g/m*3 1.82 C 8.1 km/h
1742 06-02-2015 15:30:00 3.9 C 3.35 g/m*3 0.75 C 12.9 km/h
1743 06-02-2015 15:35:00 3.9 C 3.35 g/m*3 1.06 C 11.3 km/h
1744 06-02-2015 15:40:00 3.8 C 3.32 g/m*3 1.7 C 8.1 km/h
1745 06-02-2015 15:45:00 3.6 C 3.34 g/m*3 0.7 C 11.3 km/h
1746 06-02-2015 15:50:00 3.4 C 3.36 g/m*3 1.23 C 8.1 km/h
1747 06-02-2015 15:55:00 3.3 C 3.4 g/m*3 1.11 C 8.1 km/h
1748 06-02-2015 16:00:00 3.2 C 3.25 g/m*3 1.51 C 6.4 km/h
1749 06-02-2015 16:05:00 3.2 C 3.37 g/m*3 0.58 C 9.7 km/h
1750 06-02-2015 16:10:00 3.2 C 3.31 g/m*3 1.51 C 6.4 km/h
Sensor: Nr:Datum:Temp:Abs-Feuchte:Windchill:Wind:
Aussen-T/F 1751 06-02-2015 16:15:00 3.1 C 3.47 g/m*3 1.4 C 6.4 km/h
1752 06-02-2015 16:20:00 3 C 3.33 g/m*3 -0.34 C 12.9 km/h
1753 06-02-2015 16:25:00 2.9 C 3.31 g/m*3 -0.46 C 12.9 km/h
1754 06-02-2015 16:30:00 2.9 C 3.43 g/m*3 1.17 C 6.4 km/h
1755 06-02-2015 16:35:00 2.8 C 3.23 g/m*3 -0.88 C 14.5 km/h
1756 06-02-2015 16:40:00 2.8 C 3.28 g/m*3 0.52 C 8.1 km/h
1757 06-02-2015 16:45:00 2.8 C 3.23 g/m*3 -1.61 C 19.3 km/h
1758 06-02-2015 16:50:00 2.8 C 3.17 g/m*3 -2.02 C 22.5 km/h
1759 06-02-2015 16:55:00 2.7 C 3.15 g/m*3 -1.95 C 20.9 km/h
1760 06-02-2015 17:00:00 2.6 C 3.18 g/m*3 -0.83 C 12.9 km/h
1761 06-02-2015 17:05:00 2.5 C 3.22 g/m*3 -0.95 C 12.9 km/h
1762 06-02-2015 17:10:00 2.4 C 3.31 g/m*3 0.05 C 8.1 km/h
1763 06-02-2015 17:15:00 2.1 C 3.19 g/m*3 -0.3 C 8.1 km/h
1764 06-02-2015 17:20:00 2 C 3.22 g/m*3 -0.85 C 9.7 km/h
1765 06-02-2015 17:25:00 1.7 C 3.38 g/m*3 1.7 C 4.8 km/h
1766 06-02-2015 17:30:00 1.3 C 3.39 g/m*3 1.3 C 3.2 km/h
1767 06-02-2015 17:35:00 0.9 C 3.4 g/m*3 0.9 C 4.8 km/h
1768 06-02-2015 17:40:00 0.6 C 3.43 g/m*3 0.6 C 4.8 km/h
1769 06-02-2015 17:45:00 0.4 C 3.39 g/m*3 -1.72 C 6.4 km/h
1770 06-02-2015 17:50:00 0.3 C 3.41 g/m*3 0.3 C 4.8 km/h
1771 06-02-2015 17:55:00 0.2 C 3.39 g/m*3 -2.53 C 8.1 km/h
1772 06-02-2015 18:00:00 0.3 C 3.31 g/m*3 0.3 C 4.8 km/h
1773 06-02-2015 18:05:00 0.3 C 3.41 g/m*3 0.3 C 3.2 km/h
1774 06-02-2015 18:10:00 0.2 C 3.44 g/m*3 0.2 C 3.2 km/h
1775 06-02-2015 18:15:00 -0.1 C 3.37 g/m*3 -0.1 C 3.2 km/h
Sensor: Nr:Datum:Temp:Abs-Feuchte:Windchill:Wind:
Aussen-T/F 1776 06-02-2015 18:20:00 -0.1 C 3.37 g/m*3 -0.1 C 3.2 km/h
1777 06-02-2015 18:25:00 0.1 C 3.32 g/m*3 -2.65 C 8.1 km/h
1778 06-02-2015 18:30:00 0.3 C 3.36 g/m*3 0.3 C 3.2 km/h
1779 06-02-2015 18:35:00 0.4 C 3.34 g/m*3 -3.16 C 11.3 km/h
1780 06-02-2015 18:40:00 0.4 C 3.34 g/m*3 0.4 C 3.2 km/h
1781 06-02-2015 18:45:00 0.3 C 3.26 g/m*3 -3.28 C 11.3 km/h
1782 06-02-2015 18:50:00 0.3 C 3.36 g/m*3 0.3 C 3.2 km/h
1783 06-02-2015 18:55:00 0.1 C 3.37 g/m*3 0.1 C 3.2 km/h
1784 06-02-2015 19:00:00 -0.1 C 3.32 g/m*3 -2.3 C 6.4 km/h
1785 06-02-2015 19:05:00 0 C 3.34 g/m*3 0 C 3.2 km/h
1786 06-02-2015 19:10:00 -0.1 C 3.37 g/m*3 -0.1 C 3.2 km/h
1787 06-02-2015 19:15:00 -0.2 C 3.39 g/m*3 -0.2 C 3.2 km/h
1788 06-02-2015 19:20:00 -0.3 C 3.42 g/m*3 -0.3 C 1.6 km/h
1789 06-02-2015 19:25:00 -0.4 C 3.39 g/m*3 -0.4 C 0 km/h
1790 06-02-2015 19:30:00 -0.5 C 3.37 g/m*3 -0.5 C 0 km/h
1791 06-02-2015 19:35:00 -0.4 C 3.39 g/m*3 -0.4 C 3.2 km/h
1792 06-02-2015 19:40:00 -0.4 C 3.44 g/m*3 -0.4 C 3.2 km/h
1793 06-02-2015 19:45:00 -0.6 C 3.44 g/m*3 -0.6 C 3.2 km/h
1794 06-02-2015 19:50:00 -0.6 C 3.39 g/m*3 -0.6 C 3.2 km/h
1795 06-02-2015 19:55:00 -0.6 C 3.44 g/m*3 -0.6 C 3.2 km/h
1796 06-02-2015 20:00:00 -0.6 C 3.44 g/m*3 -0.6 C 3.2 km/h
1797 06-02-2015 20:05:00 -0.6 C 3.49 g/m*3 -0.6 C 3.2 km/h
1798 06-02-2015 20:10:00 -0.7 C 3.46 g/m*3 -0.7 C 3.2 km/h
1799 06-02-2015 20:15:00 -0.7 C 3.46 g/m*3 -0.7 C 3.2 km/h
1800 06-02-2015 20:20:00 -0.6 C 3.39 g/m*3 -2.88 C 6.4 km/h
Sensor: Nr:Datum:Temp:Abs-Feuchte:Windchill:Wind:
Aussen-T/F 1801 06-02-2015 20:25:00 -0.4 C 3.44 g/m*3 -0.4 C 3.2 km/h
1802 06-02-2015 20:30:00 -0.4 C 3.35 g/m*3 -3.24 C 8.1 km/h
1803 06-02-2015 20:35:00 -0.3 C 3.37 g/m*3 -0.3 C 3.2 km/h
1804 06-02-2015 20:40:00 -0.3 C 3.42 g/m*3 -0.3 C 3.2 km/h
1805 06-02-2015 20:45:00 -0.3 C 3.42 g/m*3 -0.3 C 3.2 km/h
1806 06-02-2015 20:50:00 -0.3 C 3.37 g/m*3 -0.3 C 3.2 km/h
1807 06-02-2015 20:55:00 -0.3 C 3.42 g/m*3 -0.3 C 4.8 km/h
1808 06-02-2015 21:00:00 -0.4 C 3.39 g/m*3 -3.24 C 8.1 km/h
1809 06-02-2015 21:05:00 -0.3 C 3.42 g/m*3 -0.3 C 4.8 km/h
1810 06-02-2015 21:10:00 -0.3 C 3.42 g/m*3 -0.3 C 3.2 km/h
1811 06-02-2015 21:15:00 -0.4 C 3.39 g/m*3 -0.4 C 4.8 km/h
1812 06-02-2015 21:20:00 -0.4 C 3.39 g/m*3 -0.4 C 4.8 km/h
1813 06-02-2015 21:25:00 -0.4 C 3.44 g/m*3 -0.4 C 3.2 km/h
1814 06-02-2015 21:30:00 -0.4 C 3.44 g/m*3 -0.4 C 3.2 km/h
1815 06-02-2015 21:35:00 -0.5 C 3.42 g/m*3 -0.5 C 1.6 km/h
1816 06-02-2015 21:40:00 -0.6 C 3.39 g/m*3 -3.48 C 8.1 km/h
1817 06-02-2015 21:45:00 -0.6 C 3.39 g/m*3 -3.48 C 8.1 km/h
1818 06-02-2015 21:50:00 -0.6 C 3.39 g/m*3 -0.6 C 4.8 km/h
1819 06-02-2015 21:55:00 -0.7 C 3.42 g/m*3 -0.7 C 1.6 km/h
1820 06-02-2015 22:00:00 -0.8 C 3.39 g/m*3 -0.8 C 3.2 km/h
1821 06-02-2015 22:05:00 -0.8 C 3.44 g/m*3 -0.8 C 3.2 km/h
1822 06-02-2015 22:10:00 -0.9 C 3.41 g/m*3 -0.9 C 3.2 km/h
1823 06-02-2015 22:15:00 -0.9 C 3.41 g/m*3 -0.9 C 3.2 km/h
1824 06-02-2015 22:20:00 -0.9 C 3.41 g/m*3 -3.83 C 8.1 km/h
1825 06-02-2015 22:25:00 -0.9 C 3.41 g/m*3 -3.22 C 6.4 km/h
Sensor: Nr:Datum:Temp:Abs-Feuchte:Windchill:Wind:
Aussen-T/F 1826 06-02-2015 22:30:00 -0.9 C 3.41 g/m*3 -0.9 C 4.8 km/h
1827 06-02-2015 22:35:00 -0.9 C 3.41 g/m*3 -3.83 C 8.1 km/h
1828 06-02-2015 22:40:00 -0.9 C 3.41 g/m*3 -4.31 C 9.7 km/h
1829 06-02-2015 22:45:00 -0.9 C 3.41 g/m*3 -3.83 C 8.1 km/h
1830 06-02-2015 22:50:00 -0.9 C 3.37 g/m*3 -4.31 C 9.7 km/h
1831 06-02-2015 22:55:00 -0.9 C 3.37 g/m*3 -0.9 C 4.8 km/h
1832 06-02-2015 23:00:00 -0.9 C 3.37 g/m*3 -3.83 C 8.1 km/h
1833 06-02-2015 23:05:00 -1 C 3.35 g/m*3 -1 C 4.8 km/h
1834 06-02-2015 23:10:00 -1 C 3.35 g/m*3 -5.22 C 12.9 km/h
1835 06-02-2015 23:15:00 -1.1 C 3.32 g/m*3 -4.06 C 8.1 km/h
1836 06-02-2015 23:20:00 -1.1 C 3.28 g/m*3 -3.45 C 6.4 km/h
1837 06-02-2015 23:25:00 -1 C 3.3 g/m*3 -3.95 C 8.1 km/h
1838 06-02-2015 23:30:00 -1.1 C 3.28 g/m*3 -4.06 C 8.1 km/h
1839 06-02-2015 23:35:00 -1.1 C 3.28 g/m*3 -3.45 C 6.4 km/h
1840 06-02-2015 23:40:00 -1.1 C 3.28 g/m*3 -4.97 C 11.3 km/h
1841 06-02-2015 23:45:00 -1.2 C 3.3 g/m*3 -3.57 C 6.4 km/h
1842 06-02-2015 23:50:00 -1.2 C 3.3 g/m*3 -5.09 C 11.3 km/h
1843 06-02-2015 23:55:00 -1.3 C 3.28 g/m*3 -1.3 C 3.2 km/h
1844 07-02-2015 00:00:00 -1.3 C 3.28 g/m*3 -1.3 C 4.8 km/h
1845 07-02-2015 00:05:00 -1.3 C 3.28 g/m*3 -3.68 C 6.4 km/h
1846 07-02-2015 00:10:00 -1.4 C 3.25 g/m*3 -4.42 C 8.1 km/h
1847 07-02-2015 00:15:00 -1.3 C 3.28 g/m*3 -4.78 C 9.7 km/h
1848 07-02-2015 00:20:00 -1.3 C 3.28 g/m*3 -4.78 C 9.7 km/h
1849 07-02-2015 00:25:00 -1.3 C 3.23 g/m*3 -4.78 C 9.7 km/h
1850 07-02-2015 00:30:00 -1.3 C 3.28 g/m*3 -5.21 C 11.3 km/h
Sensor: Nr:Datum:Temp:Abs-Feuchte:Windchill:Wind:
Aussen-T/F 1851 07-02-2015 00:35:00 -1.3 C 3.28 g/m*3 -5.58 C 12.9 km/h
1852 07-02-2015 00:40:00 -1.3 C 3.28 g/m*3 -6.23 C 16.1 km/h
1853 07-02-2015 00:45:00 -1.3 C 3.23 g/m*3 -5.58 C 12.9 km/h
1854 07-02-2015 00:50:00 -1.3 C 3.23 g/m*3 -5.21 C 11.3 km/h
1855 07-02-2015 00:55:00 -1.4 C 3.21 g/m*3 -4.42 C 8.1 km/h
1856 07-02-2015 01:00:00 -1.4 C 3.21 g/m*3 -5.33 C 11.3 km/h
1857 07-02-2015 01:05:00 -1.4 C 3.25 g/m*3 -4.9 C 9.7 km/h
1858 07-02-2015 01:10:00 -1.5 C 3.23 g/m*3 -1.5 C 4.8 km/h
1859 07-02-2015 01:15:00 -1.6 C 3.21 g/m*3 -1.6 C 4.8 km/h
1860 07-02-2015 01:20:00 -1.7 C 3.19 g/m*3 -1.7 C 1.6 km/h
1861 07-02-2015 01:25:00 -1.7 C 3.23 g/m*3 -4.15 C 6.4 km/h
1862 07-02-2015 01:30:00 -1.8 C 3.21 g/m*3 -4.26 C 6.4 km/h
1863 07-02-2015 01:35:00 -1.8 C 3.21 g/m*3 -1.8 C 3.2 km/h
1864 07-02-2015 01:40:00 -1.9 C 3.18 g/m*3 -5.5 C 9.7 km/h
1865 07-02-2015 01:45:00 -1.9 C 3.23 g/m*3 -1.9 C 1.6 km/h
1866 07-02-2015 01:50:00 -1.9 C 3.18 g/m*3 -1.9 C 3.2 km/h
1867 07-02-2015 01:55:00 -2 C 3.2 g/m*3 -2 C 1.6 km/h
1868 07-02-2015 02:00:00 -2.2 C 3.2 g/m*3 -2.2 C 1.6 km/h
1869 07-02-2015 02:05:00 -2.5 C 3.17 g/m*3 -2.5 C 3.2 km/h
1870 07-02-2015 02:10:00 -2.7 C 3.17 g/m*3 -2.7 C 4.8 km/h
1871 07-02-2015 02:15:00 -2.9 C 3.2 g/m*3 -2.9 C 3.2 km/h
1872 07-02-2015 02:20:00 -3 C 3.18 g/m*3 -3 C 3.2 km/h
1873 07-02-2015 02:25:00 -3.1 C 3.16 g/m*3 -3.1 C 4.8 km/h
1874 07-02-2015 02:30:00 -3.2 C 3.18 g/m*3 -3.2 C 4.8 km/h
1875 07-02-2015 02:35:00 -3.2 C 3.18 g/m*3 -3.2 C 4.8 km/h
Sensor: Nr:Datum:Temp:Abs-Feuchte:Windchill:Wind:
Aussen-T/F 1876 07-02-2015 02:40:00 -3.3 C 3.15 g/m*3 -3.3 C 4.8 km/h
1877 07-02-2015 02:45:00 -3.3 C 3.15 g/m*3 -3.3 C 4.8 km/h
1878 07-02-2015 02:50:00 -3.3 C 3.15 g/m*3 -3.3 C 4.8 km/h
1879 07-02-2015 02:55:00 -3.4 C 3.21 g/m*3 -3.4 C 4.8 km/h
1880 07-02-2015 03:00:00 -3.4 C 3.17 g/m*3 -3.4 C 4.8 km/h
1881 07-02-2015 03:05:00 -3.4 C 3.17 g/m*3 -3.4 C 3.2 km/h
1882 07-02-2015 03:10:00 -3.4 C 3.17 g/m*3 -3.4 C 4.8 km/h
1883 07-02-2015 03:15:00 -3.4 C 3.21 g/m*3 -3.4 C 3.2 km/h
1884 07-02-2015 03:20:00 -3.4 C 3.21 g/m*3 -6.11 C 6.4 km/h
1885 07-02-2015 03:25:00 -3.5 C 3.15 g/m*3 -3.5 C 4.8 km/h
1886 07-02-2015 03:30:00 -3.5 C 3.15 g/m*3 -3.5 C 4.8 km/h
1887 07-02-2015 03:35:00 -3.5 C 3.15 g/m*3 -3.5 C 4.8 km/h
1888 07-02-2015 03:40:00 -3.5 C 3.18 g/m*3 -3.5 C 4.8 km/h
1889 07-02-2015 03:45:00 -3.5 C 3.15 g/m*3 -6.22 C 6.4 km/h
1890 07-02-2015 03:50:00 -3.4 C 3.17 g/m*3 -3.4 C 4.8 km/h
1891 07-02-2015 03:55:00 -3.3 C 3.19 g/m*3 -3.3 C 4.8 km/h
1892 07-02-2015 04:00:00 -3.3 C 3.19 g/m*3 -3.3 C 4.8 km/h
1893 07-02-2015 04:05:00 -3.3 C 3.15 g/m*3 -3.3 C 3.2 km/h
1894 07-02-2015 04:10:00 -3.4 C 3.13 g/m*3 -3.4 C 4.8 km/h
1895 07-02-2015 04:15:00 -3.6 C 3.09 g/m*3 -3.6 C 3.2 km/h
1896 07-02-2015 04:20:00 -3.6 C 3.12 g/m*3 -3.6 C 3.2 km/h
1897 07-02-2015 04:25:00 -3.7 C 3.1 g/m*3 -3.7 C 4.8 km/h
1898 07-02-2015 04:30:00 -3.7 C 3.1 g/m*3 -3.7 C 3.2 km/h
1899 07-02-2015 04:35:00 -3.8 C 3.08 g/m*3 -3.8 C 4.8 km/h
1900 07-02-2015 04:40:00 -3.8 C 3.04 g/m*3 -3.8 C 4.8 km/h
Sensor: Nr:Datum:Temp:Abs-Feuchte:Windchill:Wind:
Aussen-T/F 1901 07-02-2015 04:45:00 -3.8 C 3.08 g/m*3 -3.8 C 4.8 km/h
1902 07-02-2015 04:50:00 -3.9 C 3.06 g/m*3 -3.9 C 4.8 km/h
1903 07-02-2015 04:55:00 -3.9 C 3.09 g/m*3 -3.9 C 4.8 km/h
1904 07-02-2015 05:00:00 -3.8 C 3.12 g/m*3 -3.8 C 3.2 km/h
1905 07-02-2015 05:05:00 -3.8 C 3.08 g/m*3 -3.8 C 4.8 km/h
1906 07-02-2015 05:10:00 -3.8 C 3.12 g/m*3 -3.8 C 3.2 km/h
1907 07-02-2015 05:15:00 -3.8 C 3.15 g/m*3 -3.8 C 3.2 km/h
1908 07-02-2015 05:20:00 -3.8 C 3.15 g/m*3 -3.8 C 4.8 km/h
1909 07-02-2015 05:25:00 -3.8 C 3.12 g/m*3 -3.8 C 4.8 km/h
1910 07-02-2015 05:30:00 -3.9 C 3.09 g/m*3 -3.9 C 4.8 km/h
1911 07-02-2015 05:35:00 -3.9 C 3.06 g/m*3 -6.69 C 6.4 km/h
1912 07-02-2015 05:40:00 -3.8 C 3.08 g/m*3 -6.57 C 6.4 km/h
1913 07-02-2015 05:45:00 -3.8 C 3.08 g/m*3 -3.8 C 4.8 km/h
1914 07-02-2015 05:50:00 -3.8 C 3.08 g/m*3 -6.57 C 6.4 km/h
1915 07-02-2015 05:55:00 -3.8 C 3.04 g/m*3 -6.57 C 6.4 km/h
1916 07-02-2015 06:00:00 -3.8 C 3.04 g/m*3 -6.57 C 6.4 km/h
1917 07-02-2015 06:05:00 -3.8 C 3.04 g/m*3 -6.57 C 6.4 km/h
1918 07-02-2015 06:10:00 -3.8 C 3.04 g/m*3 -3.8 C 4.8 km/h
1919 07-02-2015 06:15:00 -3.8 C 3.08 g/m*3 -3.8 C 4.8 km/h
1920 07-02-2015 06:20:00 -3.8 C 3.08 g/m*3 -3.8 C 4.8 km/h
1921 07-02-2015 06:25:00 -3.8 C 3.08 g/m*3 -3.8 C 4.8 km/h
1922 07-02-2015 06:30:00 -3.9 C 3.06 g/m*3 -3.9 C 4.8 km/h
1923 07-02-2015 06:35:00 -3.9 C 3.06 g/m*3 -3.9 C 4.8 km/h
1924 07-02-2015 06:40:00 -3.9 C 3.09 g/m*3 -3.9 C 3.2 km/h
1925 07-02-2015 06:45:00 -4 C 3.11 g/m*3 -4 C 1.6 km/h
Sensor: Nr:Datum:Temp:Abs-Feuchte:Windchill:Wind:
Aussen-T/F 1926 07-02-2015 06:50:00 -4.1 C 3.09 g/m*3 -4.1 C 4.8 km/h
1927 07-02-2015 06:55:00 -4.1 C 3.09 g/m*3 -4.1 C 3.2 km/h
1928 07-02-2015 07:00:00 -4.2 C 3.07 g/m*3 -4.2 C 0 km/h
1929 07-02-2015 07:05:00 -4.3 C 3.04 g/m*3 -4.3 C 0 km/h
1930 07-02-2015 07:10:00 -4.4 C 3.02 g/m*3 -4.4 C 0 km/h
1931 07-02-2015 07:15:00 -4.5 C 3.04 g/m*3 -4.5 C 0 km/h
1932 07-02-2015 07:20:00 -4.6 C 3.01 g/m*3 -4.6 C 0 km/h
1933 07-02-2015 07:25:00 -4.6 C 3.01 g/m*3 -4.6 C 0 km/h
1934 07-02-2015 07:30:00 -4.7 C 2.99 g/m*3 -4.7 C 0 km/h
1935 07-02-2015 07:35:00 -4.7 C 3.03 g/m*3 -4.7 C 0 km/h
1936 07-02-2015 07:40:00 -4.8 C 3.01 g/m*3 -4.8 C 0 km/h
1937 07-02-2015 07:45:00 -4.9 C 2.98 g/m*3 -4.9 C 0 km/h
1938 07-02-2015 07:50:00 -4.9 C 2.98 g/m*3 -4.9 C 0 km/h
1939 07-02-2015 07:55:00 -5 C 2.96 g/m*3 -5 C 0 km/h
1940 07-02-2015 08:00:00 -5 C 2.96 g/m*3 -5 C 0 km/h
1941 07-02-2015 08:05:00 -5.1 C 2.94 g/m*3 -5.1 C 0 km/h
1942 07-02-2015 08:10:00 -5.1 C 2.97 g/m*3 -5.1 C 0 km/h
1943 07-02-2015 08:15:00 -5.1 C 2.97 g/m*3 -5.1 C 0 km/h
1944 07-02-2015 08:20:00 -5.1 C 2.97 g/m*3 -5.1 C 0 km/h
1945 07-02-2015 08:25:00 -5 C 3 g/m*3 -5 C 0 km/h
1946 07-02-2015 08:30:00 -4.9 C 3.05 g/m*3 -4.9 C 4.8 km/h
1947 07-02-2015 08:35:00 -4.9 C 3.05 g/m*3 -4.9 C 0 km/h
1948 07-02-2015 08:40:00 -4.8 C 3.07 g/m*3 -4.8 C 0 km/h
1949 07-02-2015 08:45:00 -4.8 C 3.04 g/m*3 -4.8 C 0 km/h
1950 07-02-2015 08:50:00 -4.8 C 3.04 g/m*3 -4.8 C 0 km/h
Sensor: Nr:Datum:Temp:Abs-Feuchte:Windchill:Wind:
Aussen-T/F 1951 07-02-2015 08:55:00 -4.8 C 3.04 g/m*3 -4.8 C 0 km/h
1952 07-02-2015 09:00:00 -4.8 C 3.04 g/m*3 -4.8 C 0 km/h
1953 07-02-2015 09:05:00 -4.7 C 3.06 g/m*3 -4.7 C 1.6 km/h
1954 07-02-2015 09:10:00 -4.6 C 3.08 g/m*3 -4.6 C 1.6 km/h
1955 07-02-2015 09:15:00 -4.5 C 3.11 g/m*3 -4.5 C 1.6 km/h
1956 07-02-2015 09:20:00 -4.5 C 3.11 g/m*3 -4.5 C 0 km/h
1957 07-02-2015 09:25:00 -4.5 C 3.11 g/m*3 -4.5 C 1.6 km/h
1958 07-02-2015 09:30:00 -4.4 C 3.09 g/m*3 -4.4 C 0 km/h
1959 07-02-2015 09:35:00 -4.4 C 3.13 g/m*3 -4.4 C 0 km/h
1960 07-02-2015 09:40:00 -4.3 C 3.15 g/m*3 -4.3 C 3.2 km/h
1961 07-02-2015 09:45:00 -4.2 C 3.17 g/m*3 -4.2 C 4.8 km/h
1962 07-02-2015 09:50:00 -4.1 C 3.16 g/m*3 -4.1 C 0 km/h
1963 07-02-2015 09:55:00 -3.9 C 3.21 g/m*3 -3.9 C 0 km/h
1964 07-02-2015 10:00:00 -3.8 C 3.19 g/m*3 -3.8 C 0 km/h
1965 07-02-2015 10:05:00 -3.8 C 3.19 g/m*3 -3.8 C 1.6 km/h
1966 07-02-2015 10:10:00 -3.6 C 3.24 g/m*3 -3.6 C 3.2 km/h
1967 07-02-2015 10:15:00 -3.5 C 3.22 g/m*3 -3.5 C 3.2 km/h
1968 07-02-2015 10:20:00 -3.3 C 3.27 g/m*3 -3.3 C 3.2 km/h
1969 07-02-2015 10:25:00 -3.2 C 3.29 g/m*3 -3.2 C 3.2 km/h
1970 07-02-2015 10:30:00 -3.2 C 3.25 g/m*3 -3.2 C 3.2 km/h
1971 07-02-2015 10:35:00 -3.1 C 3.28 g/m*3 -3.1 C 3.2 km/h
1972 07-02-2015 10:40:00 -3 C 3.3 g/m*3 -3 C 4.8 km/h
1973 07-02-2015 10:45:00 -2.9 C 3.32 g/m*3 -2.9 C 3.2 km/h
1974 07-02-2015 10:50:00 -2.9 C 3.32 g/m*3 -2.9 C 0 km/h
1975 07-02-2015 10:55:00 -2.8 C 3.39 g/m*3 -2.8 C 3.2 km/h
Sensor: Nr:Datum:Temp:Abs-Feuchte:Windchill:Wind:
Aussen-T/F 1976 07-02-2015 11:00:00 -2.8 C 3.39 g/m*3 -2.8 C 3.2 km/h
1977 07-02-2015 11:05:00 -2.7 C 3.37 g/m*3 -2.7 C 3.2 km/h
1978 07-02-2015 11:10:00 -2.6 C 3.39 g/m*3 -2.6 C 3.2 km/h
1979 07-02-2015 11:15:00 -2.4 C 3.44 g/m*3 -2.4 C 3.2 km/h
1980 07-02-2015 11:20:00 -2.4 C 3.44 g/m*3 -2.4 C 3.2 km/h
1981 07-02-2015 11:25:00 -2.3 C 3.47 g/m*3 -2.3 C 4.8 km/h
1982 07-02-2015 11:30:00 -2.2 C 3.45 g/m*3 -2.2 C 4.8 km/h
1983 07-02-2015 11:35:00 -2 C 3.5 g/m*3 -2 C 3.2 km/h
1984 07-02-2015 11:40:00 -1.9 C 3.57 g/m*3 -1.9 C 1.6 km/h
1985 07-02-2015 11:45:00 -1.9 C 3.52 g/m*3 -1.9 C 3.2 km/h
1986 07-02-2015 11:50:00 -1.8 C 3.46 g/m*3 -4.89 C 8.1 km/h
1987 07-02-2015 11:55:00 -1.4 C 3.47 g/m*3 -3.8 C 6.4 km/h
1988 07-02-2015 12:00:00 -1.2 C 3.52 g/m*3 -1.2 C 3.2 km/h
1989 07-02-2015 12:05:00 -1.1 C 3.5 g/m*3 -1.1 C 1.6 km/h
1990 07-02-2015 12:10:00 -1 C 3.57 g/m*3 -1 C 3.2 km/h
1991 07-02-2015 12:15:00 -1.1 C 3.64 g/m*3 -1.1 C 4.8 km/h
1992 07-02-2015 12:20:00 -1.1 C 3.64 g/m*3 -1.1 C 3.2 km/h
1993 07-02-2015 12:25:00 -1.1 C 3.55 g/m*3 -1.1 C 0 km/h
1994 07-02-2015 12:30:00 -0.9 C 3.64 g/m*3 -0.9 C 3.2 km/h
1995 07-02-2015 12:35:00 -0.9 C 3.6 g/m*3 -0.9 C 3.2 km/h
1996 07-02-2015 12:40:00 -0.8 C 3.67 g/m*3 -0.8 C 3.2 km/h
1997 07-02-2015 12:45:00 -0.7 C 3.6 g/m*3 -0.7 C 3.2 km/h
1998 07-02-2015 12:50:00 -0.7 C 3.65 g/m*3 -0.7 C 3.2 km/h
1999 07-02-2015 12:55:00 -0.6 C 3.72 g/m*3 -0.6 C 4.8 km/h
2000 07-02-2015 13:00:00 -0.6 C 3.67 g/m*3 -0.6 C 3.2 km/h
Sensor: Nr:Datum:Temp:Abs-Feuchte:Windchill:Wind:
Aussen-T/F 2001 07-02-2015 13:05:00 -0.6 C 3.67 g/m*3 -0.6 C 4.8 km/h
2002 07-02-2015 13:10:00 -0.5 C 3.74 g/m*3 -0.5 C 3.2 km/h
2003 07-02-2015 13:15:00 -0.4 C 3.72 g/m*3 -0.4 C 3.2 km/h
2004 07-02-2015 13:20:00 -0.3 C 3.8 g/m*3 -0.3 C 3.2 km/h
2005 07-02-2015 13:25:00 -0.2 C 3.82 g/m*3 -0.2 C 4.8 km/h
2006 07-02-2015 13:30:00 -0.1 C 3.85 g/m*3 -0.1 C 3.2 km/h
2007 07-02-2015 13:35:00 0.1 C 3.81 g/m*3 0.1 C 3.2 km/h
2008 07-02-2015 13:40:00 0.3 C 3.91 g/m*3 0.3 C 3.2 km/h
2009 07-02-2015 13:45:00 0.4 C 3.84 g/m*3 0.4 C 3.2 km/h
2010 07-02-2015 13:50:00 0.6 C 3.84 g/m*3 0.6 C 3.2 km/h
2011 07-02-2015 13:55:00 0.8 C 3.94 g/m*3 0.8 C 4.8 km/h
2012 07-02-2015 14:00:00 0.9 C 3.92 g/m*3 0.9 C 4.8 km/h
2013 07-02-2015 14:05:00 1.1 C 4.02 g/m*3 1.1 C 4.8 km/h
2014 07-02-2015 14:10:00 1.3 C 3.92 g/m*3 1.3 C 3.2 km/h
2015 07-02-2015 14:15:00 1.5 C 4.08 g/m*3 1.5 C 4.8 km/h
2016 07-02-2015 14:20:00 1.6 C 4.11 g/m*3 1.6 C 3.2 km/h
2017 07-02-2015 14:25:00 1.7 C 4.08 g/m*3 1.7 C 3.2 km/h
2018 07-02-2015 14:30:00 1.8 C 4.06 g/m*3 1.8 C 3.2 km/h
2019 07-02-2015 14:35:00 1.9 C 4.03 g/m*3 1.9 C 4.8 km/h
2020 07-02-2015 14:40:00 2.1 C 4.08 g/m*3 2.1 C 3.2 km/h
2021 07-02-2015 14:45:00 2.2 C 4.06 g/m*3 2.2 C 4.8 km/h
2022 07-02-2015 14:50:00 2.3 C 4.08 g/m*3 2.3 C 3.2 km/h
2023 07-02-2015 14:55:00 2.4 C 4.17 g/m*3 2.4 C 4.8 km/h
2024 07-02-2015 15:00:00 2.3 C 4.08 g/m*3 2.3 C 3.2 km/h
2025 07-02-2015 15:05:00 2.3 C 4.08 g/m*3 2.3 C 4.8 km/h
Sensor: Nr:Datum:Temp:Abs-Feuchte:Windchill:Wind:
Aussen-T/F 2026 07-02-2015 15:10:00 2.4 C 4.23 g/m*3 2.4 C 4.8 km/h
2027 07-02-2015 15:15:00 2.4 C 4.11 g/m*3 2.4 C 4.8 km/h
2028 07-02-2015 15:20:00 2.4 C 4.17 g/m*3 2.4 C 4.8 km/h
2029 07-02-2015 15:25:00 2.5 C 4.08 g/m*3 2.5 C 3.2 km/h
2030 07-02-2015 15:30:00 2.5 C 4.2 g/m*3 2.5 C 3.2 km/h
2031 07-02-2015 15:35:00 2.4 C 4.23 g/m*3 2.4 C 4.8 km/h
2032 07-02-2015 15:40:00 2.4 C 3.94 g/m*3 2.4 C 3.2 km/h
2033 07-02-2015 15:45:00 2.7 C 4.14 g/m*3 2.7 C 3.2 km/h
2034 07-02-2015 15:50:00 2.6 C 3.94 g/m*3 2.6 C 4.8 km/h
2035 07-02-2015 15:55:00 2.9 C 3.9 g/m*3 2.9 C 4.8 km/h
2036 07-02-2015 16:00:00 3.1 C 4.01 g/m*3 1.4 C 6.4 km/h
2037 07-02-2015 16:05:00 3 C 4.04 g/m*3 1.28 C 6.4 km/h
2038 07-02-2015 16:10:00 3.1 C 3.83 g/m*3 -0.77 C 16.1 km/h
2039 07-02-2015 16:15:00 3.4 C 3.85 g/m*3 0.14 C 12.9 km/h
2040 07-02-2015 16:20:00 3.6 C 3.84 g/m*3 1.46 C 8.1 km/h
2041 07-02-2015 16:25:00 3.7 C 3.8 g/m*3 1.58 C 8.1 km/h
2042 07-02-2015 16:30:00 3.7 C 3.68 g/m*3 1.18 C 9.7 km/h
2043 07-02-2015 16:35:00 3.8 C 3.58 g/m*3 -0.14 C 17.7 km/h
2044 07-02-2015 16:40:00 3.8 C 3.58 g/m*3 0.35 C 14.5 km/h
2045 07-02-2015 16:45:00 3.7 C 3.55 g/m*3 1.58 C 8.1 km/h
2046 07-02-2015 16:50:00 3.7 C 3.55 g/m*3 -0.03 C 16.1 km/h
2047 07-02-2015 16:55:00 3.7 C 3.55 g/m*3 1.18 C 9.7 km/h
2048 07-02-2015 17:00:00 3.6 C 3.53 g/m*3 1.98 C 6.4 km/h
2049 07-02-2015 17:05:00 3.4 C 3.54 g/m*3 1.23 C 8.1 km/h
2050 07-02-2015 17:10:00 3.4 C 3.66 g/m*3 1.23 C 8.1 km/h
Sensor: Nr:Datum:Temp:Abs-Feuchte:Windchill:Wind:
Aussen-T/F 2051 07-02-2015 17:15:00 3.2 C 3.86 g/m*3 3.2 C 3.2 km/h
2052 07-02-2015 17:20:00 2.9 C 3.78 g/m*3 2.9 C 4.8 km/h
2053 07-02-2015 17:25:00 2.7 C 3.85 g/m*3 2.7 C 4.8 km/h
2054 07-02-2015 17:30:00 2.3 C 3.86 g/m*3 2.3 C 3.2 km/h
2055 07-02-2015 17:35:00 2.1 C 3.97 g/m*3 2.1 C 1.6 km/h
2056 07-02-2015 17:40:00 1.6 C 3.89 g/m*3 1.6 C 3.2 km/h
2057 07-02-2015 17:45:00 1.3 C 3.92 g/m*3 1.3 C 4.8 km/h
2058 07-02-2015 17:50:00 1.1 C 3.92 g/m*3 1.1 C 1.6 km/h
2059 07-02-2015 17:55:00 1 C 4 g/m*3 1 C 1.6 km/h
2060 07-02-2015 18:00:00 1 C 3.94 g/m*3 1 C 3.2 km/h
2061 07-02-2015 18:05:00 1.3 C 4.08 g/m*3 1.3 C 3.2 km/h
2062 07-02-2015 18:10:00 1.7 C 4.14 g/m*3 1.7 C 4.8 km/h
2063 07-02-2015 18:15:00 1.9 C 4.14 g/m*3 1.9 C 4.8 km/h
2064 07-02-2015 18:20:00 2.2 C 4.28 g/m*3 2.2 C 3.2 km/h
2065 07-02-2015 18:25:00 2.3 C 4.2 g/m*3 2.3 C 3.2 km/h
2066 07-02-2015 18:30:00 2.3 C 4.25 g/m*3 2.3 C 1.6 km/h
2067 07-02-2015 18:35:00 2.3 C 4.25 g/m*3 2.3 C 4.8 km/h
2068 07-02-2015 18:40:00 2.3 C 4.31 g/m*3 2.3 C 1.6 km/h
2069 07-02-2015 18:45:00 2.3 C 4.31 g/m*3 2.3 C 0 km/h
2070 07-02-2015 18:50:00 2.3 C 4.25 g/m*3 2.3 C 3.2 km/h
2071 07-02-2015 18:55:00 2.3 C 4.25 g/m*3 2.3 C 3.2 km/h
2072 07-02-2015 19:00:00 2.4 C 4.23 g/m*3 0.59 C 6.4 km/h
2073 07-02-2015 19:05:00 2.6 C 4.28 g/m*3 0.29 C 8.1 km/h
2074 07-02-2015 19:10:00 2.8 C 4.34 g/m*3 2.8 C 4.8 km/h
2075 07-02-2015 19:15:00 2.8 C 4.28 g/m*3 2.8 C 4.8 km/h
Sensor: Nr:Datum:Temp:Abs-Feuchte:Windchill:Wind:
Aussen-T/F 2076 07-02-2015 19:20:00 2.9 C 4.37 g/m*3 2.9 C 4.8 km/h
2077 07-02-2015 19:25:00 2.9 C 4.37 g/m*3 2.9 C 3.2 km/h
2078 07-02-2015 19:30:00 2.8 C 4.46 g/m*3 2.8 C 4.8 km/h
2079 07-02-2015 19:35:00 2.7 C 4.49 g/m*3 2.7 C 3.2 km/h
2080 07-02-2015 19:40:00 2.6 C 4.51 g/m*3 2.6 C 3.2 km/h
2081 07-02-2015 19:45:00 2.6 C 4.51 g/m*3 2.6 C 3.2 km/h
2082 07-02-2015 19:50:00 2.6 C 4.57 g/m*3 2.6 C 4.8 km/h
2083 07-02-2015 19:55:00 2.6 C 4.57 g/m*3 2.6 C 4.8 km/h
2084 07-02-2015 20:00:00 2.7 C 4.6 g/m*3 0.4 C 8.1 km/h
2085 07-02-2015 20:05:00 2.7 C 4.66 g/m*3 -0.38 C 11.3 km/h
2086 07-02-2015 20:10:00 2.8 C 4.75 g/m*3 -0.26 C 11.3 km/h
2087 07-02-2015 20:15:00 2.8 C 4.81 g/m*3 2.8 C 4.8 km/h
2088 07-02-2015 20:20:00 2.8 C 4.87 g/m*3 1.05 C 6.4 km/h
2089 07-02-2015 20:25:00 2.7 C 4.89 g/m*3 2.7 C 4.8 km/h
2090 07-02-2015 20:30:00 2.7 C 4.89 g/m*3 0.4 C 8.1 km/h
2091 07-02-2015 20:35:00 2.7 C 5.01 g/m*3 0.4 C 8.1 km/h
2092 07-02-2015 20:40:00 2.6 C 4.98 g/m*3 2.6 C 3.2 km/h
2093 07-02-2015 20:45:00 2.6 C 4.98 g/m*3 2.6 C 1.6 km/h
2094 07-02-2015 20:50:00 2.5 C 5 g/m*3 0.71 C 6.4 km/h
2095 07-02-2015 20:55:00 2.5 C 5.06 g/m*3 2.5 C 4.8 km/h
2096 07-02-2015 21:00:00 2.6 C 5.15 g/m*3 -0.5 C 11.3 km/h
2097 07-02-2015 21:05:00 2.6 C 5.21 g/m*3 0.82 C 6.4 km/h
2098 07-02-2015 21:10:00 2.6 C 5.21 g/m*3 0.29 C 8.1 km/h
2099 07-02-2015 21:15:00 2.6 C 5.21 g/m*3 0.82 C 6.4 km/h
2100 07-02-2015 21:20:00 2.6 C 5.27 g/m*3 0.82 C 6.4 km/h
Sensor: Nr:Datum:Temp:Abs-Feuchte:Windchill:Wind:
Aussen-T/F 2101 07-02-2015 21:25:00 2.6 C 5.27 g/m*3 2.6 C 4.8 km/h
2102 07-02-2015 21:30:00 2.6 C 5.27 g/m*3 2.6 C 4.8 km/h
2103 07-02-2015 21:35:00 2.7 C 5.36 g/m*3 0.94 C 6.4 km/h
2104 07-02-2015 21:40:00 2.7 C 5.36 g/m*3 2.7 C 0 km/h
2105 07-02-2015 21:45:00 2.7 C 5.36 g/m*3 2.7 C 3.2 km/h
2106 07-02-2015 21:50:00 2.7 C 5.42 g/m*3 2.7 C 3.2 km/h
2107 07-02-2015 21:55:00 2.7 C 5.42 g/m*3 2.7 C 3.2 km/h
2108 07-02-2015 22:00:00 2.7 C 5.42 g/m*3 0.94 C 6.4 km/h
2109 07-02-2015 22:05:00 2.7 C 5.48 g/m*3 0.94 C 6.4 km/h
2110 07-02-2015 22:10:00 2.7 C 5.48 g/m*3 2.7 C 3.2 km/h
2111 07-02-2015 22:15:00 2.7 C 5.48 g/m*3 2.7 C 3.2 km/h
2112 07-02-2015 22:20:00 2.7 C 5.48 g/m*3 2.7 C 3.2 km/h
2113 07-02-2015 22:25:00 2.7 C 5.48 g/m*3 0.94 C 6.4 km/h
2114 07-02-2015 22:30:00 2.7 C 5.48 g/m*3 0.94 C 6.4 km/h
2115 07-02-2015 22:35:00 2.7 C 5.48 g/m*3 2.7 C 3.2 km/h
2116 07-02-2015 22:40:00 2.7 C 5.48 g/m*3 2.7 C 4.8 km/h
2117 07-02-2015 22:45:00 2.9 C 5.55 g/m*3 0.64 C 8.1 km/h
2118 07-02-2015 22:50:00 2.9 C 5.55 g/m*3 2.9 C 4.8 km/h
2119 07-02-2015 22:55:00 3 C 5.59 g/m*3 0.34 C 9.7 km/h
2120 07-02-2015 23:00:00 3 C 5.59 g/m*3 0.34 C 9.7 km/h
2121 07-02-2015 23:05:00 3.1 C 5.63 g/m*3 0.46 C 9.7 km/h
2122 07-02-2015 23:10:00 3.1 C 5.63 g/m*3 0.1 C 11.3 km/h
2123 07-02-2015 23:15:00 3.1 C 5.63 g/m*3 0.87 C 8.1 km/h
2124 07-02-2015 23:20:00 3.2 C 5.66 g/m*3 0.58 C 9.7 km/h
2125 07-02-2015 23:25:00 3.2 C 5.66 g/m*3 0.58 C 9.7 km/h
Sensor: Nr:Datum:Temp:Abs-Feuchte:Windchill:Wind:
Aussen-T/F 2126 07-02-2015 23:30:00 3.2 C 5.72 g/m*3 -0.39 C 14.5 km/h
2127 07-02-2015 23:35:00 3.2 C 5.72 g/m*3 -0.1 C 12.9 km/h
2128 07-02-2015 23:40:00 3.3 C 5.76 g/m*3 0.02 C 12.9 km/h
2129 07-02-2015 23:45:00 3.3 C 5.7 g/m*3 0.7 C 9.7 km/h
2130 07-02-2015 23:50:00 3.3 C 5.7 g/m*3 1.11 C 8.1 km/h
2131 07-02-2015 23:55:00 3.3 C 5.7 g/m*3 1.11 C 8.1 km/h
2132 08-02-2015 00:00:00 3.4 C 5.74 g/m*3 0.46 C 11.3 km/h
2133 08-02-2015 00:05:00 3.4 C 5.74 g/m*3 1.75 C 6.4 km/h
2134 08-02-2015 00:10:00 3.4 C 5.74 g/m*3 0.46 C 11.3 km/h
2135 08-02-2015 00:15:00 3.4 C 5.74 g/m*3 0.82 C 9.7 km/h
2136 08-02-2015 00:20:00 3.4 C 5.74 g/m*3 1.75 C 6.4 km/h
2137 08-02-2015 00:25:00 3.4 C 5.74 g/m*3 0.46 C 11.3 km/h
2138 08-02-2015 00:30:00 3.4 C 5.74 g/m*3 1.75 C 6.4 km/h
2139 08-02-2015 00:35:00 3.5 C 5.78 g/m*3 1.86 C 6.4 km/h
2140 08-02-2015 00:40:00 3.5 C 5.78 g/m*3 1.34 C 8.1 km/h
2141 08-02-2015 00:45:00 3.6 C 5.82 g/m*3 1.06 C 9.7 km/h
2142 08-02-2015 00:50:00 3.7 C 5.86 g/m*3 1.18 C 9.7 km/h
2143 08-02-2015 00:55:00 3.7 C 5.86 g/m*3 3.7 C 4.8 km/h
2144 08-02-2015 01:00:00 3.8 C 5.9 g/m*3 0.63 C 12.9 km/h
2145 08-02-2015 01:05:00 3.8 C 5.83 g/m*3 0.35 C 14.5 km/h
2146 08-02-2015 01:10:00 3.9 C 5.94 g/m*3 0.75 C 12.9 km/h
2147 08-02-2015 01:15:00 3.9 C 5.87 g/m*3 3.9 C 4.8 km/h
2148 08-02-2015 01:20:00 3.8 C 5.83 g/m*3 0.63 C 12.9 km/h
2149 08-02-2015 01:25:00 3.9 C 5.87 g/m*3 0.22 C 16.1 km/h
2150 08-02-2015 01:30:00 3.9 C 5.87 g/m*3 1.41 C 9.7 km/h
Sensor: Nr:Datum:Temp:Abs-Feuchte:Windchill:Wind:
Aussen-T/F 2151 08-02-2015 01:35:00 3.9 C 5.87 g/m*3 1.82 C 8.1 km/h
2152 08-02-2015 01:40:00 3.9 C 5.87 g/m*3 1.41 C 9.7 km/h
2153 08-02-2015 01:45:00 3.9 C 5.87 g/m*3 3.9 C 4.8 km/h
2154 08-02-2015 01:50:00 3.9 C 5.81 g/m*3 1.06 C 11.3 km/h
2155 08-02-2015 01:55:00 3.9 C 5.87 g/m*3 1.82 C 8.1 km/h
2156 08-02-2015 02:00:00 3.9 C 5.87 g/m*3 1.41 C 9.7 km/h
2157 08-02-2015 02:05:00 4 C 5.85 g/m*3 1.53 C 9.7 km/h
2158 08-02-2015 02:10:00 4.1 C 5.89 g/m*3 0.72 C 14.5 km/h
2159 08-02-2015 02:15:00 4.1 C 5.89 g/m*3 2.05 C 8.1 km/h
2160 08-02-2015 02:20:00 4.1 C 5.89 g/m*3 1.65 C 9.7 km/h
2161 08-02-2015 02:25:00 4.1 C 5.82 g/m*3 4.1 C 3.2 km/h
2162 08-02-2015 02:30:00 3.9 C 5.81 g/m*3 1.82 C 8.1 km/h
2163 08-02-2015 02:35:00 3.9 C 5.81 g/m*3 2.32 C 6.4 km/h
2164 08-02-2015 02:40:00 3.8 C 5.77 g/m*3 3.8 C 4.8 km/h
2165 08-02-2015 02:45:00 3.9 C 5.87 g/m*3 2.32 C 6.4 km/h
2166 08-02-2015 02:50:00 3.9 C 5.87 g/m*3 1.82 C 8.1 km/h
2167 08-02-2015 02:55:00 3.9 C 5.87 g/m*3 1.82 C 8.1 km/h
2168 08-02-2015 03:00:00 3.9 C 5.87 g/m*3 1.82 C 8.1 km/h
2169 08-02-2015 03:05:00 3.8 C 5.83 g/m*3 0.94 C 11.3 km/h
2170 08-02-2015 03:10:00 3.8 C 5.83 g/m*3 2.21 C 6.4 km/h
2171 08-02-2015 03:15:00 3.7 C 5.8 g/m*3 3.7 C 4.8 km/h
2172 08-02-2015 03:20:00 3.7 C 5.8 g/m*3 3.7 C 3.2 km/h
2173 08-02-2015 03:25:00 3.6 C 5.76 g/m*3 3.6 C 4.8 km/h
2174 08-02-2015 03:30:00 3.6 C 5.76 g/m*3 3.6 C 3.2 km/h
2175 08-02-2015 03:35:00 3.5 C 5.72 g/m*3 3.5 C 4.8 km/h
Sensor: Nr:Datum:Temp:Abs-Feuchte:Windchill:Wind:
Aussen-T/F 2176 08-02-2015 03:40:00 3.5 C 5.78 g/m*3 3.5 C 4.8 km/h
2177 08-02-2015 03:45:00 3.6 C 5.82 g/m*3 0.7 C 11.3 km/h
2178 08-02-2015 03:50:00 3.7 C 5.86 g/m*3 1.18 C 9.7 km/h
2179 08-02-2015 03:55:00 3.8 C 5.83 g/m*3 0.63 C 12.9 km/h
2180 08-02-2015 04:00:00 3.9 C 5.81 g/m*3 1.82 C 8.1 km/h
2181 08-02-2015 04:05:00 4 C 5.79 g/m*3 1.53 C 9.7 km/h
2182 08-02-2015 04:10:00 4.1 C 5.82 g/m*3 1.65 C 9.7 km/h
2183 08-02-2015 04:15:00 4.2 C 5.8 g/m*3 -0.05 C 20.9 km/h
2184 08-02-2015 04:20:00 4.2 C 5.8 g/m*3 1.12 C 12.9 km/h
2185 08-02-2015 04:25:00 4.2 C 5.73 g/m*3 1.12 C 12.9 km/h
2186 08-02-2015 04:30:00 4.2 C 5.67 g/m*3 1.77 C 9.7 km/h
2187 08-02-2015 04:35:00 4.2 C 5.67 g/m*3 1.12 C 12.9 km/h
2188 08-02-2015 04:40:00 4.2 C 5.61 g/m*3 0.15 C 19.3 km/h
2189 08-02-2015 04:45:00 4.2 C 5.61 g/m*3 1.12 C 12.9 km/h
2190 08-02-2015 04:50:00 4.2 C 5.61 g/m*3 0.84 C 14.5 km/h
2191 08-02-2015 04:55:00 4.2 C 5.61 g/m*3 1.77 C 9.7 km/h
2192 08-02-2015 05:00:00 4.2 C 5.54 g/m*3 1.12 C 12.9 km/h
2193 08-02-2015 05:05:00 4.3 C 5.58 g/m*3 0.97 C 14.5 km/h
2194 08-02-2015 05:10:00 4.3 C 5.58 g/m*3 2.29 C 8.1 km/h
2195 08-02-2015 05:15:00 4.2 C 5.54 g/m*3 1.77 C 9.7 km/h
2196 08-02-2015 05:20:00 4.3 C 5.58 g/m*3 0.97 C 14.5 km/h
2197 08-02-2015 05:25:00 4.3 C 5.58 g/m*3 1.24 C 12.9 km/h
2198 08-02-2015 05:30:00 4.3 C 5.51 g/m*3 1.24 C 12.9 km/h
2199 08-02-2015 05:35:00 4.3 C 5.51 g/m*3 0.49 C 17.7 km/h
2200 08-02-2015 05:40:00 4.3 C 5.51 g/m*3 0.07 C 20.9 km/h
Sensor: Nr:Datum:Temp:Abs-Feuchte:Windchill:Wind:
Aussen-T/F 2201 08-02-2015 05:45:00 4.3 C 5.51 g/m*3 0.27 C 19.3 km/h
2202 08-02-2015 05:50:00 4.4 C 5.48 g/m*3 0.84 C 16.1 km/h
2203 08-02-2015 05:55:00 4.3 C 5.45 g/m*3 1.55 C 11.3 km/h
2204 08-02-2015 06:00:00 4.3 C 5.45 g/m*3 1.24 C 12.9 km/h
2205 08-02-2015 06:05:00 4.3 C 5.38 g/m*3 0.97 C 14.5 km/h
2206 08-02-2015 06:10:00 4.3 C 5.38 g/m*3 1.55 C 11.3 km/h
2207 08-02-2015 06:15:00 4.3 C 5.38 g/m*3 1.24 C 12.9 km/h
2208 08-02-2015 06:20:00 4.2 C 5.35 g/m*3 1.77 C 9.7 km/h
2209 08-02-2015 06:25:00 4.3 C 5.38 g/m*3 1.89 C 9.7 km/h
2210 08-02-2015 06:30:00 4.3 C 5.38 g/m*3 0.97 C 14.5 km/h
2211 08-02-2015 06:35:00 4.3 C 5.38 g/m*3 0.72 C 16.1 km/h
2212 08-02-2015 06:40:00 4.2 C 5.35 g/m*3 2.17 C 8.1 km/h
2213 08-02-2015 06:45:00 4.2 C 5.41 g/m*3 2.67 C 6.4 km/h
2214 08-02-2015 06:50:00 4.2 C 5.41 g/m*3 1.12 C 12.9 km/h
2215 08-02-2015 06:55:00 4.2 C 5.41 g/m*3 1.77 C 9.7 km/h
2216 08-02-2015 07:00:00 4.2 C 5.41 g/m*3 2.67 C 6.4 km/h
2217 08-02-2015 07:05:00 4.1 C 5.44 g/m*3 2.05 C 8.1 km/h
2218 08-02-2015 07:10:00 4.1 C 5.44 g/m*3 2.05 C 8.1 km/h
2219 08-02-2015 07:15:00 4.1 C 5.5 g/m*3 -0.18 C 20.9 km/h
2220 08-02-2015 07:20:00 3.8 C 5.46 g/m*3 -0.36 C 19.3 km/h
2221 08-02-2015 07:25:00 3.7 C 5.48 g/m*3 0.23 C 14.5 km/h
2222 08-02-2015 07:30:00 3.5 C 5.41 g/m*3 -0.51 C 17.7 km/h
2223 08-02-2015 07:35:00 3.4 C 5.37 g/m*3 -0.4 C 16.1 km/h
2224 08-02-2015 07:40:00 3.2 C 5.3 g/m*3 0.99 C 8.1 km/h
2225 08-02-2015 07:45:00 3.2 C 5.3 g/m*3 0.99 C 8.1 km/h
Sensor: Nr:Datum:Temp:Abs-Feuchte:Windchill:Wind:
Aussen-T/F 2226 08-02-2015 07:50:00 3.1 C 5.27 g/m*3 0.87 C 8.1 km/h
2227 08-02-2015 07:55:00 3.1 C 5.21 g/m*3 3.1 C 3.2 km/h
2228 08-02-2015 08:00:00 3.1 C 5.21 g/m*3 0.87 C 8.1 km/h
2229 08-02-2015 08:05:00 3.1 C 5.15 g/m*3 3.1 C 4.8 km/h
2230 08-02-2015 08:10:00 3.2 C 5.18 g/m*3 -0.1 C 12.9 km/h
2231 08-02-2015 08:15:00 3.3 C 5.16 g/m*3 -1.19 C 20.9 km/h
2232 08-02-2015 08:20:00 3.3 C 5.1 g/m*3 -0.52 C 16.1 km/h
2233 08-02-2015 08:25:00 3.4 C 5.19 g/m*3 0.14 C 12.9 km/h
2234 08-02-2015 08:30:00 3.3 C 5.16 g/m*3 0.34 C 11.3 km/h
2235 08-02-2015 08:35:00 3.3 C 5.16 g/m*3 0.34 C 11.3 km/h
2236 08-02-2015 08:40:00 3.3 C 5.16 g/m*3 3.3 C 4.8 km/h
2237 08-02-2015 08:45:00 3.3 C 5.22 g/m*3 3.3 C 3.2 km/h
2238 08-02-2015 08:50:00 3.3 C 5.16 g/m*3 3.3 C 4.8 km/h
2239 08-02-2015 08:55:00 3.3 C 5.16 g/m*3 1.63 C 6.4 km/h
2240 08-02-2015 09:00:00 3.3 C 5.16 g/m*3 1.63 C 6.4 km/h
2241 08-02-2015 09:05:00 3.3 C 5.1 g/m*3 1.63 C 6.4 km/h
2242 08-02-2015 09:10:00 3.4 C 5.07 g/m*3 -0.4 C 16.1 km/h
2243 08-02-2015 09:15:00 3.5 C 5.1 g/m*3 0.94 C 9.7 km/h
2244 08-02-2015 09:20:00 3.6 C 5.08 g/m*3 1.06 C 9.7 km/h
2245 08-02-2015 09:25:00 3.6 C 5.01 g/m*3 0.7 C 11.3 km/h
2246 08-02-2015 09:30:00 3.7 C 5.05 g/m*3 1.58 C 8.1 km/h
2247 08-02-2015 09:35:00 3.7 C 4.99 g/m*3 3.7 C 4.8 km/h
2248 08-02-2015 09:40:00 3.7 C 4.99 g/m*3 0.82 C 11.3 km/h
2249 08-02-2015 09:45:00 3.7 C 5.05 g/m*3 -0.03 C 16.1 km/h
2250 08-02-2015 09:50:00 3.6 C 5.08 g/m*3 0.39 C 12.9 km/h
Sensor: Nr:Datum:Temp:Abs-Feuchte:Windchill:Wind:
Aussen-T/F 2251 08-02-2015 09:55:00 3.6 C 5.14 g/m*3 0.39 C 12.9 km/h
2252 08-02-2015 10:00:00 3.5 C 5.16 g/m*3 -0.28 C 16.1 km/h
2253 08-02-2015 10:05:00 3.4 C 5.19 g/m*3 -0.14 C 14.5 km/h
2254 08-02-2015 10:10:00 3.4 C 5.25 g/m*3 0.46 C 11.3 km/h
2255 08-02-2015 10:15:00 3.4 C 5.25 g/m*3 -0.14 C 14.5 km/h
2256 08-02-2015 10:20:00 3.3 C 5.22 g/m*3 0.7 C 9.7 km/h
2257 08-02-2015 10:25:00 3.2 C 5.24 g/m*3 -0.1 C 12.9 km/h
2258 08-02-2015 10:30:00 3.1 C 5.27 g/m*3 0.87 C 8.1 km/h
2259 08-02-2015 10:35:00 3.1 C 5.33 g/m*3 0.1 C 11.3 km/h
2260 08-02-2015 10:40:00 3.2 C 5.36 g/m*3 0.99 C 8.1 km/h
2261 08-02-2015 10:45:00 3.3 C 5.34 g/m*3 -1.19 C 20.9 km/h
2262 08-02-2015 10:50:00 3.4 C 5.31 g/m*3 -0.86 C 19.3 km/h
2263 08-02-2015 10:55:00 3.6 C 5.32 g/m*3 -1.19 C 24.1 km/h
2264 08-02-2015 11:00:00 3.7 C 5.17 g/m*3 -0.26 C 17.7 km/h
2265 08-02-2015 11:05:00 3.8 C 5.21 g/m*3 -0.93 C 24.1 km/h
2266 08-02-2015 11:10:00 3.9 C 5.12 g/m*3 -0.01 C 17.7 km/h
2267 08-02-2015 11:15:00 4.1 C 5.18 g/m*3 0.02 C 19.3 km/h
2268 08-02-2015 11:20:00 4.2 C 5.15 g/m*3 0.15 C 19.3 km/h
2269 08-02-2015 11:25:00 4.1 C 5.06 g/m*3 -0.18 C 20.9 km/h
2270 08-02-2015 11:30:00 4 C 5.02 g/m*3 -0.11 C 19.3 km/h
2271 08-02-2015 11:35:00 3.9 C 4.99 g/m*3 -0.43 C 20.9 km/h
2272 08-02-2015 11:40:00 3.9 C 4.99 g/m*3 -0.43 C 20.9 km/h
2273 08-02-2015 11:45:00 3.9 C 4.99 g/m*3 0.47 C 14.5 km/h
2274 08-02-2015 11:50:00 3.9 C 4.99 g/m*3 -0.43 C 20.9 km/h
2275 08-02-2015 11:55:00 3.8 C 4.96 g/m*3 -0.56 C 20.9 km/h
Sensor: Nr:Datum:Temp:Abs-Feuchte:Windchill:Wind:
Aussen-T/F 2276 08-02-2015 12:00:00 3.8 C 4.96 g/m*3 0.35 C 14.5 km/h
2277 08-02-2015 12:05:00 3.8 C 4.96 g/m*3 0.1 C 16.1 km/h
2278 08-02-2015 12:10:00 3.9 C 4.93 g/m*3 -0.8 C 24.1 km/h
2279 08-02-2015 12:15:00 3.9 C 4.86 g/m*3 -0.01 C 17.7 km/h
2280 08-02-2015 12:20:00 4 C 4.83 g/m*3 0.34 C 16.1 km/h
2281 08-02-2015 12:25:00 4.1 C 4.8 g/m*3 -0.18 C 20.9 km/h
2282 08-02-2015 12:30:00 4.1 C 4.86 g/m*3 0.02 C 19.3 km/h
2283 08-02-2015 12:35:00 4.2 C 4.96 g/m*3 1.12 C 12.9 km/h
2284 08-02-2015 12:40:00 4.2 C 4.9 g/m*3 1.43 C 11.3 km/h
2285 08-02-2015 12:45:00 4.3 C 4.86 g/m*3 0.72 C 16.1 km/h
2286 08-02-2015 12:50:00 4.5 C 4.73 g/m*3 0.52 C 19.3 km/h
2287 08-02-2015 12:55:00 4.6 C 4.57 g/m*3 0.65 C 19.3 km/h
2288 08-02-2015 13:00:00 4.6 C 4.63 g/m*3 0.86 C 17.7 km/h
2289 08-02-2015 13:05:00 4.5 C 4.54 g/m*3 0.96 C 16.1 km/h
2290 08-02-2015 13:10:00 4.5 C 4.54 g/m*3 1.21 C 14.5 km/h
2291 08-02-2015 13:15:00 4.6 C 4.5 g/m*3 0.45 C 20.9 km/h
2292 08-02-2015 13:20:00 4.7 C 4.6 g/m*3 0.58 C 20.9 km/h
2293 08-02-2015 13:25:00 4.8 C 4.56 g/m*3 0.52 C 22.5 km/h
2294 08-02-2015 13:30:00 4.8 C 4.49 g/m*3 1.11 C 17.7 km/h
2295 08-02-2015 13:35:00 4.7 C 4.4 g/m*3 1.73 C 12.9 km/h
2296 08-02-2015 13:40:00 4.8 C 4.56 g/m*3 1.58 C 14.5 km/h
2297 08-02-2015 13:45:00 4.9 C 4.52 g/m*3 0.83 C 20.9 km/h
2298 08-02-2015 13:50:00 4.9 C 4.46 g/m*3 0.65 C 22.5 km/h
2299 08-02-2015 13:55:00 4.8 C 4.49 g/m*3 1.34 C 16.1 km/h
2300 08-02-2015 14:00:00 4.9 C 4.59 g/m*3 1.24 C 17.7 km/h
Sensor: Nr:Datum:Temp:Abs-Feuchte:Windchill:Wind:
Aussen-T/F 2301 08-02-2015 14:05:00 5 C 4.48 g/m*3 0.78 C 22.5 km/h
2302 08-02-2015 14:10:00 4.9 C 4.46 g/m*3 0.83 C 20.9 km/h
2303 08-02-2015 14:15:00 4.8 C 4.43 g/m*3 1.58 C 14.5 km/h
2304 08-02-2015 14:20:00 4.7 C 4.46 g/m*3 0.78 C 19.3 km/h
2305 08-02-2015 14:25:00 4.8 C 4.49 g/m*3 1.11 C 17.7 km/h
2306 08-02-2015 14:30:00 4.9 C 4.46 g/m*3 0.83 C 20.9 km/h
2307 08-02-2015 14:35:00 5 C 4.48 g/m*3 0.78 C 22.5 km/h
2308 08-02-2015 14:40:00 5 C 4.28 g/m*3 1.15 C 19.3 km/h
2309 08-02-2015 14:45:00 4.9 C 4.25 g/m*3 0.65 C 22.5 km/h
2310 08-02-2015 14:50:00 4.9 C 4.32 g/m*3 1.46 C 16.1 km/h
2311 08-02-2015 14:55:00 4.9 C 4.32 g/m*3 1.24 C 17.7 km/h
2312 08-02-2015 15:00:00 4.8 C 4.22 g/m*3 1.11 C 17.7 km/h
2313 08-02-2015 15:05:00 4.9 C 4.19 g/m*3 1.46 C 16.1 km/h
2314 08-02-2015 15:10:00 5 C 4.28 g/m*3 1.15 C 19.3 km/h
2315 08-02-2015 15:15:00 5.1 C 4.31 g/m*3 2.22 C 12.9 km/h
2316 08-02-2015 15:20:00 5.1 C 4.17 g/m*3 0.74 C 24.1 km/h
2317 08-02-2015 15:25:00 4.9 C 4.19 g/m*3 0.83 C 20.9 km/h
2318 08-02-2015 15:30:00 4.8 C 4.16 g/m*3 0.71 C 20.9 km/h
2319 08-02-2015 15:35:00 4.8 C 4.09 g/m*3 1.11 C 17.7 km/h
2320 08-02-2015 15:40:00 4.7 C 4 g/m*3 1.46 C 14.5 km/h
2321 08-02-2015 15:45:00 4.6 C 3.97 g/m*3 1.34 C 14.5 km/h
2322 08-02-2015 15:50:00 4.5 C 3.94 g/m*3 0.96 C 16.1 km/h
2323 08-02-2015 15:55:00 4.5 C 4.01 g/m*3 0.96 C 16.1 km/h
2324 08-02-2015 16:00:00 4.4 C 3.98 g/m*3 0.61 C 17.7 km/h
2325 08-02-2015 16:05:00 4.4 C 3.92 g/m*3 1.09 C 14.5 km/h
Sensor: Nr:Datum:Temp:Abs-Feuchte:Windchill:Wind:
Aussen-T/F 2326 08-02-2015 16:10:00 4.4 C 3.92 g/m*3 0.84 C 16.1 km/h
2327 08-02-2015 16:15:00 4.3 C 3.89 g/m*3 1.55 C 11.3 km/h
2328 08-02-2015 16:20:00 4.3 C 3.89 g/m*3 0.72 C 16.1 km/h
2329 08-02-2015 16:25:00 4.3 C 3.89 g/m*3 1.55 C 11.3 km/h
2330 08-02-2015 16:30:00 4.3 C 3.89 g/m*3 0.27 C 19.3 km/h
2331 08-02-2015 16:35:00 4.2 C 3.87 g/m*3 0.15 C 19.3 km/h
2332 08-02-2015 16:40:00 4.2 C 3.93 g/m*3 1.43 C 11.3 km/h
2333 08-02-2015 16:45:00 4.1 C 3.9 g/m*3 1.31 C 11.3 km/h
2334 08-02-2015 16:50:00 3.9 C 3.92 g/m*3 0.75 C 12.9 km/h
2335 08-02-2015 16:55:00 3.9 C 3.92 g/m*3 2.32 C 6.4 km/h
2336 08-02-2015 17:00:00 3.8 C 3.89 g/m*3 1.7 C 8.1 km/h
2337 08-02-2015 17:05:00 3.7 C 4.05 g/m*3 3.7 C 4.8 km/h
2338 08-02-2015 17:10:00 3.4 C 4.09 g/m*3 3.4 C 4.8 km/h
2339 08-02-2015 17:15:00 3.3 C 4.13 g/m*3 1.63 C 6.4 km/h
2340 08-02-2015 17:20:00 3.3 C 4.13 g/m*3 1.63 C 6.4 km/h
2341 08-02-2015 17:25:00 3.2 C 4.22 g/m*3 3.2 C 1.6 km/h
2342 08-02-2015 17:30:00 2.9 C 4.19 g/m*3 0.64 C 8.1 km/h
2343 08-02-2015 17:35:00 2.9 C 4.25 g/m*3 1.17 C 6.4 km/h
2344 08-02-2015 17:40:00 2.9 C 4.25 g/m*3 2.9 C 3.2 km/h
2345 08-02-2015 17:45:00 2.9 C 4.19 g/m*3 2.9 C 4.8 km/h
2346 08-02-2015 17:50:00 2.7 C 4.31 g/m*3 2.7 C 3.2 km/h
2347 08-02-2015 17:55:00 2.5 C 4.31 g/m*3 2.5 C 1.6 km/h
2348 08-02-2015 18:00:00 2.2 C 4.28 g/m*3 2.2 C 1.6 km/h
2349 08-02-2015 18:05:00 2.1 C 4.25 g/m*3 2.1 C 3.2 km/h
2350 08-02-2015 18:10:00 1.9 C 4.25 g/m*3 1.9 C 3.2 km/h
Sensor: Nr:Datum:Temp:Abs-Feuchte:Windchill:Wind:
Aussen-T/F 2351 08-02-2015 18:15:00 1.7 C 4.19 g/m*3 1.7 C 3.2 km/h
2352 08-02-2015 18:20:00 1.6 C 4.22 g/m*3 1.6 C 3.2 km/h
2353 08-02-2015 18:25:00 1.4 C 4.21 g/m*3 1.4 C 3.2 km/h
2354 08-02-2015 18:30:00 1.3 C 4.24 g/m*3 1.3 C 3.2 km/h
2355 08-02-2015 18:35:00 1.2 C 4.26 g/m*3 1.2 C 3.2 km/h
2356 08-02-2015 18:40:00 1.1 C 4.29 g/m*3 1.1 C 3.2 km/h
2357 08-02-2015 18:45:00 1 C 4.26 g/m*3 1 C 3.2 km/h
2358 08-02-2015 18:50:00 1 C 4.26 g/m*3 1 C 3.2 km/h
2359 08-02-2015 18:55:00 1.1 C 4.29 g/m*3 1.1 C 3.2 km/h
2360 08-02-2015 19:00:00 1.2 C 4.26 g/m*3 1.2 C 3.2 km/h
2361 08-02-2015 19:05:00 1.3 C 4.29 g/m*3 1.3 C 3.2 km/h
2362 08-02-2015 19:10:00 1.3 C 4.29 g/m*3 1.3 C 3.2 km/h
2363 08-02-2015 19:15:00 1.3 C 4.29 g/m*3 1.3 C 1.6 km/h
2364 08-02-2015 19:20:00 1.2 C 4.26 g/m*3 1.2 C 3.2 km/h
2365 08-02-2015 19:25:00 1.1 C 4.29 g/m*3 1.1 C 4.8 km/h
2366 08-02-2015 19:30:00 0.9 C 4.28 g/m*3 0.9 C 4.8 km/h
2367 08-02-2015 19:35:00 0.9 C 4.28 g/m*3 0.9 C 1.6 km/h
2368 08-02-2015 19:40:00 1.2 C 4.26 g/m*3 1.2 C 3.2 km/h
2369 08-02-2015 19:45:00 1.3 C 4.24 g/m*3 1.3 C 3.2 km/h
2370 08-02-2015 19:50:00 1.3 C 4.24 g/m*3 1.3 C 4.8 km/h
2371 08-02-2015 19:55:00 1.3 C 4.19 g/m*3 1.3 C 4.8 km/h
2372 08-02-2015 20:00:00 1.3 C 4.24 g/m*3 1.3 C 3.2 km/h
2373 08-02-2015 20:05:00 1.1 C 4.23 g/m*3 1.1 C 3.2 km/h
2374 08-02-2015 20:10:00 1 C 4.31 g/m*3 1 C 3.2 km/h
2375 08-02-2015 20:15:00 0.9 C 4.23 g/m*3 0.9 C 1.6 km/h
Sensor: Nr:Datum:Temp:Abs-Feuchte:Windchill:Wind:
Aussen-T/F 2376 08-02-2015 20:20:00 0.7 C 4.17 g/m*3 0.7 C 3.2 km/h
2377 08-02-2015 20:25:00 0.7 C 4.22 g/m*3 0.7 C 4.8 km/h
2378 08-02-2015 20:30:00 0.6 C 4.24 g/m*3 0.6 C 1.6 km/h
2379 08-02-2015 20:35:00 0.5 C 4.21 g/m*3 0.5 C 1.6 km/h
2380 08-02-2015 20:40:00 0.4 C 4.23 g/m*3 0.4 C 3.2 km/h
2381 08-02-2015 20:45:00 0.3 C 4.25 g/m*3 0.3 C 1.6 km/h
2382 08-02-2015 20:50:00 0.2 C 4.22 g/m*3 0.2 C 1.6 km/h
2383 08-02-2015 20:55:00 0.1 C 4.2 g/m*3 0.1 C 4.8 km/h
2384 08-02-2015 21:00:00 0.1 C 4.24 g/m*3 0.1 C 3.2 km/h
2385 08-02-2015 21:05:00 0.1 C 4.24 g/m*3 0.1 C 1.6 km/h
2386 08-02-2015 21:10:00 0.1 C 4.29 g/m*3 0.1 C 1.6 km/h
2387 08-02-2015 21:15:00 0.1 C 4.29 g/m*3 0.1 C 3.2 km/h
2388 08-02-2015 21:20:00 0.1 C 4.29 g/m*3 0.1 C 1.6 km/h
2389 08-02-2015 21:25:00 0.1 C 4.29 g/m*3 0.1 C 1.6 km/h
2390 08-02-2015 21:30:00 0.1 C 4.29 g/m*3 0.1 C 1.6 km/h
2391 08-02-2015 21:35:00 0.1 C 4.29 g/m*3 0.1 C 3.2 km/h
2392 08-02-2015 21:40:00 0.1 C 4.29 g/m*3 -2.07 C 6.4 km/h
2393 08-02-2015 21:45:00 0.2 C 4.32 g/m*3 0.2 C 1.6 km/h
2394 08-02-2015 21:50:00 0.2 C 4.37 g/m*3 0.2 C 1.6 km/h
2395 08-02-2015 21:55:00 0.3 C 4.4 g/m*3 0.3 C 1.6 km/h
2396 08-02-2015 22:00:00 0.4 C 4.38 g/m*3 0.4 C 3.2 km/h
2397 08-02-2015 22:05:00 0.4 C 4.38 g/m*3 0.4 C 3.2 km/h
2398 08-02-2015 22:10:00 0.5 C 4.41 g/m*3 0.5 C 3.2 km/h
2399 08-02-2015 22:15:00 0.6 C 4.44 g/m*3 0.6 C 4.8 km/h
2400 08-02-2015 22:20:00 0.6 C 4.44 g/m*3 0.6 C 0 km/h
Sensor: Nr:Datum:Temp:Abs-Feuchte:Windchill:Wind:
Aussen-T/F 2401 08-02-2015 22:25:00 0.6 C 4.44 g/m*3 0.6 C 0 km/h
2402 08-02-2015 22:30:00 0.7 C 4.53 g/m*3 0.7 C 3.2 km/h
2403 08-02-2015 22:35:00 0.7 C 4.53 g/m*3 0.7 C 3.2 km/h
2404 08-02-2015 22:40:00 0.8 C 4.51 g/m*3 0.8 C 3.2 km/h
2405 08-02-2015 22:45:00 0.8 C 4.51 g/m*3 0.8 C 0 km/h
2406 08-02-2015 22:50:00 0.8 C 4.51 g/m*3 0.8 C 0 km/h
2407 08-02-2015 22:55:00 0.9 C 4.54 g/m*3 0.9 C 1.6 km/h
2408 08-02-2015 23:00:00 1 C 4.62 g/m*3 1 C 1.6 km/h
2409 08-02-2015 23:05:00 1.1 C 4.6 g/m*3 1.1 C 4.8 km/h
2410 08-02-2015 23:10:00 1.1 C 4.6 g/m*3 1.1 C 0 km/h
2411 08-02-2015 23:15:00 1.1 C 4.6 g/m*3 1.1 C 4.8 km/h
2412 08-02-2015 23:20:00 1.2 C 4.68 g/m*3 1.2 C 3.2 km/h
2413 08-02-2015 23:25:00 1.3 C 4.72 g/m*3 1.3 C 3.2 km/h
2414 08-02-2015 23:30:00 1.3 C 4.66 g/m*3 -0.68 C 6.4 km/h
2415 08-02-2015 23:35:00 1.3 C 4.61 g/m*3 1.3 C 4.8 km/h
2416 08-02-2015 23:40:00 1.4 C 4.69 g/m*3 1.4 C 3.2 km/h
2417 08-02-2015 23:45:00 1.4 C 4.69 g/m*3 1.4 C 1.6 km/h
2418 08-02-2015 23:50:00 1.5 C 4.67 g/m*3 1.5 C 4.8 km/h
2419 08-02-2015 23:55:00 1.6 C 4.7 g/m*3 1.6 C 3.2 km/h
2420 09-02-2015 00:00:00 1.5 C 4.67 g/m*3 1.5 C 3.2 km/h
2421 09-02-2015 00:05:00 1.5 C 4.67 g/m*3 1.5 C 1.6 km/h
2422 09-02-2015 00:10:00 1.5 C 4.67 g/m*3 1.5 C 1.6 km/h
2423 09-02-2015 00:15:00 1.4 C 4.64 g/m*3 1.4 C 3.2 km/h
2424 09-02-2015 00:20:00 1.4 C 4.64 g/m*3 1.4 C 3.2 km/h
2425 09-02-2015 00:25:00 1.4 C 4.64 g/m*3 1.4 C 0 km/h
Sensor: Nr:Datum:Temp:Abs-Feuchte:Windchill:Wind:
Aussen-T/F 2426 09-02-2015 00:30:00 1.4 C 4.69 g/m*3 1.4 C 1.6 km/h
2427 09-02-2015 00:35:00 1.4 C 4.69 g/m*3 1.4 C 0 km/h
2428 09-02-2015 00:40:00 1.4 C 4.69 g/m*3 1.4 C 0 km/h
2429 09-02-2015 00:45:00 1.4 C 4.69 g/m*3 1.4 C 3.2 km/h
2430 09-02-2015 00:50:00 1.4 C 4.69 g/m*3 1.4 C 0 km/h
2431 09-02-2015 00:55:00 1.4 C 4.69 g/m*3 1.4 C 0 km/h
2432 09-02-2015 01:00:00 1.4 C 4.75 g/m*3 1.4 C 0 km/h
2433 09-02-2015 01:05:00 1.4 C 4.75 g/m*3 1.4 C 1.6 km/h
2434 09-02-2015 01:10:00 1.4 C 4.75 g/m*3 1.4 C 1.6 km/h
2435 09-02-2015 01:15:00 1.5 C 4.78 g/m*3 1.5 C 0 km/h
2436 09-02-2015 01:20:00 1.5 C 4.78 g/m*3 1.5 C 1.6 km/h
2437 09-02-2015 01:25:00 1.4 C 4.75 g/m*3 1.4 C 0 km/h
2438 09-02-2015 01:30:00 1.4 C 4.75 g/m*3 1.4 C 0 km/h
2439 09-02-2015 01:35:00 1.5 C 4.78 g/m*3 1.5 C 0 km/h
2440 09-02-2015 01:40:00 1.6 C 4.87 g/m*3 1.6 C 3.2 km/h
2441 09-02-2015 01:45:00 1.6 C 4.87 g/m*3 1.6 C 4.8 km/h
2442 09-02-2015 01:50:00 1.7 C 4.85 g/m*3 1.7 C 3.2 km/h
2443 09-02-2015 01:55:00 1.7 C 4.9 g/m*3 1.7 C 0 km/h
2444 09-02-2015 02:00:00 1.7 C 4.9 g/m*3 1.7 C 0 km/h
2445 09-02-2015 02:05:00 1.7 C 4.9 g/m*3 1.7 C 1.6 km/h
2446 09-02-2015 02:10:00 1.7 C 4.9 g/m*3 1.7 C 1.6 km/h
2447 09-02-2015 02:15:00 1.7 C 4.9 g/m*3 1.7 C 1.6 km/h
2448 09-02-2015 02:20:00 1.7 C 4.9 g/m*3 1.7 C 3.2 km/h
2449 09-02-2015 02:25:00 1.7 C 4.9 g/m*3 1.7 C 1.6 km/h
2450 09-02-2015 02:30:00 1.7 C 4.9 g/m*3 1.7 C 0 km/h
Sensor: Nr:Datum:Temp:Abs-Feuchte:Windchill:Wind:
Aussen-T/F 2451 09-02-2015 02:35:00 1.7 C 4.9 g/m*3 1.7 C 1.6 km/h
2452 09-02-2015 02:40:00 1.7 C 4.9 g/m*3 1.7 C 1.6 km/h
2453 09-02-2015 02:45:00 1.7 C 4.9 g/m*3 1.7 C 0 km/h
2454 09-02-2015 02:50:00 1.7 C 4.9 g/m*3 1.7 C 0 km/h
2455 09-02-2015 02:55:00 1.7 C 4.9 g/m*3 1.7 C 1.6 km/h
2456 09-02-2015 03:00:00 1.7 C 4.9 g/m*3 1.7 C 1.6 km/h
2457 09-02-2015 03:05:00 1.7 C 4.9 g/m*3 1.7 C 3.2 km/h
2458 09-02-2015 03:10:00 1.8 C 4.93 g/m*3 1.8 C 0 km/h
2459 09-02-2015 03:15:00 1.8 C 4.99 g/m*3 1.8 C 1.6 km/h
2460 09-02-2015 03:20:00 1.8 C 4.93 g/m*3 1.8 C 3.2 km/h
2461 09-02-2015 03:25:00 1.8 C 4.93 g/m*3 1.8 C 0 km/h
2462 09-02-2015 03:30:00 1.8 C 4.93 g/m*3 1.8 C 0 km/h
2463 09-02-2015 03:35:00 1.7 C 4.9 g/m*3 1.7 C 1.6 km/h
2464 09-02-2015 03:40:00 1.7 C 4.9 g/m*3 1.7 C 4.8 km/h
2465 09-02-2015 03:45:00 1.9 C 5.08 g/m*3 1.9 C 4.8 km/h
2466 09-02-2015 03:50:00 2.1 C 5.09 g/m*3 2.1 C 4.8 km/h
2467 09-02-2015 03:55:00 2.1 C 5.04 g/m*3 2.1 C 3.2 km/h
2468 09-02-2015 04:00:00 2.2 C 5.13 g/m*3 2.2 C 1.6 km/h
2469 09-02-2015 04:05:00 2.3 C 5.16 g/m*3 2.3 C 4.8 km/h
2470 09-02-2015 04:10:00 2.4 C 5.2 g/m*3 2.4 C 3.2 km/h
2471 09-02-2015 04:15:00 2.5 C 5.29 g/m*3 2.5 C 3.2 km/h
2472 09-02-2015 04:20:00 2.6 C 5.27 g/m*3 0.82 C 6.4 km/h
2473 09-02-2015 04:25:00 2.5 C 5.23 g/m*3 2.5 C 4.8 km/h
2474 09-02-2015 04:30:00 2.5 C 5.23 g/m*3 2.5 C 4.8 km/h
2475 09-02-2015 04:35:00 2.4 C 5.2 g/m*3 2.4 C 1.6 km/h
Sensor: Nr:Datum:Temp:Abs-Feuchte:Windchill:Wind:
Aussen-T/F 2476 09-02-2015 04:40:00 2.4 C 5.25 g/m*3 2.4 C 3.2 km/h
2477 09-02-2015 04:45:00 2.4 C 5.25 g/m*3 2.4 C 1.6 km/h
2478 09-02-2015 04:50:00 2.4 C 5.25 g/m*3 2.4 C 1.6 km/h
2479 09-02-2015 04:55:00 2.4 C 5.25 g/m*3 2.4 C 4.8 km/h
2480 09-02-2015 05:00:00 2.4 C 5.25 g/m*3 2.4 C 3.2 km/h
2481 09-02-2015 05:05:00 2.4 C 5.25 g/m*3 2.4 C 3.2 km/h
2482 09-02-2015 05:10:00 2.4 C 5.25 g/m*3 2.4 C 0 km/h
2483 09-02-2015 05:15:00 2.3 C 5.22 g/m*3 2.3 C 4.8 km/h
2484 09-02-2015 05:20:00 2.3 C 5.22 g/m*3 2.3 C 1.6 km/h
2485 09-02-2015 05:25:00 2.3 C 5.27 g/m*3 2.3 C 1.6 km/h
2486 09-02-2015 05:30:00 2.3 C 5.27 g/m*3 2.3 C 4.8 km/h
2487 09-02-2015 05:35:00 2.3 C 5.27 g/m*3 2.3 C 1.6 km/h
2488 09-02-2015 05:40:00 2.3 C 5.27 g/m*3 2.3 C 1.6 km/h
2489 09-02-2015 05:45:00 2.4 C 5.31 g/m*3 2.4 C 1.6 km/h
2490 09-02-2015 05:50:00 2.4 C 5.31 g/m*3 2.4 C 3.2 km/h
2491 09-02-2015 05:55:00 2.5 C 5.35 g/m*3 2.5 C 3.2 km/h
2492 09-02-2015 06:00:00 2.5 C 5.35 g/m*3 2.5 C 3.2 km/h
2493 09-02-2015 06:05:00 2.5 C 5.35 g/m*3 2.5 C 3.2 km/h
2494 09-02-2015 06:10:00 2.6 C 5.38 g/m*3 2.6 C 4.8 km/h
2495 09-02-2015 06:15:00 2.6 C 5.32 g/m*3 2.6 C 1.6 km/h
2496 09-02-2015 06:20:00 2.6 C 5.32 g/m*3 2.6 C 3.2 km/h
2497 09-02-2015 06:25:00 2.7 C 5.36 g/m*3 0.94 C 6.4 km/h
2498 09-02-2015 06:30:00 2.8 C 5.34 g/m*3 2.8 C 3.2 km/h
2499 09-02-2015 06:35:00 2.9 C 5.37 g/m*3 2.9 C 1.6 km/h
2500 09-02-2015 06:40:00 2.9 C 5.32 g/m*3 2.9 C 1.6 km/h
Sensor: Nr:Datum:Temp:Abs-Feuchte:Windchill:Wind:
Aussen-T/F 2501 09-02-2015 06:45:00 2.9 C 5.32 g/m*3 2.9 C 1.6 km/h
2502 09-02-2015 06:50:00 2.9 C 5.32 g/m*3 2.9 C 0 km/h
2503 09-02-2015 06:55:00 2.8 C 5.34 g/m*3 2.8 C 3.2 km/h
2504 09-02-2015 07:00:00 2.8 C 5.34 g/m*3 2.8 C 1.6 km/h
2505 09-02-2015 07:05:00 2.8 C 5.34 g/m*3 2.8 C 1.6 km/h
2506 09-02-2015 07:10:00 2.8 C 5.34 g/m*3 2.8 C 4.8 km/h
2507 09-02-2015 07:15:00 2.8 C 5.34 g/m*3 2.8 C 3.2 km/h
2508 09-02-2015 07:20:00 2.9 C 5.37 g/m*3 2.9 C 1.6 km/h
2509 09-02-2015 07:25:00 3.1 C 5.45 g/m*3 0.87 C 8.1 km/h
2510 09-02-2015 07:30:00 3.3 C 5.52 g/m*3 1.11 C 8.1 km/h
2511 09-02-2015 07:35:00 3.6 C 5.57 g/m*3 1.98 C 6.4 km/h
2512 09-02-2015 07:40:00 3.7 C 5.61 g/m*3 1.58 C 8.1 km/h
2513 09-02-2015 07:45:00 4.1 C 5.76 g/m*3 1 C 12.9 km/h
2514 09-02-2015 07:50:00 4.3 C 5.77 g/m*3 1.89 C 9.7 km/h
2515 09-02-2015 07:55:00 4.3 C 5.77 g/m*3 1.24 C 12.9 km/h
2516 09-02-2015 08:00:00 4.4 C 5.81 g/m*3 1.67 C 11.3 km/h
2517 09-02-2015 08:05:00 4.3 C 5.77 g/m*3 1.89 C 9.7 km/h
2518 09-02-2015 08:10:00 4.3 C 5.77 g/m*3 1.89 C 9.7 km/h
2519 09-02-2015 08:15:00 4.3 C 5.77 g/m*3 2.29 C 8.1 km/h
2520 09-02-2015 08:20:00 4.2 C 5.73 g/m*3 4.2 C 4.8 km/h
2521 09-02-2015 08:25:00 4.2 C 5.67 g/m*3 1.77 C 9.7 km/h
2522 09-02-2015 08:30:00 4.2 C 5.67 g/m*3 2.17 C 8.1 km/h
2523 09-02-2015 08:35:00 4.3 C 5.64 g/m*3 0.97 C 14.5 km/h
2524 09-02-2015 08:40:00 4.3 C 5.64 g/m*3 0.97 C 14.5 km/h
2525 09-02-2015 08:45:00 4.4 C 5.68 g/m*3 0.84 C 16.1 km/h
Sensor: Nr:Datum:Temp:Abs-Feuchte:Windchill:Wind:
Aussen-T/F 2526 09-02-2015 08:50:00 4.4 C 5.62 g/m*3 0.84 C 16.1 km/h
2527 09-02-2015 08:55:00 4.4 C 5.62 g/m*3 4.4 C 4.8 km/h
2528 09-02-2015 09:00:00 4.5 C 5.65 g/m*3 1.79 C 11.3 km/h
2529 09-02-2015 09:05:00 4.6 C 5.69 g/m*3 2.25 C 9.7 km/h
2530 09-02-2015 09:10:00 4.6 C 5.62 g/m*3 2.64 C 8.1 km/h
2531 09-02-2015 09:15:00 4.6 C 5.62 g/m*3 3.13 C 6.4 km/h
2532 09-02-2015 09:20:00 4.7 C 5.6 g/m*3 3.25 C 6.4 km/h
2533 09-02-2015 09:25:00 4.7 C 5.6 g/m*3 2.76 C 8.1 km/h
2534 09-02-2015 09:30:00 4.7 C 5.6 g/m*3 2.37 C 9.7 km/h
2535 09-02-2015 09:35:00 4.7 C 5.6 g/m*3 2.76 C 8.1 km/h
2536 09-02-2015 09:40:00 4.7 C 5.6 g/m*3 4.7 C 4.8 km/h
2537 09-02-2015 09:45:00 4.7 C 5.6 g/m*3 2.37 C 9.7 km/h
2538 09-02-2015 09:50:00 4.7 C 5.6 g/m*3 2.76 C 8.1 km/h
2539 09-02-2015 09:55:00 4.7 C 5.6 g/m*3 2.37 C 9.7 km/h
2540 09-02-2015 10:00:00 4.8 C 5.63 g/m*3 2.87 C 8.1 km/h
2541 09-02-2015 10:05:00 4.8 C 5.63 g/m*3 2.15 C 11.3 km/h
2542 09-02-2015 10:10:00 4.9 C 5.67 g/m*3 2.99 C 8.1 km/h
2543 09-02-2015 10:15:00 4.9 C 5.74 g/m*3 3.48 C 6.4 km/h
2544 09-02-2015 10:20:00 4.9 C 5.74 g/m*3 2.61 C 9.7 km/h
2545 09-02-2015 10:25:00 4.9 C 5.81 g/m*3 2.61 C 9.7 km/h
2546 09-02-2015 10:30:00 4.9 C 5.81 g/m*3 3.48 C 6.4 km/h
2547 09-02-2015 10:35:00 4.9 C 5.87 g/m*3 2.99 C 8.1 km/h
2548 09-02-2015 10:40:00 4.9 C 5.94 g/m*3 3.48 C 6.4 km/h
2549 09-02-2015 10:45:00 4.8 C 5.9 g/m*3 3.36 C 6.4 km/h
2550 09-02-2015 10:50:00 4.7 C 5.93 g/m*3 2.37 C 9.7 km/h
Sensor: Nr:Datum:Temp:Abs-Feuchte:Windchill:Wind:
Aussen-T/F 2551 09-02-2015 10:55:00 4.7 C 5.93 g/m*3 4.7 C 4.8 km/h
2552 09-02-2015 11:00:00 4.7 C 6 g/m*3 2.76 C 8.1 km/h
2553 09-02-2015 11:05:00 4.6 C 5.96 g/m*3 3.13 C 6.4 km/h
2554 09-02-2015 11:10:00 4.6 C 6.02 g/m*3 3.13 C 6.4 km/h
2555 09-02-2015 11:15:00 4.6 C 6.02 g/m*3 2.64 C 8.1 km/h
2556 09-02-2015 11:20:00 4.7 C 6.06 g/m*3 4.7 C 4.8 km/h
2557 09-02-2015 11:25:00 4.7 C 6.06 g/m*3 4.7 C 4.8 km/h
2558 09-02-2015 11:30:00 4.8 C 6.04 g/m*3 2.87 C 8.1 km/h
2559 09-02-2015 11:35:00 4.8 C 6.04 g/m*3 4.8 C 4.8 km/h
2560 09-02-2015 11:40:00 4.8 C 6.04 g/m*3 3.36 C 6.4 km/h
2561 09-02-2015 11:45:00 4.8 C 5.97 g/m*3 3.36 C 6.4 km/h
2562 09-02-2015 11:50:00 4.9 C 6.08 g/m*3 2.99 C 8.1 km/h
2563 09-02-2015 11:55:00 5 C 6.05 g/m*3 2.39 C 11.3 km/h
2564 09-02-2015 12:00:00 5.1 C 6.09 g/m*3 2.84 C 9.7 km/h
2565 09-02-2015 12:05:00 5.1 C 6.09 g/m*3 3.71 C 6.4 km/h
2566 09-02-2015 12:10:00 5.2 C 6.13 g/m*3 5.2 C 4.8 km/h
2567 09-02-2015 12:15:00 5.3 C 6.17 g/m*3 5.3 C 4.8 km/h
2568 09-02-2015 12:20:00 5.4 C 6.21 g/m*3 4.06 C 6.4 km/h
2569 09-02-2015 12:25:00 5.6 C 6.29 g/m*3 3.44 C 9.7 km/h
2570 09-02-2015 12:30:00 5.7 C 6.26 g/m*3 3.56 C 9.7 km/h
2571 09-02-2015 12:35:00 5.8 C 6.3 g/m*3 3.07 C 12.9 km/h
2572 09-02-2015 12:40:00 5.8 C 6.3 g/m*3 3.07 C 12.9 km/h
2573 09-02-2015 12:45:00 5.8 C 6.3 g/m*3 4.05 C 8.1 km/h
2574 09-02-2015 12:50:00 5.8 C 6.3 g/m*3 4.52 C 6.4 km/h
2575 09-02-2015 12:55:00 5.9 C 6.42 g/m*3 3.48 C 11.3 km/h
Sensor: Nr:Datum:Temp:Abs-Feuchte:Windchill:Wind:
Aussen-T/F 2576 09-02-2015 13:00:00 5.9 C 6.35 g/m*3 2.93 C 14.5 km/h
2577 09-02-2015 13:05:00 5.9 C 6.42 g/m*3 3.19 C 12.9 km/h
2578 09-02-2015 13:10:00 5.9 C 6.42 g/m*3 3.8 C 9.7 km/h
2579 09-02-2015 13:15:00 5.9 C 6.35 g/m*3 5.9 C 4.8 km/h
2580 09-02-2015 13:20:00 5.9 C 6.35 g/m*3 4.17 C 8.1 km/h
2581 09-02-2015 13:25:00 5.9 C 6.35 g/m*3 5.9 C 3.2 km/h
2582 09-02-2015 13:30:00 5.8 C 6.38 g/m*3 3.36 C 11.3 km/h
2583 09-02-2015 13:35:00 5.8 C 6.38 g/m*3 3.36 C 11.3 km/h
2584 09-02-2015 13:40:00 5.7 C 6.33 g/m*3 2.45 C 16.1 km/h
2585 09-02-2015 13:45:00 5.7 C 6.33 g/m*3 3.93 C 8.1 km/h
2586 09-02-2015 13:50:00 5.7 C 6.33 g/m*3 2.95 C 12.9 km/h
2587 09-02-2015 13:55:00 5.8 C 6.38 g/m*3 3.07 C 12.9 km/h
2588 09-02-2015 14:00:00 5.8 C 6.3 g/m*3 4.05 C 8.1 km/h
2589 09-02-2015 14:05:00 5.8 C 6.38 g/m*3 5.8 C 3.2 km/h
2590 09-02-2015 14:10:00 5.8 C 6.38 g/m*3 3.68 C 9.7 km/h
2591 09-02-2015 14:15:00 5.7 C 6.33 g/m*3 2.95 C 12.9 km/h
2592 09-02-2015 14:20:00 5.7 C 6.4 g/m*3 3.56 C 9.7 km/h
2593 09-02-2015 14:25:00 5.6 C 6.36 g/m*3 3.81 C 8.1 km/h
2594 09-02-2015 14:30:00 5.4 C 6.35 g/m*3 3.2 C 9.7 km/h
2595 09-02-2015 14:35:00 5.4 C 6.35 g/m*3 4.06 C 6.4 km/h
2596 09-02-2015 14:40:00 5.3 C 6.31 g/m*3 5.3 C 4.8 km/h
2597 09-02-2015 14:45:00 5.3 C 6.31 g/m*3 5.3 C 3.2 km/h
2598 09-02-2015 14:50:00 5.3 C 6.31 g/m*3 5.3 C 1.6 km/h
2599 09-02-2015 14:55:00 5.3 C 6.31 g/m*3 3.94 C 6.4 km/h
2600 09-02-2015 15:00:00 5.3 C 6.31 g/m*3 3.08 C 9.7 km/h
Sensor: Nr:Datum:Temp:Abs-Feuchte:Windchill:Wind:
Aussen-T/F 2601 09-02-2015 15:05:00 5.3 C 6.31 g/m*3 3.94 C 6.4 km/h
2602 09-02-2015 15:10:00 5.3 C 6.31 g/m*3 3.46 C 8.1 km/h
2603 09-02-2015 15:15:00 5.3 C 6.31 g/m*3 3.08 C 9.7 km/h
2604 09-02-2015 15:20:00 5.3 C 6.31 g/m*3 3.08 C 9.7 km/h
2605 09-02-2015 15:25:00 5.3 C 6.31 g/m*3 5.3 C 4.8 km/h
2606 09-02-2015 15:30:00 5.3 C 6.38 g/m*3 5.3 C 4.8 km/h
2607 09-02-2015 15:35:00 5.2 C 6.33 g/m*3 5.2 C 4.8 km/h
2608 09-02-2015 15:40:00 5.2 C 6.33 g/m*3 5.2 C 4.8 km/h
2609 09-02-2015 15:45:00 5.2 C 6.33 g/m*3 3.82 C 6.4 km/h
2610 09-02-2015 15:50:00 5.2 C 6.4 g/m*3 5.2 C 0 km/h
2611 09-02-2015 15:55:00 5.1 C 6.36 g/m*3 5.1 C 4.8 km/h
2612 09-02-2015 16:00:00 5.1 C 6.36 g/m*3 5.1 C 4.8 km/h
2613 09-02-2015 16:05:00 5.1 C 6.36 g/m*3 5.1 C 4.8 km/h
2614 09-02-2015 16:10:00 5.1 C 6.36 g/m*3 3.71 C 6.4 km/h
2615 09-02-2015 16:15:00 5.1 C 6.36 g/m*3 2.51 C 11.3 km/h
2616 09-02-2015 16:20:00 5.1 C 6.36 g/m*3 5.1 C 3.2 km/h
2617 09-02-2015 16:25:00 5.1 C 6.36 g/m*3 5.1 C 3.2 km/h
2618 09-02-2015 16:30:00 5.1 C 6.36 g/m*3 5.1 C 1.6 km/h
2619 09-02-2015 16:35:00 5.1 C 6.36 g/m*3 5.1 C 3.2 km/h
2620 09-02-2015 16:40:00 5 C 6.32 g/m*3 5 C 4.8 km/h
2621 09-02-2015 16:45:00 5.1 C 6.36 g/m*3 5.1 C 3.2 km/h
2622 09-02-2015 16:50:00 5.1 C 6.36 g/m*3 5.1 C 4.8 km/h
2623 09-02-2015 16:55:00 5.1 C 6.36 g/m*3 5.1 C 3.2 km/h
2624 09-02-2015 17:00:00 5 C 6.32 g/m*3 5 C 3.2 km/h
2625 09-02-2015 17:05:00 5 C 6.32 g/m*3 5 C 3.2 km/h
Sensor: Nr:Datum:Temp:Abs-Feuchte:Windchill:Wind:
Aussen-T/F 2626 09-02-2015 17:10:00 4.9 C 6.28 g/m*3 4.9 C 3.2 km/h
2627 09-02-2015 17:15:00 4.9 C 6.28 g/m*3 4.9 C 3.2 km/h
2628 09-02-2015 17:20:00 4.9 C 6.28 g/m*3 4.9 C 3.2 km/h
2629 09-02-2015 17:25:00 4.9 C 6.28 g/m*3 3.48 C 6.4 km/h
2630 09-02-2015 17:30:00 4.9 C 6.28 g/m*3 4.9 C 1.6 km/h
2631 09-02-2015 17:35:00 4.9 C 6.28 g/m*3 4.9 C 4.8 km/h
2632 09-02-2015 17:40:00 4.9 C 6.35 g/m*3 4.9 C 3.2 km/h
2633 09-02-2015 17:45:00 4.9 C 6.35 g/m*3 4.9 C 3.2 km/h
2634 09-02-2015 17:50:00 4.9 C 6.28 g/m*3 4.9 C 4.8 km/h
2635 09-02-2015 17:55:00 4.9 C 6.28 g/m*3 4.9 C 4.8 km/h
2636 09-02-2015 18:00:00 5 C 6.32 g/m*3 5 C 3.2 km/h
2637 09-02-2015 18:05:00 5 C 6.32 g/m*3 5 C 4.8 km/h
2638 09-02-2015 18:10:00 5 C 6.32 g/m*3 5 C 4.8 km/h
2639 09-02-2015 18:15:00 5.1 C 6.36 g/m*3 3.23 C 8.1 km/h
2640 09-02-2015 18:20:00 5.1 C 6.36 g/m*3 3.71 C 6.4 km/h
2641 09-02-2015 18:25:00 5.1 C 6.36 g/m*3 5.1 C 3.2 km/h
2642 09-02-2015 18:30:00 5.1 C 6.36 g/m*3 3.23 C 8.1 km/h
2643 09-02-2015 18:35:00 5.1 C 6.36 g/m*3 5.1 C 3.2 km/h
2644 09-02-2015 18:40:00 5.1 C 6.36 g/m*3 3.71 C 6.4 km/h
2645 09-02-2015 18:45:00 5.1 C 6.36 g/m*3 3.71 C 6.4 km/h
2646 09-02-2015 18:50:00 5.1 C 6.36 g/m*3 5.1 C 1.6 km/h
2647 09-02-2015 18:55:00 5.1 C 6.36 g/m*3 5.1 C 1.6 km/h
2648 09-02-2015 19:00:00 5.1 C 6.36 g/m*3 5.1 C 3.2 km/h
2649 09-02-2015 19:05:00 5.1 C 6.36 g/m*3 5.1 C 3.2 km/h
2650 09-02-2015 19:10:00 5.1 C 6.36 g/m*3 5.1 C 0 km/h
Sensor: Nr:Datum:Temp:Abs-Feuchte:Windchill:Wind:
Aussen-T/F 2651 09-02-2015 19:15:00 5.1 C 6.36 g/m*3 3.71 C 6.4 km/h
2652 09-02-2015 19:20:00 5.1 C 6.36 g/m*3 5.1 C 0 km/h
2653 09-02-2015 19:25:00 5.1 C 6.36 g/m*3 5.1 C 3.2 km/h
2654 09-02-2015 19:30:00 5.1 C 6.43 g/m*3 5.1 C 1.6 km/h
2655 09-02-2015 19:35:00 5 C 6.39 g/m*3 5 C 4.8 km/h
2656 09-02-2015 19:40:00 5 C 6.39 g/m*3 5 C 3.2 km/h
2657 09-02-2015 19:45:00 5 C 6.39 g/m*3 2.09 C 12.9 km/h
2658 09-02-2015 19:50:00 5.1 C 6.43 g/m*3 5.1 C 1.6 km/h
2659 09-02-2015 19:55:00 5.1 C 6.43 g/m*3 5.1 C 3.2 km/h
2660 09-02-2015 20:00:00 5.1 C 6.43 g/m*3 5.1 C 3.2 km/h
2661 09-02-2015 20:05:00 5.1 C 6.36 g/m*3 5.1 C 1.6 km/h
2662 09-02-2015 20:10:00 5 C 6.32 g/m*3 5 C 1.6 km/h
2663 09-02-2015 20:15:00 5 C 6.39 g/m*3 5 C 1.6 km/h
2664 09-02-2015 20:20:00 5 C 6.39 g/m*3 5 C 1.6 km/h
2665 09-02-2015 20:25:00 4.9 C 6.28 g/m*3 4.9 C 3.2 km/h
2666 09-02-2015 20:30:00 5 C 6.39 g/m*3 5 C 3.2 km/h
2667 09-02-2015 20:35:00 5 C 6.32 g/m*3 5 C 0 km/h
2668 09-02-2015 20:40:00 5 C 6.32 g/m*3 5 C 1.6 km/h
2669 09-02-2015 20:45:00 5 C 6.32 g/m*3 5 C 0 km/h
2670 09-02-2015 20:50:00 4.9 C 6.35 g/m*3 4.9 C 3.2 km/h
2671 09-02-2015 20:55:00 5 C 6.39 g/m*3 5 C 1.6 km/h
2672 09-02-2015 21:00:00 5 C 6.39 g/m*3 5 C 0 km/h
2673 09-02-2015 21:05:00 5 C 6.39 g/m*3 5 C 4.8 km/h
2674 09-02-2015 21:10:00 5 C 6.39 g/m*3 5 C 0 km/h
2675 09-02-2015 21:15:00 5 C 6.39 g/m*3 5 C 4.8 km/h
Sensor: Nr:Datum:Temp:Abs-Feuchte:Windchill:Wind:
Aussen-T/F 2676 09-02-2015 21:20:00 5.1 C 6.43 g/m*3 5.1 C 4.8 km/h
2677 09-02-2015 21:25:00 5.1 C 6.43 g/m*3 5.1 C 4.8 km/h
2678 09-02-2015 21:30:00 5.1 C 6.43 g/m*3 5.1 C 0 km/h
2679 09-02-2015 21:35:00 5.1 C 6.5 g/m*3 5.1 C 1.6 km/h
2680 09-02-2015 21:40:00 4.9 C 6.35 g/m*3 4.9 C 0 km/h
2681 09-02-2015 21:45:00 4.9 C 6.41 g/m*3 4.9 C 0 km/h
2682 09-02-2015 21:50:00 4.8 C 6.37 g/m*3 4.8 C 0 km/h
2683 09-02-2015 21:55:00 4.8 C 6.37 g/m*3 4.8 C 3.2 km/h
2684 09-02-2015 22:00:00 4.8 C 6.37 g/m*3 4.8 C 0 km/h
2685 09-02-2015 22:05:00 4.7 C 6.33 g/m*3 4.7 C 3.2 km/h
2686 09-02-2015 22:10:00 4.7 C 6.33 g/m*3 4.7 C 3.2 km/h
2687 09-02-2015 22:15:00 4.7 C 6.33 g/m*3 4.7 C 1.6 km/h
2688 09-02-2015 22:20:00 4.7 C 6.39 g/m*3 4.7 C 1.6 km/h
2689 09-02-2015 22:25:00 4.7 C 6.39 g/m*3 4.7 C 1.6 km/h
2690 09-02-2015 22:30:00 4.7 C 6.39 g/m*3 4.7 C 0 km/h
2691 09-02-2015 22:35:00 4.7 C 6.39 g/m*3 4.7 C 1.6 km/h
2692 09-02-2015 22:40:00 4.7 C 6.39 g/m*3 4.7 C 3.2 km/h
2693 09-02-2015 22:45:00 4.7 C 6.39 g/m*3 4.7 C 1.6 km/h
2694 09-02-2015 22:50:00 4.6 C 6.35 g/m*3 4.6 C 0 km/h
2695 09-02-2015 22:55:00 4.7 C 6.39 g/m*3 4.7 C 3.2 km/h
2696 09-02-2015 23:00:00 4.7 C 6.39 g/m*3 4.7 C 4.8 km/h
2697 09-02-2015 23:05:00 4.7 C 6.39 g/m*3 4.7 C 1.6 km/h
2698 09-02-2015 23:10:00 4.7 C 6.39 g/m*3 4.7 C 0 km/h
2699 09-02-2015 23:15:00 4.7 C 6.39 g/m*3 4.7 C 1.6 km/h
2700 09-02-2015 23:20:00 4.7 C 6.39 g/m*3 4.7 C 1.6 km/h
Sensor: Nr:Datum:Temp:Abs-Feuchte:Windchill:Wind:
Aussen-T/F 2701 09-02-2015 23:25:00 4.7 C 6.39 g/m*3 4.7 C 3.2 km/h
2702 09-02-2015 23:30:00 4.7 C 6.39 g/m*3 4.7 C 3.2 km/h
2703 09-02-2015 23:35:00 4.7 C 6.39 g/m*3 4.7 C 3.2 km/h
2704 09-02-2015 23:40:00 4.7 C 6.39 g/m*3 4.7 C 4.8 km/h
2705 09-02-2015 23:45:00 4.7 C 6.39 g/m*3 4.7 C 1.6 km/h
2706 09-02-2015 23:50:00 4.7 C 6.39 g/m*3 4.7 C 1.6 km/h
2707 09-02-2015 23:55:00 4.7 C 6.39 g/m*3 4.7 C 4.8 km/h
2708 10-02-2015 00:00:00 4.7 C 6.33 g/m*3 3.25 C 6.4 km/h
2709 10-02-2015 00:05:00 4.7 C 6.33 g/m*3 4.7 C 1.6 km/h
2710 10-02-2015 00:10:00 4.6 C 6.29 g/m*3 4.6 C 1.6 km/h
2711 10-02-2015 00:15:00 4.7 C 6.33 g/m*3 4.7 C 0 km/h
2712 10-02-2015 00:20:00 4.6 C 6.29 g/m*3 4.6 C 0 km/h
2713 10-02-2015 00:25:00 4.6 C 6.29 g/m*3 4.6 C 3.2 km/h
2714 10-02-2015 00:30:00 4.5 C 6.24 g/m*3 4.5 C 0 km/h
2715 10-02-2015 00:35:00 4.4 C 6.27 g/m*3 4.4 C 0 km/h
2716 10-02-2015 00:40:00 4.4 C 6.27 g/m*3 4.4 C 0 km/h
2717 10-02-2015 00:45:00 4.4 C 6.27 g/m*3 4.4 C 0 km/h
2718 10-02-2015 00:50:00 4.3 C 6.23 g/m*3 4.3 C 0 km/h
2719 10-02-2015 00:55:00 4.3 C 6.23 g/m*3 4.3 C 0 km/h
2720 10-02-2015 01:00:00 4.3 C 6.23 g/m*3 4.3 C 0 km/h
2721 10-02-2015 01:05:00 4.3 C 6.23 g/m*3 4.3 C 1.6 km/h
2722 10-02-2015 01:10:00 4.3 C 6.23 g/m*3 4.3 C 0 km/h
2723 10-02-2015 01:15:00 4.3 C 6.23 g/m*3 4.3 C 1.6 km/h
2724 10-02-2015 01:20:00 4.3 C 6.23 g/m*3 4.3 C 0 km/h
2725 10-02-2015 01:25:00 4.2 C 6.19 g/m*3 4.2 C 3.2 km/h
Sensor: Nr:Datum:Temp:Abs-Feuchte:Windchill:Wind:
Aussen-T/F 2726 10-02-2015 01:30:00 4.2 C 6.19 g/m*3 4.2 C 0 km/h
2727 10-02-2015 01:35:00 4.2 C 6.19 g/m*3 4.2 C 0 km/h
2728 10-02-2015 01:40:00 4.2 C 6.19 g/m*3 4.2 C 0 km/h
2729 10-02-2015 01:45:00 4.2 C 6.19 g/m*3 4.2 C 0 km/h
2730 10-02-2015 01:50:00 4.2 C 6.19 g/m*3 4.2 C 1.6 km/h
2731 10-02-2015 01:55:00 4.2 C 6.25 g/m*3 4.2 C 1.6 km/h
2732 10-02-2015 02:00:00 4.2 C 6.19 g/m*3 4.2 C 0 km/h
2733 10-02-2015 02:05:00 4.2 C 6.19 g/m*3 4.2 C 1.6 km/h
2734 10-02-2015 02:10:00 4.2 C 6.19 g/m*3 4.2 C 3.2 km/h
2735 10-02-2015 02:15:00 4.2 C 6.19 g/m*3 4.2 C 1.6 km/h
2736 10-02-2015 02:20:00 4.2 C 6.19 g/m*3 4.2 C 3.2 km/h
2737 10-02-2015 02:25:00 4.2 C 6.19 g/m*3 4.2 C 1.6 km/h
2738 10-02-2015 02:30:00 4.2 C 6.19 g/m*3 4.2 C 1.6 km/h
2739 10-02-2015 02:35:00 4.2 C 6.19 g/m*3 4.2 C 1.6 km/h
2740 10-02-2015 02:40:00 4.2 C 6.19 g/m*3 4.2 C 1.6 km/h
2741 10-02-2015 02:45:00 4.2 C 6.25 g/m*3 4.2 C 3.2 km/h
2742 10-02-2015 02:50:00 4.2 C 6.25 g/m*3 4.2 C 3.2 km/h
2743 10-02-2015 02:55:00 4.2 C 6.19 g/m*3 4.2 C 3.2 km/h
2744 10-02-2015 03:00:00 4.2 C 6.19 g/m*3 4.2 C 3.2 km/h
2745 10-02-2015 03:05:00 4.3 C 6.23 g/m*3 4.3 C 3.2 km/h
2746 10-02-2015 03:10:00 4.3 C 6.23 g/m*3 4.3 C 0 km/h
2747 10-02-2015 03:15:00 4.3 C 6.23 g/m*3 4.3 C 0 km/h
2748 10-02-2015 03:20:00 4.3 C 6.23 g/m*3 4.3 C 0 km/h
2749 10-02-2015 03:25:00 4.3 C 6.23 g/m*3 4.3 C 0 km/h
2750 10-02-2015 03:30:00 4.3 C 6.23 g/m*3 4.3 C 1.6 km/h
Sensor: Nr:Datum:Temp:Abs-Feuchte:Windchill:Wind:
Aussen-T/F 2751 10-02-2015 03:35:00 4.3 C 6.29 g/m*3 4.3 C 1.6 km/h
2752 10-02-2015 03:40:00 4.3 C 6.23 g/m*3 4.3 C 0 km/h
2753 10-02-2015 03:45:00 4.3 C 6.23 g/m*3 4.3 C 0 km/h
2754 10-02-2015 03:50:00 4.2 C 6.19 g/m*3 4.2 C 3.2 km/h
2755 10-02-2015 03:55:00 4.3 C 6.23 g/m*3 4.3 C 3.2 km/h
2756 10-02-2015 04:00:00 4.2 C 6.19 g/m*3 4.2 C 1.6 km/h
2757 10-02-2015 04:05:00 4.2 C 6.19 g/m*3 4.2 C 1.6 km/h
2758 10-02-2015 04:10:00 4.2 C 6.25 g/m*3 4.2 C 3.2 km/h
2759 10-02-2015 04:15:00 4.2 C 6.25 g/m*3 4.2 C 0 km/h
2760 10-02-2015 04:20:00 4.3 C 6.29 g/m*3 4.3 C 0 km/h
2761 10-02-2015 04:25:00 4.3 C 6.29 g/m*3 4.3 C 0 km/h
2762 10-02-2015 04:30:00 4.3 C 6.29 g/m*3 4.3 C 0 km/h
2763 10-02-2015 04:35:00 4.3 C 6.23 g/m*3 4.3 C 0 km/h
2764 10-02-2015 04:40:00 4.3 C 6.29 g/m*3 4.3 C 0 km/h
2765 10-02-2015 04:45:00 4.3 C 6.29 g/m*3 4.3 C 0 km/h
2766 10-02-2015 04:50:00 4.3 C 6.29 g/m*3 4.3 C 1.6 km/h
2767 10-02-2015 04:55:00 4.3 C 6.29 g/m*3 4.3 C 1.6 km/h
2768 10-02-2015 05:00:00 4.3 C 6.29 g/m*3 4.3 C 0 km/h
2769 10-02-2015 05:05:00 4.3 C 6.29 g/m*3 4.3 C 0 km/h
2770 10-02-2015 05:10:00 4.3 C 6.29 g/m*3 4.3 C 0 km/h
2771 10-02-2015 05:15:00 4.3 C 6.29 g/m*3 4.3 C 1.6 km/h
2772 10-02-2015 05:20:00 4.3 C 6.29 g/m*3 4.3 C 0 km/h
2773 10-02-2015 05:25:00 4.3 C 6.29 g/m*3 4.3 C 0 km/h
2774 10-02-2015 05:30:00 4.3 C 6.29 g/m*3 4.3 C 0 km/h
2775 10-02-2015 05:35:00 4.3 C 6.29 g/m*3 4.3 C 0 km/h
Sensor: Nr:Datum:Temp:Abs-Feuchte:Windchill:Wind:
Aussen-T/F 2776 10-02-2015 05:40:00 4.2 C 6.25 g/m*3 4.2 C 0 km/h
2777 10-02-2015 05:45:00 4.2 C 6.25 g/m*3 4.2 C 1.6 km/h
2778 10-02-2015 05:50:00 4.2 C 6.25 g/m*3 4.2 C 0 km/h
2779 10-02-2015 05:55:00 4.3 C 6.29 g/m*3 4.3 C 0 km/h
2780 10-02-2015 06:00:00 4.2 C 6.25 g/m*3 4.2 C 0 km/h
2781 10-02-2015 06:05:00 4.2 C 6.25 g/m*3 4.2 C 0 km/h
2782 10-02-2015 06:10:00 4.2 C 6.25 g/m*3 4.2 C 0 km/h
2783 10-02-2015 06:15:00 4.2 C 6.25 g/m*3 4.2 C 0 km/h
2784 10-02-2015 06:20:00 4.2 C 6.25 g/m*3 4.2 C 0 km/h
2785 10-02-2015 06:25:00 4.2 C 6.25 g/m*3 4.2 C 0 km/h
2786 10-02-2015 06:30:00 4.3 C 6.29 g/m*3 4.3 C 0 km/h
2787 10-02-2015 06:35:00 4.3 C 6.29 g/m*3 4.3 C 0 km/h
2788 10-02-2015 06:40:00 4.2 C 6.25 g/m*3 4.2 C 0 km/h
2789 10-02-2015 06:45:00 4.2 C 6.25 g/m*3 4.2 C 1.6 km/h
2790 10-02-2015 06:50:00 4.3 C 6.29 g/m*3 4.3 C 0 km/h
2791 10-02-2015 06:55:00 4.3 C 6.29 g/m*3 4.3 C 0 km/h
2792 10-02-2015 07:00:00 4.3 C 6.29 g/m*3 4.3 C 3.2 km/h
2793 10-02-2015 07:05:00 4.4 C 6.33 g/m*3 4.4 C 0 km/h
2794 10-02-2015 07:10:00 4.4 C 6.33 g/m*3 4.4 C 0 km/h
2795 10-02-2015 07:15:00 4.4 C 6.33 g/m*3 4.4 C 3.2 km/h
2796 10-02-2015 07:20:00 4.4 C 6.33 g/m*3 4.4 C 1.6 km/h
2797 10-02-2015 07:25:00 4.4 C 6.33 g/m*3 4.4 C 0 km/h
2798 10-02-2015 07:30:00 4.4 C 6.33 g/m*3 4.4 C 1.6 km/h
2799 10-02-2015 07:35:00 4.4 C 6.33 g/m*3 4.4 C 0 km/h
2800 10-02-2015 07:40:00 4.4 C 6.33 g/m*3 4.4 C 0 km/h
Sensor: Nr:Datum:Temp:Abs-Feuchte:Windchill:Wind:
Aussen-T/F 2801 10-02-2015 07:45:00 4.4 C 6.33 g/m*3 4.4 C 0 km/h
2802 10-02-2015 07:50:00 4.4 C 6.33 g/m*3 4.4 C 1.6 km/h
2803 10-02-2015 07:55:00 4.4 C 6.33 g/m*3 4.4 C 0 km/h
2804 10-02-2015 08:00:00 4.4 C 6.33 g/m*3 4.4 C 0 km/h
2805 10-02-2015 08:05:00 4.4 C 6.33 g/m*3 4.4 C 3.2 km/h
2806 10-02-2015 08:10:00 4.3 C 6.29 g/m*3 4.3 C 1.6 km/h
2807 10-02-2015 08:15:00 4.4 C 6.33 g/m*3 4.4 C 0 km/h
2808 10-02-2015 08:20:00 4.4 C 6.33 g/m*3 4.4 C 1.6 km/h
2809 10-02-2015 08:25:00 4.4 C 6.33 g/m*3 4.4 C 1.6 km/h
2810 10-02-2015 08:30:00 4.4 C 6.33 g/m*3 4.4 C 0 km/h
2811 10-02-2015 08:35:00 4.4 C 6.33 g/m*3 4.4 C 1.6 km/h
2812 10-02-2015 08:40:00 4.4 C 6.33 g/m*3 4.4 C 0 km/h
2813 10-02-2015 08:45:00 4.4 C 6.33 g/m*3 4.4 C 1.6 km/h
2814 10-02-2015 08:50:00 4.5 C 6.38 g/m*3 4.5 C 1.6 km/h
2815 10-02-2015 08:55:00 4.6 C 6.42 g/m*3 4.6 C 0 km/h
2816 10-02-2015 09:00:00 4.6 C 6.42 g/m*3 4.6 C 1.6 km/h
2817 10-02-2015 09:05:00 4.6 C 6.42 g/m*3 4.6 C 0 km/h
2818 10-02-2015 09:10:00 4.6 C 6.42 g/m*3 4.6 C 0 km/h
2819 10-02-2015 09:15:00 4.5 C 6.38 g/m*3 4.5 C 0 km/h
2820 10-02-2015 09:20:00 4.5 C 6.38 g/m*3 4.5 C 0 km/h
2821 10-02-2015 09:25:00 4.6 C 6.42 g/m*3 4.6 C 0 km/h
2822 10-02-2015 09:30:00 4.7 C 6.46 g/m*3 4.7 C 0 km/h
2823 10-02-2015 09:35:00 4.7 C 6.46 g/m*3 4.7 C 0 km/h
2824 10-02-2015 09:40:00 4.8 C 6.5 g/m*3 4.8 C 0 km/h
2825 10-02-2015 09:45:00 4.8 C 6.5 g/m*3 4.8 C 0 km/h
Sensor: Nr:Datum:Temp:Abs-Feuchte:Windchill:Wind:
Aussen-T/F 2826 10-02-2015 09:50:00 4.8 C 6.5 g/m*3 4.8 C 0 km/h
2827 10-02-2015 09:55:00 4.8 C 6.5 g/m*3 4.8 C 0 km/h
2828 10-02-2015 10:00:00 4.8 C 6.5 g/m*3 4.8 C 3.2 km/h
2829 10-02-2015 10:05:00 4.9 C 6.55 g/m*3 4.9 C 1.6 km/h
2830 10-02-2015 10:10:00 4.9 C 6.55 g/m*3 4.9 C 3.2 km/h
2831 10-02-2015 10:15:00 4.9 C 6.55 g/m*3 4.9 C 0 km/h
2832 10-02-2015 10:20:00 5 C 6.59 g/m*3 5 C 0 km/h
2833 10-02-2015 10:25:00 5.1 C 6.63 g/m*3 5.1 C 1.6 km/h
2834 10-02-2015 10:30:00 5.1 C 6.63 g/m*3 5.1 C 0 km/h
2835 10-02-2015 10:35:00 5.2 C 6.68 g/m*3 5.2 C 0 km/h
2836 10-02-2015 10:40:00 5.2 C 6.68 g/m*3 5.2 C 0 km/h
2837 10-02-2015 10:45:00 5.3 C 6.72 g/m*3 5.3 C 1.6 km/h
2838 10-02-2015 10:50:00 5.4 C 6.77 g/m*3 5.4 C 1.6 km/h
2839 10-02-2015 10:55:00 5.5 C 6.74 g/m*3 5.5 C 4.8 km/h
2840 10-02-2015 11:00:00 5.6 C 6.79 g/m*3 5.6 C 1.6 km/h
2841 10-02-2015 11:05:00 5.6 C 6.79 g/m*3 5.6 C 3.2 km/h
2842 10-02-2015 11:10:00 5.6 C 6.72 g/m*3 5.6 C 0 km/h
2843 10-02-2015 11:15:00 5.6 C 6.72 g/m*3 5.6 C 0 km/h
2844 10-02-2015 11:20:00 5.7 C 6.76 g/m*3 5.7 C 0 km/h
2845 10-02-2015 11:25:00 5.7 C 6.76 g/m*3 5.7 C 0 km/h
2846 10-02-2015 11:30:00 5.7 C 6.69 g/m*3 5.7 C 3.2 km/h
2847 10-02-2015 11:35:00 5.8 C 6.73 g/m*3 5.8 C 0 km/h
2848 10-02-2015 11:40:00 5.8 C 6.66 g/m*3 5.8 C 3.2 km/h
2849 10-02-2015 11:45:00 5.8 C 6.66 g/m*3 5.8 C 1.6 km/h
2850 10-02-2015 11:50:00 5.8 C 6.66 g/m*3 5.8 C 1.6 km/h
Sensor: Nr:Datum:Temp:Abs-Feuchte:Windchill:Wind:
Aussen-T/F 2851 10-02-2015 11:55:00 5.8 C 6.66 g/m*3 5.8 C 4.8 km/h
2852 10-02-2015 12:00:00 5.8 C 6.59 g/m*3 5.8 C 1.6 km/h
2853 10-02-2015 12:05:00 5.8 C 6.59 g/m*3 5.8 C 4.8 km/h
2854 10-02-2015 12:10:00 5.8 C 6.52 g/m*3 4.05 C 8.1 km/h
2855 10-02-2015 12:15:00 5.9 C 6.49 g/m*3 3.19 C 12.9 km/h
2856 10-02-2015 12:20:00 5.9 C 6.42 g/m*3 3.48 C 11.3 km/h
2857 10-02-2015 12:25:00 6 C 6.39 g/m*3 3.92 C 9.7 km/h
2858 10-02-2015 12:30:00 6.1 C 6.36 g/m*3 4.04 C 9.7 km/h
2859 10-02-2015 12:35:00 6.2 C 6.4 g/m*3 4.15 C 9.7 km/h
2860 10-02-2015 12:40:00 6.2 C 6.4 g/m*3 4.52 C 8.1 km/h
2861 10-02-2015 12:45:00 6.3 C 6.37 g/m*3 2.98 C 17.7 km/h
2862 10-02-2015 12:50:00 6.3 C 6.37 g/m*3 2.98 C 17.7 km/h
2863 10-02-2015 12:55:00 6.3 C 6.37 g/m*3 4.64 C 8.1 km/h
2864 10-02-2015 13:00:00 6.3 C 6.37 g/m*3 4.27 C 9.7 km/h
2865 10-02-2015 13:05:00 6.3 C 6.37 g/m*3 5.1 C 6.4 km/h
2866 10-02-2015 13:10:00 6.3 C 6.37 g/m*3 4.27 C 9.7 km/h
2867 10-02-2015 13:15:00 6.4 C 6.33 g/m*3 4.75 C 8.1 km/h
2868 10-02-2015 13:20:00 6.4 C 6.33 g/m*3 4.39 C 9.7 km/h
2869 10-02-2015 13:25:00 6.3 C 6.29 g/m*3 5.1 C 6.4 km/h
2870 10-02-2015 13:30:00 6.3 C 6.29 g/m*3 6.3 C 4.8 km/h
2871 10-02-2015 13:35:00 6.3 C 6.29 g/m*3 4.64 C 8.1 km/h
2872 10-02-2015 13:40:00 6.3 C 6.29 g/m*3 4.64 C 8.1 km/h
2873 10-02-2015 13:45:00 6.3 C 6.29 g/m*3 5.1 C 6.4 km/h
2874 10-02-2015 13:50:00 6.3 C 6.37 g/m*3 4.64 C 8.1 km/h
2875 10-02-2015 13:55:00 6.3 C 6.37 g/m*3 4.64 C 8.1 km/h
Sensor: Nr:Datum:Temp:Abs-Feuchte:Windchill:Wind:
Aussen-T/F 2876 10-02-2015 14:00:00 6.2 C 6.32 g/m*3 6.2 C 4.8 km/h
2877 10-02-2015 14:05:00 6.2 C 6.32 g/m*3 6.2 C 4.8 km/h
2878 10-02-2015 14:10:00 6.2 C 6.32 g/m*3 6.2 C 3.2 km/h
2879 10-02-2015 14:15:00 6.2 C 6.32 g/m*3 6.2 C 3.2 km/h
2880 10-02-2015 14:20:00 6.2 C 6.32 g/m*3 6.2 C 4.8 km/h
2881 10-02-2015 14:25:00 6.2 C 6.4 g/m*3 6.2 C 4.8 km/h
2882 10-02-2015 14:30:00 6.2 C 6.32 g/m*3 4.98 C 6.4 km/h
2883 10-02-2015 14:35:00 6.2 C 6.25 g/m*3 6.2 C 3.2 km/h
2884 10-02-2015 14:40:00 6.2 C 6.25 g/m*3 6.2 C 4.8 km/h
2885 10-02-2015 14:45:00 6.2 C 6.25 g/m*3 6.2 C 4.8 km/h
2886 10-02-2015 14:50:00 6.2 C 6.32 g/m*3 6.2 C 4.8 km/h
2887 10-02-2015 14:55:00 6.2 C 6.25 g/m*3 6.2 C 4.8 km/h
2888 10-02-2015 15:00:00 6.2 C 6.25 g/m*3 4.98 C 6.4 km/h
2889 10-02-2015 15:05:00 6.2 C 6.25 g/m*3 6.2 C 1.6 km/h
2890 10-02-2015 15:10:00 6.2 C 6.18 g/m*3 6.2 C 3.2 km/h
2891 10-02-2015 15:15:00 6.1 C 6.21 g/m*3 6.1 C 1.6 km/h
2892 10-02-2015 15:20:00 6.1 C 6.28 g/m*3 4.86 C 6.4 km/h
2893 10-02-2015 15:25:00 6.1 C 6.28 g/m*3 4.86 C 6.4 km/h
2894 10-02-2015 15:30:00 6.1 C 6.28 g/m*3 6.1 C 3.2 km/h
2895 10-02-2015 15:35:00 6.1 C 6.21 g/m*3 6.1 C 4.8 km/h
2896 10-02-2015 15:40:00 6.1 C 6.21 g/m*3 6.1 C 3.2 km/h
2897 10-02-2015 15:45:00 6.1 C 6.21 g/m*3 6.1 C 4.8 km/h
2898 10-02-2015 15:50:00 6 C 6.1 g/m*3 4.75 C 6.4 km/h
2899 10-02-2015 15:55:00 6 C 6.1 g/m*3 3.92 C 9.7 km/h
2900 10-02-2015 16:00:00 6 C 6.17 g/m*3 4.75 C 6.4 km/h
Sensor: Nr:Datum:Temp:Abs-Feuchte:Windchill:Wind:
Aussen-T/F 2901 10-02-2015 16:05:00 5.9 C 6.13 g/m*3 4.17 C 8.1 km/h
2902 10-02-2015 16:10:00 5.9 C 6.13 g/m*3 5.9 C 4.8 km/h
2903 10-02-2015 16:15:00 5.9 C 6.06 g/m*3 3.48 C 11.3 km/h
2904 10-02-2015 16:20:00 5.9 C 6.13 g/m*3 3.8 C 9.7 km/h
2905 10-02-2015 16:25:00 5.9 C 6.06 g/m*3 4.17 C 8.1 km/h
2906 10-02-2015 16:30:00 5.8 C 6.02 g/m*3 4.52 C 6.4 km/h
2907 10-02-2015 16:35:00 5.8 C 6.02 g/m*3 4.05 C 8.1 km/h
2908 10-02-2015 16:40:00 5.8 C 6.02 g/m*3 5.8 C 4.8 km/h
2909 10-02-2015 16:45:00 5.8 C 6.02 g/m*3 4.52 C 6.4 km/h
2910 10-02-2015 16:50:00 5.8 C 6.09 g/m*3 5.8 C 4.8 km/h
2911 10-02-2015 16:55:00 5.7 C 6.05 g/m*3 5.7 C 1.6 km/h
2912 10-02-2015 17:00:00 5.7 C 5.98 g/m*3 5.7 C 3.2 km/h
2913 10-02-2015 17:05:00 5.7 C 5.98 g/m*3 4.4 C 6.4 km/h
2914 10-02-2015 17:10:00 5.7 C 5.98 g/m*3 4.4 C 6.4 km/h
2915 10-02-2015 17:15:00 5.7 C 5.98 g/m*3 3.56 C 9.7 km/h
2916 10-02-2015 17:20:00 5.7 C 6.05 g/m*3 3.93 C 8.1 km/h
2917 10-02-2015 17:25:00 5.7 C 6.05 g/m*3 5.7 C 4.8 km/h
2918 10-02-2015 17:30:00 5.6 C 6.01 g/m*3 5.6 C 4.8 km/h
2919 10-02-2015 17:35:00 5.6 C 6.01 g/m*3 5.6 C 1.6 km/h
2920 10-02-2015 17:40:00 5.6 C 6.01 g/m*3 5.6 C 4.8 km/h
2921 10-02-2015 17:45:00 5.6 C 6.01 g/m*3 5.6 C 4.8 km/h
2922 10-02-2015 17:50:00 5.6 C 6.01 g/m*3 3.81 C 8.1 km/h
2923 10-02-2015 17:55:00 5.6 C 6.01 g/m*3 5.6 C 3.2 km/h
2924 10-02-2015 18:00:00 5.6 C 6.01 g/m*3 5.6 C 3.2 km/h
2925 10-02-2015 18:05:00 5.5 C 5.97 g/m*3 5.5 C 1.6 km/h
Sensor: Nr:Datum:Temp:Abs-Feuchte:Windchill:Wind:
Aussen-T/F 2926 10-02-2015 18:10:00 5.5 C 5.97 g/m*3 5.5 C 3.2 km/h
2927 10-02-2015 18:15:00 5.5 C 5.97 g/m*3 5.5 C 3.2 km/h
2928 10-02-2015 18:20:00 5.5 C 6.04 g/m*3 5.5 C 1.6 km/h
2929 10-02-2015 18:25:00 5.4 C 6 g/m*3 5.4 C 3.2 km/h
2930 10-02-2015 18:30:00 5.4 C 6 g/m*3 5.4 C 3.2 km/h
2931 10-02-2015 18:35:00 5.4 C 6 g/m*3 3.58 C 8.1 km/h
2932 10-02-2015 18:40:00 5.4 C 6 g/m*3 4.06 C 6.4 km/h
2933 10-02-2015 18:45:00 5.4 C 6 g/m*3 5.4 C 3.2 km/h
2934 10-02-2015 18:50:00 5.4 C 6 g/m*3 5.4 C 4.8 km/h
2935 10-02-2015 18:55:00 5.4 C 6 g/m*3 4.06 C 6.4 km/h
2936 10-02-2015 19:00:00 5.4 C 6 g/m*3 5.4 C 1.6 km/h
2937 10-02-2015 19:05:00 5.4 C 6.07 g/m*3 5.4 C 0 km/h
2938 10-02-2015 19:10:00 5.3 C 6.03 g/m*3 5.3 C 0 km/h
2939 10-02-2015 19:15:00 5.3 C 6.03 g/m*3 5.3 C 1.6 km/h
2940 10-02-2015 19:20:00 5.2 C 5.99 g/m*3 3.82 C 6.4 km/h
2941 10-02-2015 19:25:00 5.2 C 5.99 g/m*3 3.34 C 8.1 km/h
2942 10-02-2015 19:30:00 5.2 C 5.99 g/m*3 5.2 C 4.8 km/h
2943 10-02-2015 19:35:00 5.2 C 5.99 g/m*3 5.2 C 3.2 km/h
2944 10-02-2015 19:40:00 5.2 C 5.99 g/m*3 5.2 C 1.6 km/h
2945 10-02-2015 19:45:00 5.2 C 5.99 g/m*3 5.2 C 1.6 km/h
2946 10-02-2015 19:50:00 5.1 C 5.95 g/m*3 5.1 C 0 km/h
2947 10-02-2015 19:55:00 5.1 C 5.95 g/m*3 5.1 C 3.2 km/h
2948 10-02-2015 20:00:00 5.1 C 6.02 g/m*3 5.1 C 1.6 km/h
2949 10-02-2015 20:05:00 5.1 C 5.95 g/m*3 5.1 C 4.8 km/h
2950 10-02-2015 20:10:00 5 C 5.91 g/m*3 5 C 1.6 km/h
Sensor: Nr:Datum:Temp:Abs-Feuchte:Windchill:Wind:
Aussen-T/F 2951 10-02-2015 20:15:00 4.9 C 5.87 g/m*3 4.9 C 0 km/h
2952 10-02-2015 20:20:00 4.9 C 5.87 g/m*3 4.9 C 3.2 km/h
2953 10-02-2015 20:25:00 4.9 C 5.87 g/m*3 4.9 C 1.6 km/h
2954 10-02-2015 20:30:00 4.9 C 5.87 g/m*3 4.9 C 3.2 km/h
2955 10-02-2015 20:35:00 4.9 C 5.81 g/m*3 4.9 C 3.2 km/h
2956 10-02-2015 20:40:00 4.9 C 5.81 g/m*3 4.9 C 1.6 km/h
2957 10-02-2015 20:45:00 4.9 C 5.81 g/m*3 4.9 C 3.2 km/h
2958 10-02-2015 20:50:00 4.9 C 5.81 g/m*3 4.9 C 3.2 km/h
2959 10-02-2015 20:55:00 4.9 C 5.81 g/m*3 4.9 C 1.6 km/h
2960 10-02-2015 21:00:00 4.9 C 5.81 g/m*3 4.9 C 0 km/h
2961 10-02-2015 21:05:00 4.9 C 5.81 g/m*3 4.9 C 0 km/h
2962 10-02-2015 21:10:00 4.8 C 5.83 g/m*3 4.8 C 3.2 km/h
2963 10-02-2015 21:15:00 4.8 C 5.83 g/m*3 4.8 C 0 km/h
2964 10-02-2015 21:20:00 4.8 C 5.83 g/m*3 4.8 C 0 km/h
2965 10-02-2015 21:25:00 4.7 C 5.86 g/m*3 4.7 C 0 km/h
2966 10-02-2015 21:30:00 4.7 C 5.86 g/m*3 4.7 C 0 km/h
2967 10-02-2015 21:35:00 4.6 C 5.89 g/m*3 4.6 C 0 km/h
2968 10-02-2015 21:40:00 4.6 C 5.89 g/m*3 4.6 C 0 km/h
2969 10-02-2015 21:45:00 4.5 C 5.92 g/m*3 4.5 C 1.6 km/h
2970 10-02-2015 21:50:00 4.4 C 5.88 g/m*3 4.4 C 1.6 km/h
2971 10-02-2015 21:55:00 4.4 C 5.88 g/m*3 4.4 C 0 km/h
2972 10-02-2015 22:00:00 4.4 C 5.88 g/m*3 4.4 C 0 km/h
2973 10-02-2015 22:05:00 4.4 C 5.88 g/m*3 4.4 C 0 km/h
2974 10-02-2015 22:10:00 4.4 C 5.94 g/m*3 4.4 C 0 km/h
2975 10-02-2015 22:15:00 4.3 C 5.9 g/m*3 4.3 C 0 km/h
Sensor: Nr:Datum:Temp:Abs-Feuchte:Windchill:Wind:
Aussen-T/F 2976 10-02-2015 22:20:00 4.3 C 5.9 g/m*3 4.3 C 0 km/h
2977 10-02-2015 22:25:00 4.3 C 5.97 g/m*3 4.3 C 0 km/h
2978 10-02-2015 22:30:00 4.3 C 5.97 g/m*3 4.3 C 0 km/h
2979 10-02-2015 22:35:00 4.2 C 5.93 g/m*3 4.2 C 0 km/h
2980 10-02-2015 22:40:00 4.2 C 5.93 g/m*3 4.2 C 0 km/h
2981 10-02-2015 22:45:00 4.2 C 5.93 g/m*3 4.2 C 0 km/h
2982 10-02-2015 22:50:00 4.2 C 5.93 g/m*3 4.2 C 0 km/h
2983 10-02-2015 22:55:00 4.2 C 5.93 g/m*3 4.2 C 0 km/h
2984 10-02-2015 23:00:00 4.1 C 5.89 g/m*3 4.1 C 0 km/h
2985 10-02-2015 23:05:00 4.1 C 5.89 g/m*3 4.1 C 0 km/h
2986 10-02-2015 23:10:00 4.1 C 5.89 g/m*3 4.1 C 0 km/h
2987 10-02-2015 23:15:00 4.1 C 5.89 g/m*3 4.1 C 0 km/h
2988 10-02-2015 23:20:00 4.1 C 5.89 g/m*3 4.1 C 0 km/h
2989 10-02-2015 23:25:00 4.1 C 5.89 g/m*3 4.1 C 0 km/h
2990 10-02-2015 23:30:00 4.1 C 5.89 g/m*3 4.1 C 0 km/h
2991 10-02-2015 23:35:00 4.1 C 5.89 g/m*3 4.1 C 0 km/h
2992 10-02-2015 23:40:00 4.1 C 5.89 g/m*3 4.1 C 0 km/h
2993 10-02-2015 23:45:00 4.1 C 5.89 g/m*3 4.1 C 0 km/h
2994 10-02-2015 23:50:00 4.1 C 5.89 g/m*3 4.1 C 0 km/h
2995 10-02-2015 23:55:00 4.1 C 5.89 g/m*3 4.1 C 0 km/h
2996 11-02-2015 00:00:00 4.1 C 5.89 g/m*3 4.1 C 0 km/h
2997 11-02-2015 00:05:00 4.1 C 5.89 g/m*3 4.1 C 0 km/h
2998 11-02-2015 00:10:00 4 C 5.85 g/m*3 4 C 0 km/h
2999 11-02-2015 00:15:00 4 C 5.91 g/m*3 4 C 0 km/h
3000 11-02-2015 00:20:00 3.9 C 5.87 g/m*3 3.9 C 0 km/h
Sensor: Nr:Datum:Temp:Abs-Feuchte:Windchill:Wind:
Aussen-T/F 3001 11-02-2015 00:25:00 3.9 C 5.87 g/m*3 3.9 C 0 km/h
3002 11-02-2015 00:30:00 3.9 C 5.87 g/m*3 3.9 C 0 km/h
3003 11-02-2015 00:35:00 3.9 C 5.87 g/m*3 3.9 C 0 km/h
3004 11-02-2015 00:40:00 3.9 C 5.87 g/m*3 3.9 C 0 km/h
3005 11-02-2015 00:45:00 3.9 C 5.87 g/m*3 3.9 C 0 km/h
3006 11-02-2015 00:50:00 3.9 C 5.87 g/m*3 3.9 C 0 km/h
3007 11-02-2015 00:55:00 3.9 C 5.87 g/m*3 3.9 C 0 km/h
3008 11-02-2015 01:00:00 3.9 C 5.87 g/m*3 3.9 C 0 km/h
3009 11-02-2015 01:05:00 3.9 C 5.87 g/m*3 3.9 C 0 km/h
3010 11-02-2015 01:10:00 3.9 C 5.87 g/m*3 3.9 C 0 km/h
3011 11-02-2015 01:15:00 3.9 C 5.87 g/m*3 3.9 C 0 km/h
3012 11-02-2015 01:20:00 3.9 C 5.87 g/m*3 3.9 C 0 km/h
3013 11-02-2015 01:25:00 3.9 C 5.87 g/m*3 3.9 C 0 km/h
3014 11-02-2015 01:30:00 3.9 C 5.87 g/m*3 3.9 C 0 km/h
3015 11-02-2015 01:35:00 3.9 C 5.87 g/m*3 3.9 C 0 km/h
3016 11-02-2015 01:40:00 3.9 C 5.81 g/m*3 3.9 C 0 km/h
3017 11-02-2015 01:45:00 3.9 C 5.81 g/m*3 3.9 C 1.6 km/h
3018 11-02-2015 01:50:00 3.9 C 5.87 g/m*3 3.9 C 0 km/h
3019 11-02-2015 01:55:00 3.9 C 5.81 g/m*3 3.9 C 3.2 km/h
3020 11-02-2015 02:00:00 3.9 C 5.81 g/m*3 3.9 C 0 km/h
3021 11-02-2015 02:05:00 3.9 C 5.81 g/m*3 3.9 C 1.6 km/h
3022 11-02-2015 02:10:00 3.9 C 5.81 g/m*3 3.9 C 0 km/h
3023 11-02-2015 02:15:00 3.9 C 5.81 g/m*3 3.9 C 0 km/h
3024 11-02-2015 02:20:00 3.9 C 5.81 g/m*3 3.9 C 0 km/h
3025 11-02-2015 02:25:00 3.9 C 5.81 g/m*3 3.9 C 1.6 km/h
Sensor: Nr:Datum:Temp:Abs-Feuchte:Windchill:Wind:
Aussen-T/F 3026 11-02-2015 02:30:00 3.9 C 5.81 g/m*3 3.9 C 0 km/h
3027 11-02-2015 02:35:00 3.9 C 5.81 g/m*3 3.9 C 0 km/h
3028 11-02-2015 02:40:00 3.9 C 5.81 g/m*3 3.9 C 0 km/h
3029 11-02-2015 02:45:00 3.9 C 5.81 g/m*3 3.9 C 0 km/h
3030 11-02-2015 02:50:00 3.9 C 5.75 g/m*3 3.9 C 0 km/h
3031 11-02-2015 02:55:00 3.9 C 5.75 g/m*3 3.9 C 1.6 km/h
3032 11-02-2015 03:00:00 3.9 C 5.75 g/m*3 3.9 C 0 km/h
3033 11-02-2015 03:05:00 3.9 C 5.75 g/m*3 3.9 C 0 km/h
3034 11-02-2015 03:10:00 3.9 C 5.75 g/m*3 3.9 C 0 km/h
3035 11-02-2015 03:15:00 3.9 C 5.75 g/m*3 3.9 C 0 km/h
3036 11-02-2015 03:20:00 3.8 C 5.71 g/m*3 3.8 C 0 km/h
3037 11-02-2015 03:25:00 3.8 C 5.71 g/m*3 3.8 C 1.6 km/h
3038 11-02-2015 03:30:00 3.9 C 5.75 g/m*3 3.9 C 0 km/h
3039 11-02-2015 03:35:00 3.9 C 5.75 g/m*3 3.9 C 0 km/h
3040 11-02-2015 03:40:00 3.8 C 5.71 g/m*3 3.8 C 0 km/h
3041 11-02-2015 03:45:00 3.8 C 5.65 g/m*3 3.8 C 1.6 km/h
3042 11-02-2015 03:50:00 3.8 C 5.58 g/m*3 3.8 C 0 km/h
3043 11-02-2015 03:55:00 3.9 C 5.68 g/m*3 3.9 C 1.6 km/h
3044 11-02-2015 04:00:00 3.9 C 5.62 g/m*3 3.9 C 1.6 km/h
3045 11-02-2015 04:05:00 3.9 C 5.68 g/m*3 3.9 C 0 km/h
3046 11-02-2015 04:10:00 3.9 C 5.68 g/m*3 3.9 C 0 km/h
3047 11-02-2015 04:15:00 3.8 C 5.65 g/m*3 3.8 C 0 km/h
3048 11-02-2015 04:20:00 3.8 C 5.65 g/m*3 3.8 C 0 km/h
3049 11-02-2015 04:25:00 3.8 C 5.65 g/m*3 3.8 C 0 km/h
3050 11-02-2015 04:30:00 3.8 C 5.65 g/m*3 3.8 C 1.6 km/h
Sensor: Nr:Datum:Temp:Abs-Feuchte:Windchill:Wind:
Aussen-T/F 3051 11-02-2015 04:35:00 3.7 C 5.55 g/m*3 3.7 C 1.6 km/h
3052 11-02-2015 04:40:00 3.8 C 5.58 g/m*3 3.8 C 4.8 km/h
3053 11-02-2015 04:45:00 3.8 C 5.52 g/m*3 3.8 C 1.6 km/h
3054 11-02-2015 04:50:00 3.8 C 5.46 g/m*3 2.21 C 6.4 km/h
3055 11-02-2015 04:55:00 3.9 C 5.56 g/m*3 3.9 C 0 km/h
3056 11-02-2015 05:00:00 3.9 C 5.56 g/m*3 3.9 C 0 km/h
3057 11-02-2015 05:05:00 3.8 C 5.58 g/m*3 3.8 C 0 km/h
3058 11-02-2015 05:10:00 3.8 C 5.58 g/m*3 3.8 C 0 km/h
3059 11-02-2015 05:15:00 3.8 C 5.65 g/m*3 3.8 C 0 km/h
3060 11-02-2015 05:20:00 3.7 C 5.61 g/m*3 3.7 C 0 km/h
3061 11-02-2015 05:25:00 3.7 C 5.61 g/m*3 3.7 C 0 km/h
3062 11-02-2015 05:30:00 3.7 C 5.55 g/m*3 3.7 C 3.2 km/h
3063 11-02-2015 05:35:00 3.7 C 5.61 g/m*3 3.7 C 0 km/h
3064 11-02-2015 05:40:00 3.7 C 5.61 g/m*3 3.7 C 3.2 km/h
3065 11-02-2015 05:45:00 3.7 C 5.55 g/m*3 3.7 C 0 km/h
3066 11-02-2015 05:50:00 3.7 C 5.55 g/m*3 3.7 C 1.6 km/h
3067 11-02-2015 05:55:00 3.7 C 5.55 g/m*3 3.7 C 1.6 km/h
3068 11-02-2015 06:00:00 3.7 C 5.55 g/m*3 3.7 C 1.6 km/h
3069 11-02-2015 06:05:00 3.7 C 5.55 g/m*3 3.7 C 1.6 km/h
3070 11-02-2015 06:10:00 3.7 C 5.55 g/m*3 3.7 C 1.6 km/h
3071 11-02-2015 06:15:00 3.7 C 5.48 g/m*3 2.09 C 6.4 km/h
3072 11-02-2015 06:20:00 3.7 C 5.48 g/m*3 2.09 C 6.4 km/h
3073 11-02-2015 06:25:00 3.7 C 5.48 g/m*3 3.7 C 4.8 km/h
3074 11-02-2015 06:30:00 3.7 C 5.48 g/m*3 3.7 C 3.2 km/h
3075 11-02-2015 06:35:00 3.7 C 5.48 g/m*3 3.7 C 4.8 km/h
Sensor: Nr:Datum:Temp:Abs-Feuchte:Windchill:Wind:
Aussen-T/F 3076 11-02-2015 06:40:00 3.7 C 5.48 g/m*3 3.7 C 4.8 km/h
3077 11-02-2015 06:45:00 3.7 C 5.48 g/m*3 3.7 C 3.2 km/h
3078 11-02-2015 06:50:00 3.6 C 5.45 g/m*3 3.6 C 3.2 km/h
3079 11-02-2015 06:55:00 3.6 C 5.39 g/m*3 3.6 C 1.6 km/h
3080 11-02-2015 07:00:00 3.6 C 5.39 g/m*3 3.6 C 4.8 km/h
3081 11-02-2015 07:05:00 3.6 C 5.45 g/m*3 3.6 C 0 km/h
3082 11-02-2015 07:10:00 3.6 C 5.45 g/m*3 3.6 C 0 km/h
3083 11-02-2015 07:15:00 3.5 C 5.41 g/m*3 3.5 C 3.2 km/h
3084 11-02-2015 07:20:00 3.5 C 5.35 g/m*3 3.5 C 1.6 km/h
3085 11-02-2015 07:25:00 3.5 C 5.35 g/m*3 3.5 C 1.6 km/h
3086 11-02-2015 07:30:00 3.4 C 5.31 g/m*3 1.75 C 6.4 km/h
3087 11-02-2015 07:35:00 3.4 C 5.37 g/m*3 3.4 C 4.8 km/h
3088 11-02-2015 07:40:00 3.4 C 5.37 g/m*3 1.75 C 6.4 km/h
3089 11-02-2015 07:45:00 3.4 C 5.37 g/m*3 3.4 C 0 km/h
3090 11-02-2015 07:50:00 3.4 C 5.37 g/m*3 3.4 C 1.6 km/h
3091 11-02-2015 07:55:00 3.4 C 5.37 g/m*3 3.4 C 1.6 km/h
3092 11-02-2015 08:00:00 3.4 C 5.37 g/m*3 3.4 C 1.6 km/h
3093 11-02-2015 08:05:00 3.4 C 5.37 g/m*3 3.4 C 0 km/h
3094 11-02-2015 08:10:00 3.4 C 5.37 g/m*3 3.4 C 0 km/h
3095 11-02-2015 08:15:00 3.4 C 5.37 g/m*3 3.4 C 3.2 km/h
3096 11-02-2015 08:20:00 3.4 C 5.37 g/m*3 3.4 C 3.2 km/h
3097 11-02-2015 08:25:00 3.4 C 5.37 g/m*3 3.4 C 4.8 km/h
3098 11-02-2015 08:30:00 3.4 C 5.37 g/m*3 3.4 C 0 km/h
3099 11-02-2015 08:35:00 3.4 C 5.37 g/m*3 3.4 C 0 km/h
3100 11-02-2015 08:40:00 3.4 C 5.37 g/m*3 3.4 C 0 km/h
Sensor: Nr:Datum:Temp:Abs-Feuchte:Windchill:Wind:
Aussen-T/F 3101 11-02-2015 08:45:00 3.4 C 5.37 g/m*3 3.4 C 4.8 km/h
3102 11-02-2015 08:50:00 3.4 C 5.37 g/m*3 3.4 C 1.6 km/h
3103 11-02-2015 08:55:00 3.4 C 5.37 g/m*3 3.4 C 3.2 km/h
3104 11-02-2015 09:00:00 3.4 C 5.37 g/m*3 3.4 C 3.2 km/h
3105 11-02-2015 09:05:00 3.4 C 5.37 g/m*3 3.4 C 1.6 km/h
3106 11-02-2015 09:10:00 3.5 C 5.41 g/m*3 3.5 C 3.2 km/h
3107 11-02-2015 09:15:00 3.4 C 5.37 g/m*3 3.4 C 0 km/h
3108 11-02-2015 09:20:00 3.5 C 5.41 g/m*3 3.5 C 1.6 km/h
3109 11-02-2015 09:25:00 3.5 C 5.41 g/m*3 3.5 C 1.6 km/h
3110 11-02-2015 09:30:00 3.5 C 5.41 g/m*3 3.5 C 3.2 km/h
3111 11-02-2015 09:35:00 3.5 C 5.41 g/m*3 3.5 C 0 km/h
3112 11-02-2015 09:40:00 3.6 C 5.45 g/m*3 1.98 C 6.4 km/h
3113 11-02-2015 09:45:00 3.6 C 5.39 g/m*3 3.6 C 4.8 km/h
3114 11-02-2015 09:50:00 3.6 C 5.45 g/m*3 3.6 C 3.2 km/h
3115 11-02-2015 09:55:00 3.6 C 5.39 g/m*3 3.6 C 4.8 km/h
3116 11-02-2015 10:00:00 3.6 C 5.39 g/m*3 3.6 C 1.6 km/h
3117 11-02-2015 10:05:00 3.6 C 5.39 g/m*3 3.6 C 4.8 km/h
3118 11-02-2015 10:10:00 3.6 C 5.39 g/m*3 3.6 C 4.8 km/h
3119 11-02-2015 10:15:00 3.6 C 5.39 g/m*3 3.6 C 3.2 km/h
3120 11-02-2015 10:20:00 3.7 C 5.42 g/m*3 3.7 C 1.6 km/h
3121 11-02-2015 10:25:00 3.7 C 5.36 g/m*3 3.7 C 3.2 km/h
3122 11-02-2015 10:30:00 3.7 C 5.36 g/m*3 3.7 C 3.2 km/h
3123 11-02-2015 10:35:00 3.7 C 5.36 g/m*3 3.7 C 1.6 km/h
3124 11-02-2015 10:40:00 3.7 C 5.42 g/m*3 3.7 C 4.8 km/h
3125 11-02-2015 10:45:00 3.8 C 5.4 g/m*3 1.7 C 8.1 km/h
Sensor: Nr:Datum:Temp:Abs-Feuchte:Windchill:Wind:
Aussen-T/F 3126 11-02-2015 10:50:00 3.7 C 5.3 g/m*3 2.09 C 6.4 km/h
3127 11-02-2015 10:55:00 3.7 C 5.3 g/m*3 1.58 C 8.1 km/h
3128 11-02-2015 11:00:00 3.8 C 5.33 g/m*3 1.7 C 8.1 km/h
3129 11-02-2015 11:05:00 3.8 C 5.33 g/m*3 3.8 C 4.8 km/h
3130 11-02-2015 11:10:00 3.8 C 5.4 g/m*3 3.8 C 4.8 km/h
3131 11-02-2015 11:15:00 3.9 C 5.37 g/m*3 3.9 C 1.6 km/h
3132 11-02-2015 11:20:00 3.9 C 5.43 g/m*3 3.9 C 4.8 km/h
3133 11-02-2015 11:25:00 4.1 C 5.44 g/m*3 4.1 C 4.8 km/h
3134 11-02-2015 11:30:00 4.1 C 5.44 g/m*3 4.1 C 4.8 km/h
3135 11-02-2015 11:35:00 4.2 C 5.48 g/m*3 4.2 C 4.8 km/h
3136 11-02-2015 11:40:00 4.2 C 5.48 g/m*3 4.2 C 4.8 km/h
3137 11-02-2015 11:45:00 4.2 C 5.48 g/m*3 4.2 C 4.8 km/h
3138 11-02-2015 11:50:00 4.2 C 5.41 g/m*3 2.17 C 8.1 km/h
3139 11-02-2015 11:55:00 4.2 C 5.41 g/m*3 2.67 C 6.4 km/h
3140 11-02-2015 12:00:00 4.2 C 5.41 g/m*3 4.2 C 4.8 km/h
3141 11-02-2015 12:05:00 4.3 C 5.51 g/m*3 2.78 C 6.4 km/h
3142 11-02-2015 12:10:00 4.4 C 5.55 g/m*3 4.4 C 4.8 km/h
3143 11-02-2015 12:15:00 4.3 C 5.38 g/m*3 2.78 C 6.4 km/h
3144 11-02-2015 12:20:00 4.2 C 5.35 g/m*3 2.67 C 6.4 km/h
3145 11-02-2015 12:25:00 4.2 C 5.35 g/m*3 4.2 C 1.6 km/h
3146 11-02-2015 12:30:00 4.3 C 5.45 g/m*3 4.3 C 3.2 km/h
3147 11-02-2015 12:35:00 4.4 C 5.48 g/m*3 2.4 C 8.1 km/h
3148 11-02-2015 12:40:00 4.5 C 5.52 g/m*3 3.02 C 6.4 km/h
3149 11-02-2015 12:45:00 4.4 C 5.42 g/m*3 2.01 C 9.7 km/h
3150 11-02-2015 12:50:00 4.4 C 5.42 g/m*3 4.4 C 3.2 km/h
Sensor: Nr:Datum:Temp:Abs-Feuchte:Windchill:Wind:
Aussen-T/F 3151 11-02-2015 12:55:00 4.4 C 5.48 g/m*3 4.4 C 4.8 km/h
3152 11-02-2015 13:00:00 4.6 C 5.56 g/m*3 4.6 C 3.2 km/h
3153 11-02-2015 13:05:00 4.6 C 5.56 g/m*3 2.64 C 8.1 km/h
3154 11-02-2015 13:10:00 4.6 C 5.49 g/m*3 2.64 C 8.1 km/h
3155 11-02-2015 13:15:00 4.6 C 5.49 g/m*3 2.25 C 9.7 km/h
3156 11-02-2015 13:20:00 4.6 C 5.49 g/m*3 3.13 C 6.4 km/h
3157 11-02-2015 13:25:00 4.7 C 5.53 g/m*3 2.76 C 8.1 km/h
3158 11-02-2015 13:30:00 4.7 C 5.6 g/m*3 2.03 C 11.3 km/h
3159 11-02-2015 13:35:00 4.8 C 5.57 g/m*3 2.15 C 11.3 km/h
3160 11-02-2015 13:40:00 5 C 5.57 g/m*3 3.59 C 6.4 km/h
3161 11-02-2015 13:45:00 5 C 5.5 g/m*3 5 C 4.8 km/h
3162 11-02-2015 13:50:00 5 C 5.57 g/m*3 5 C 4.8 km/h
3163 11-02-2015 13:55:00 5.1 C 5.68 g/m*3 3.23 C 8.1 km/h
3164 11-02-2015 14:00:00 5.1 C 5.61 g/m*3 2.84 C 9.7 km/h
3165 11-02-2015 14:05:00 5.2 C 5.58 g/m*3 3.82 C 6.4 km/h
3166 11-02-2015 14:10:00 5.1 C 5.54 g/m*3 5.1 C 3.2 km/h
3167 11-02-2015 14:15:00 5.2 C 5.65 g/m*3 3.82 C 6.4 km/h
3168 11-02-2015 14:20:00 5.3 C 5.61 g/m*3 5.3 C 4.8 km/h
3169 11-02-2015 14:25:00 5.3 C 5.54 g/m*3 3.46 C 8.1 km/h
3170 11-02-2015 14:30:00 5.3 C 5.68 g/m*3 3.46 C 8.1 km/h
3171 11-02-2015 14:35:00 5.3 C 5.61 g/m*3 3.08 C 9.7 km/h
3172 11-02-2015 14:40:00 5.3 C 5.61 g/m*3 3.08 C 9.7 km/h
3173 11-02-2015 14:45:00 5.3 C 5.68 g/m*3 3.46 C 8.1 km/h
3174 11-02-2015 14:50:00 5.4 C 5.65 g/m*3 5.4 C 4.8 km/h
3175 11-02-2015 14:55:00 5.4 C 5.58 g/m*3 5.4 C 3.2 km/h
Sensor: Nr:Datum:Temp:Abs-Feuchte:Windchill:Wind:
Aussen-T/F 3176 11-02-2015 15:00:00 5.4 C 5.65 g/m*3 4.06 C 6.4 km/h
3177 11-02-2015 15:05:00 5.3 C 5.54 g/m*3 5.3 C 4.8 km/h
3178 11-02-2015 15:10:00 5.3 C 5.61 g/m*3 5.3 C 3.2 km/h
3179 11-02-2015 15:15:00 5.3 C 5.61 g/m*3 5.3 C 4.8 km/h
3180 11-02-2015 15:20:00 5.3 C 5.68 g/m*3 5.3 C 3.2 km/h
3181 11-02-2015 15:25:00 5.3 C 5.61 g/m*3 5.3 C 4.8 km/h
3182 11-02-2015 15:30:00 5.2 C 5.58 g/m*3 3.82 C 6.4 km/h
3183 11-02-2015 15:35:00 5.2 C 5.65 g/m*3 3.82 C 6.4 km/h
3184 11-02-2015 15:40:00 5.3 C 5.61 g/m*3 3.94 C 6.4 km/h
3185 11-02-2015 15:45:00 5.3 C 5.61 g/m*3 3.94 C 6.4 km/h
3186 11-02-2015 15:50:00 5.3 C 5.68 g/m*3 5.3 C 4.8 km/h
3187 11-02-2015 15:55:00 5.3 C 5.61 g/m*3 3.94 C 6.4 km/h
3188 11-02-2015 16:00:00 5.2 C 5.58 g/m*3 3.82 C 6.4 km/h
3189 11-02-2015 16:05:00 5.2 C 5.58 g/m*3 5.2 C 1.6 km/h
3190 11-02-2015 16:10:00 5.1 C 5.61 g/m*3 5.1 C 1.6 km/h
3191 11-02-2015 16:15:00 5 C 5.57 g/m*3 5 C 4.8 km/h
3192 11-02-2015 16:20:00 4.8 C 5.43 g/m*3 4.8 C 4.8 km/h
3193 11-02-2015 16:25:00 4.8 C 5.5 g/m*3 4.8 C 1.6 km/h
3194 11-02-2015 16:30:00 4.7 C 5.53 g/m*3 3.25 C 6.4 km/h
3195 11-02-2015 16:35:00 4.7 C 5.53 g/m*3 2.76 C 8.1 km/h
3196 11-02-2015 16:40:00 4.6 C 5.49 g/m*3 4.6 C 3.2 km/h
3197 11-02-2015 16:45:00 4.6 C 5.49 g/m*3 4.6 C 0 km/h
3198 11-02-2015 16:50:00 4.6 C 5.49 g/m*3 4.6 C 3.2 km/h
3199 11-02-2015 16:55:00 4.6 C 5.56 g/m*3 4.6 C 0 km/h
3200 11-02-2015 17:00:00 4.5 C 5.52 g/m*3 4.5 C 0 km/h
Sensor: Nr:Datum:Temp:Abs-Feuchte:Windchill:Wind:
Aussen-T/F 3201 11-02-2015 17:05:00 4.4 C 5.48 g/m*3 4.4 C 3.2 km/h
3202 11-02-2015 17:10:00 4.4 C 5.48 g/m*3 4.4 C 3.2 km/h
3203 11-02-2015 17:15:00 4.3 C 5.45 g/m*3 4.3 C 0 km/h
3204 11-02-2015 17:20:00 4.2 C 5.41 g/m*3 4.2 C 4.8 km/h
3205 11-02-2015 17:25:00 4.1 C 5.38 g/m*3 4.1 C 0 km/h
3206 11-02-2015 17:30:00 4 C 5.4 g/m*3 4 C 0 km/h
3207 11-02-2015 17:35:00 3.9 C 5.37 g/m*3 3.9 C 1.6 km/h
3208 11-02-2015 17:40:00 3.8 C 5.4 g/m*3 3.8 C 0 km/h
3209 11-02-2015 17:45:00 3.7 C 5.42 g/m*3 3.7 C 1.6 km/h
3210 11-02-2015 17:50:00 3.6 C 5.39 g/m*3 3.6 C 3.2 km/h
3211 11-02-2015 17:55:00 3.5 C 5.35 g/m*3 3.5 C 1.6 km/h
3212 11-02-2015 18:00:00 3.4 C 5.31 g/m*3 3.4 C 1.6 km/h
3213 11-02-2015 18:05:00 3.5 C 5.35 g/m*3 1.86 C 6.4 km/h
3214 11-02-2015 18:10:00 3.5 C 5.35 g/m*3 3.5 C 1.6 km/h
3215 11-02-2015 18:15:00 3.4 C 5.31 g/m*3 3.4 C 4.8 km/h
3216 11-02-2015 18:20:00 3.4 C 5.31 g/m*3 3.4 C 4.8 km/h
3217 11-02-2015 18:25:00 3.4 C 5.31 g/m*3 3.4 C 4.8 km/h
3218 11-02-2015 18:30:00 3.4 C 5.31 g/m*3 3.4 C 0 km/h
3219 11-02-2015 18:35:00 3.3 C 5.34 g/m*3 3.3 C 0 km/h
3220 11-02-2015 18:40:00 3.2 C 5.3 g/m*3 3.2 C 0 km/h
3221 11-02-2015 18:45:00 3.2 C 5.3 g/m*3 3.2 C 1.6 km/h
3222 11-02-2015 18:50:00